LS1259 / G-JZHB 7700 Squawk Report (21st of September, 2021)

Aircraft B738 Reg No. G-JZHB Age 21 years old
Model 737 Jet engines 2 First flight 04-05-00
Registered 17-03-15 Rollout N/A Delivered 21-05-00
Construction No. 28623 Line No. 0556 Series 86N
ADSHEX 406C80 Airline name Jet2 Owner Aercap Holdings N.V.
Airfield based Leeds-Bradford~Yorks~G First tracked N/A

Flight history for G-JZHB

Route Flight No Date Playback
Menorca (MAH) - Leeds Bradford (LBA) LS376 2021-10-22 13:41:00
Leeds Bradford (LBA) - Menorca (MAH) LS375 2021-10-22 11:38:00
Rhodes Diagoras (RHO) - Leeds Bradford (LBA) LS422 2021-10-22 01:06:00
Leeds Bradford (LBA) - Rhodes Diagoras (RHO) LS421 2021-10-21 19:29:00
Alicante (ALC) - Leeds Bradford (LBA) LS272 2021-10-21 15:28:00
Leeds Bradford (LBA) - Alicante (ALC) LS271 2021-10-21 10:23:00
Luqa (MLA) - Leeds Bradford (LBA) LS240 2021-10-20 13:01:00
Leeds Bradford (LBA) - Luqa (MLA) LS239 2021-10-20 09:26:00
Alicante (ALC) - Leeds Bradford (LBA) LS272 2021-10-19 14:10:00
Leeds Bradford (LBA) - Alicante (ALC) LS271 2021-10-19 11:30:00
Menorca (MAH) - Leeds Bradford (LBA) LS376 2021-10-18 14:43:00
Ibiza (IBZ) - Leeds Bradford (LBA) LS198 2021-10-18 12:06:00
Leeds Bradford (LBA) - Ibiza (IBZ) LS197 2021-10-18 10:29:00
Birmingham (BHX) - Leeds Bradford (LBA) LS76 2021-10-17 12:26:00
Antalya (AYT) - Birmingham (BHX) LS1240 2021-10-17 01:48:00
Birmingham (BHX) - Antalya (AYT) LS1239 2021-10-16 21:34:00
Kefallinia (EFL) - Birmingham (BHX) LS1254 2021-10-16 15:14:00
Birmingham (BHX) - Kefallinia (EFL) LS1253 2021-10-16 10:32:00
Pafos Intl (PFO) - Birmingham (BHX) LS1272 2021-10-16 00:05:00
Birmingham (BHX) - Pafos Intl (PFO) LS1271 2021-10-15 19:45:00
Time Lat Lon Altitude Heading Speed Vertical Rate
2021-09-21 13:12:18 GMT 37.019096 -7.973328 0 11 0 0
2021-09-21 13:12:08 GMT 37.019073 -7.973328 0 11 3 0
2021-09-21 13:11:58 GMT 37.018875 -7.973372 0 8 5 0
2021-09-21 13:11:47 GMT 37.018642 -7.973417 0 340 6 0
2021-09-21 13:11:37 GMT 37.018467 -7.973269 0 281 6 0
2021-09-21 13:11:28 GMT 37.018398 -7.972760 0 281 12 0
2021-09-21 13:11:17 GMT 37.018307 -7.972130 0 281 11 0
2021-09-21 13:11:07 GMT 37.018204 -7.971458 0 281 14 0
2021-09-21 13:10:57 GMT 37.018093 -7.970686 0 281 13 0
2021-09-21 13:10:46 GMT 37.017998 -7.969982 0 281 12 0
2021-09-21 13:10:36 GMT 37.017899 -7.969357 0 289 11 0
2021-09-21 13:10:23 GMT 37.017384 -7.968999 0 8 12 0
2021-09-21 13:10:14 GMT 37.016991 -7.969044 0 337 13 0
2021-09-21 13:10:04 GMT 37.016640 -7.968506 0 281 15 0
2021-09-21 13:09:52 GMT 37.016464 -7.967279 0 278 20 0
2021-09-21 13:09:46 GMT 37.016350 -7.966520 0 281 20 0
2021-09-21 13:08:01 GMT 37.014313 -7.964297 0 90 29 0
2021-09-21 13:07:42 GMT 37.014824 -7.968626 -75 101 67 0
2021-09-21 13:07:33 GMT 37.015411 -7.972685 -75 100 94 0
2021-09-21 13:07:23 GMT 37.016327 -7.979113 -75 100 134 -128
2021-09-21 13:07:13 GMT 37.017456 -7.987120 0 100 136 -640
2021-09-21 13:07:03 GMT 37.018524 -7.994833 125 100 136 -640
2021-09-21 13:06:52 GMT 37.019737 -8.003301 250 100 135 -704
2021-09-21 13:06:41 GMT 37.020851 -8.011242 375 100 136 -512
2021-09-21 13:06:32 GMT 37.021973 -8.019064 475 100 135 -704
2021-09-21 13:06:21 GMT 37.023182 -8.027244 600 99 134 -704
2021-09-21 13:06:12 GMT 37.024158 -8.034230 750 100 135 -704
2021-09-21 13:06:09 GMT 37.024475 -8.036324 750 100 135 -704
2021-09-21 13:06:06 GMT 37.024841 -8.038778 775 99 134 -704
2021-09-21 13:06:05 GMT 37.024933 -8.039538 800 99 134 -704
2021-09-21 13:06:04 GMT 37.025024 -8.040297 800 99 134 -704
2021-09-21 13:06:03 GMT 37.025162 -8.041116 825 99 134 -640
2021-09-21 13:06:01 GMT 37.025368 -8.042589 825 99 133 -704
2021-09-21 13:05:59 GMT 37.025574 -8.044154 850 99 133 -704
2021-09-21 13:05:58 GMT 37.025742 -8.045455 875 99 133 -704
2021-09-21 13:05:55 GMT 37.025940 -8.046959 900 100 134 -704
2021-09-21 13:05:53 GMT 37.026169 -8.048596 925 98 134 -704
2021-09-21 13:05:52 GMT 37.026260 -8.049355 950 98 134 -704
2021-09-21 13:05:50 GMT 37.026489 -8.050875 975 98 134 -704
2021-09-21 13:05:49 GMT 37.026581 -8.051665 975 98 134 -704
2021-09-21 13:05:48 GMT 37.026859 -8.054053 1,025 99 134 -704
2021-09-21 13:05:46 GMT 37.026859 -8.054053 1,025 100 135 -768
2021-09-21 13:05:45 GMT 37.027130 -8.055900 1,050 100 135 -832
2021-09-21 13:05:44 GMT 37.027130 -8.055900 1,050 100 135 -832
2021-09-21 13:05:41 GMT 37.027405 -8.057712 1,075 99 135 -768
2021-09-21 13:05:40 GMT 37.027588 -8.059056 1,100 99 135 -704
2021-09-21 13:05:39 GMT 37.027699 -8.059726 1,100 99 135 -768
2021-09-21 13:05:38 GMT 37.027863 -8.061277 1,125 99 135 -640
2021-09-21 13:05:35 GMT 37.028114 -8.062830 1,150 100 136 -640
2021-09-21 13:05:33 GMT 37.028255 -8.063905 1,175 100 136 -640
2021-09-21 13:05:32 GMT 37.028458 -8.065192 1,175 100 136 -640
2021-09-21 13:05:29 GMT 37.028687 -8.066887 1,225 100 137 -704
2021-09-21 13:05:27 GMT 37.028915 -8.068523 1,250 100 136 -704
2021-09-21 13:05:25 GMT 37.029144 -8.069984 1,250 100 136 -704
2021-09-21 13:05:23 GMT 37.029465 -8.072205 1,300 100 136 -704
2021-09-21 13:05:21 GMT 37.029560 -8.072921 1,300 100 137 -704
2021-09-21 13:05:20 GMT 37.029839 -8.074593 1,325 100 138 -768
2021-09-21 13:05:17 GMT 37.030151 -8.076821 1,375 99 139 -832
2021-09-21 13:05:15 GMT 37.030289 -8.077698 1,375 99 140 -832
2021-09-21 13:05:14 GMT 37.030380 -8.078516 1,400 99 140 -832
2021-09-21 13:05:13 GMT 37.030491 -8.079250 1,400 100 140 -768
2021-09-21 13:05:10 GMT 37.030861 -8.081698 1,450 100 140 -768
2021-09-21 13:05:09 GMT 37.030975 -8.082490 1,450 100 141 -704
2021-09-21 13:05:08 GMT 37.031189 -8.084027 1,475 100 142 -576
2021-09-21 13:05:06 GMT 37.031326 -8.084922 1,500 100 142 -576
2021-09-21 13:05:05 GMT 37.031433 -8.085645 1,500 100 143 -512
2021-09-21 13:05:03 GMT 37.031700 -8.087609 1,525 99 145 -640
2021-09-21 13:05:02 GMT 37.032074 -8.090028 1,550 99 145 -640
2021-09-21 13:05:00 GMT 37.032074 -8.090028 1,550 99 145 -640
2021-09-21 13:04:59 GMT 37.032394 -8.092658 1,600 99 146 -704
2021-09-21 13:04:57 GMT 37.032394 -8.092658 1,600 99 146 -704
2021-09-21 13:04:56 GMT 37.032490 -8.093401 1,600 99 146 -576
2021-09-21 13:04:54 GMT 37.032677 -8.094834 1,625 99 147 -576
2021-09-21 13:04:53 GMT 37.032818 -8.095670 1,625 100 147 -704
2021-09-21 13:04:52 GMT 37.032909 -8.096506 1,650 100 148 -704
2021-09-21 13:04:51 GMT 37.033283 -8.099133 1,675 100 148 -704
2021-09-21 13:04:49 GMT 37.033283 -8.099133 1,675 100 148 -704
2021-09-21 13:04:47 GMT 37.033585 -8.100956 1,700 99 150 -768
2021-09-21 13:04:46 GMT 37.033703 -8.101939 1,725 99 151 -704
2021-09-21 13:04:44 GMT 37.033859 -8.103118 1,725 99 151 -768
2021-09-21 13:04:43 GMT 37.033981 -8.103910 1,750 99 152 -704
2021-09-21 13:04:42 GMT 37.034317 -8.106332 1,775 99 153 -704
2021-09-21 13:04:40 GMT 37.034401 -8.107134 1,800 99 153 -768
2021-09-21 13:04:38 GMT 37.034634 -8.108627 1,800 99 154 -768
2021-09-21 13:04:37 GMT 37.034725 -8.109463 1,825 99 156 -832
2021-09-21 13:04:36 GMT 37.034866 -8.110306 1,850 99 156 -832
2021-09-21 13:04:34 GMT 37.035286 -8.113284 1,875 99 157 -832
2021-09-21 13:04:33 GMT 37.035286 -8.113284 1,900 99 158 -832
2021-09-21 13:04:32 GMT 37.035423 -8.114299 1,900 99 159 -832
2021-09-21 13:04:31 GMT 37.035656 -8.116210 1,925 99 160 -832
2021-09-21 13:04:28 GMT 37.035873 -8.117611 1,950 99 161 -832
2021-09-21 13:04:27 GMT 37.036076 -8.119076 1,975 99 162 -896
2021-09-21 13:04:26 GMT 37.036194 -8.119890 2,000 100 163 -896
2021-09-21 13:04:24 GMT 37.036449 -8.121762 2,025 100 164 -896
2021-09-21 13:04:23 GMT 37.036587 -8.122658 2,025 100 165 -896
2021-09-21 13:04:22 GMT 37.036819 -8.124390 2,050 100 166 -832
2021-09-21 13:04:20 GMT 37.036961 -8.125405 2,075 99 168 -768
2021-09-21 13:04:18 GMT 37.037338 -8.127896 2,100 99 169 -832
2021-09-21 13:04:16 GMT 37.037521 -8.129298 2,125 99 171 -832
2021-09-21 13:04:15 GMT 37.037613 -8.130122 2,150 99 172 -832
2021-09-21 13:04:14 GMT 37.037796 -8.131344 2,150 99 173 -896
2021-09-21 13:04:13 GMT 37.038033 -8.132988 2,175 99 174 -896
2021-09-21 13:04:10 GMT 37.038357 -8.135495 2,225 99 175 -960
2021-09-21 13:04:07 GMT 37.038757 -8.138415 2,275 99 175 -1024
2021-09-21 13:04:06 GMT 37.039009 -8.140272 2,300 99 176 -1024
2021-09-21 13:04:04 GMT 37.039169 -8.141278 2,325 99 176 -1024
2021-09-21 13:04:03 GMT 37.039288 -8.142183 2,325 99 176 -1024
2021-09-21 13:04:01 GMT 37.039581 -8.144375 2,375 99 176 -1024
2021-09-21 13:04:00 GMT 37.039719 -8.145194 2,375 99 176 -1024
2021-09-21 13:03:59 GMT 37.039993 -8.147297 2,425 99 176 -1024
2021-09-21 13:03:57 GMT 37.040176 -8.148758 2,450 99 177 -1088
2021-09-21 13:03:56 GMT 37.040451 -8.150721 2,475 99 177 -960
2021-09-21 13:03:54 GMT 37.040588 -8.151680 2,500 99 177 -896
2021-09-21 13:03:53 GMT 37.040680 -8.152498 2,500 99 178 -896
2021-09-21 13:03:50 GMT 37.041092 -8.155420 2,550 99 178 -896
2021-09-21 13:03:48 GMT 37.041523 -8.158483 2,575 99 179 -896
2021-09-21 13:03:47 GMT 37.041523 -8.158483 2,600 99 179 -832
2021-09-21 13:03:45 GMT 37.041870 -8.160913 2,625 100 180 -832
2021-09-21 13:03:44 GMT 37.042099 -8.162608 2,650 100 181 -832
2021-09-21 13:03:42 GMT 37.042267 -8.163618 2,650 100 181 -832
2021-09-21 13:03:40 GMT 37.042511 -8.165179 2,675 101 182 -832
2021-09-21 13:03:39 GMT 37.042828 -8.167201 2,700 101 182 -896
2021-09-21 13:03:38 GMT 37.042969 -8.168160 2,725 101 182 -896
2021-09-21 13:03:37 GMT 37.043335 -8.170322 2,750 102 184 -896
2021-09-21 13:03:35 GMT 37.043472 -8.171140 2,775 102 184 -960
2021-09-21 13:03:33 GMT 37.043839 -8.173361 2,800 102 184 -1024
2021-09-21 13:03:32 GMT 37.043991 -8.174067 2,825 102 184 -1024
2021-09-21 13:03:30 GMT 37.044411 -8.176455 2,850 102 184 -1024
2021-09-21 13:03:29 GMT 37.044571 -8.177393 2,875 102 185 -1088
2021-09-21 13:03:28 GMT 37.045013 -8.179680 2,900 102 185 -1088
2021-09-21 13:03:25 GMT 37.045166 -8.180665 2,925 102 184 -1088
2021-09-21 13:03:24 GMT 37.045525 -8.182725 2,975 102 184 -1152
2021-09-21 13:03:22 GMT 37.045757 -8.183740 2,975 102 183 -1152
2021-09-21 13:03:21 GMT 37.046131 -8.185949 3,025 103 184 -1152
2021-09-21 13:03:19 GMT 37.046310 -8.186860 3,050 103 183 -1088
2021-09-21 13:03:17 GMT 37.046642 -8.188516 3,075 104 183 -1088
2021-09-21 13:03:16 GMT 37.046997 -8.190074 3,100 105 183 -1024
2021-09-21 13:03:14 GMT 37.047501 -8.192178 3,125 106 183 -832
2021-09-21 13:03:13 GMT 37.047714 -8.193114 3,150 107 183 -768
2021-09-21 13:03:12 GMT 37.048233 -8.195100 3,150 110 184 -640
2021-09-21 13:03:10 GMT 37.048504 -8.195980 3,175 112 185 -640
2021-09-21 13:03:09 GMT 37.048832 -8.196995 3,175 114 185 -704
2021-09-21 13:03:07 GMT 37.049576 -8.199025 3,200 116 186 -768
2021-09-21 13:03:06 GMT 37.049950 -8.200040 3,225 117 186 -768
2021-09-21 13:03:04 GMT 37.050751 -8.201937 3,250 117 186 -768
2021-09-21 13:03:03 GMT 37.051071 -8.202755 3,250 117 186 -768
2021-09-21 13:03:02 GMT 37.051857 -8.204578 3,300 117 186 -768
2021-09-21 13:03:00 GMT 37.052261 -8.205560 3,300 117 186 -768
2021-09-21 13:02:59 GMT 37.052673 -8.206495 3,325 117 186 -768
2021-09-21 13:02:57 GMT 37.053532 -8.208638 3,350 117 186 -768
2021-09-21 13:02:56 GMT 37.053905 -8.209593 3,350 117 186 -768
2021-09-21 13:02:55 GMT 37.054836 -8.211803 3,375 117 186 -768
2021-09-21 13:02:53 GMT 37.055161 -8.212519 3,400 117 186 -704
2021-09-21 13:02:52 GMT 37.055908 -8.214370 3,425 117 187 -640
2021-09-21 13:02:50 GMT 37.056290 -8.215202 3,425 117 188 -576
2021-09-21 13:02:48 GMT 37.057251 -8.217423 3,450 117 188 -576
2021-09-21 13:02:47 GMT 37.057571 -8.218241 3,450 118 190 -576
2021-09-21 13:02:45 GMT 37.058441 -8.220286 3,475 118 191 -576
2021-09-21 13:02:44 GMT 37.058853 -8.221221 3,475 118 191 -576
2021-09-21 13:02:43 GMT 37.059586 -8.223028 3,500 118 193 -512
2021-09-21 13:02:41 GMT 37.060188 -8.224401 3,500 117 194 -512
2021-09-21 13:02:40 GMT 37.060547 -8.225312 3,525 117 194 -512
2021-09-21 13:02:38 GMT 37.061401 -8.227267 3,525 117 197 -384
2021-09-21 13:02:37 GMT 37.061817 -8.228282 3,550 117 197 -384
2021-09-21 13:02:35 GMT 37.062653 -8.230338 3,550 116 199 -384
2021-09-21 13:02:34 GMT 37.063019 -8.231156 3,550 116 199 -448
2021-09-21 13:02:32 GMT 37.064007 -8.233656 3,575 115 201 -512
2021-09-21 13:02:30 GMT 37.064804 -8.235772 3,600 115 202 -640
2021-09-21 13:02:29 GMT 37.065125 -8.236590 3,600 115 203 -704
2021-09-21 13:02:28 GMT 37.065498 -8.237537 3,625 115 203 -704
2021-09-21 13:02:26 GMT 37.066429 -8.239746 3,650 117 204 -704
2021-09-21 13:02:25 GMT 37.066910 -8.240856 3,650 119 205 -704
2021-09-21 13:02:24 GMT 37.067917 -8.243019 3,675 122 207 -704
2021-09-21 13:02:22 GMT 37.068569 -8.244224 3,700 126 208 -704
2021-09-21 13:02:20 GMT 37.069454 -8.245777 3,725 128 209 -640
2021-09-21 13:02:19 GMT 37.070107 -8.246732 3,725 130 210 -640
2021-09-21 13:02:18 GMT 37.071396 -8.248512 3,750 137 213 -640
2021-09-21 13:02:16 GMT 37.072014 -8.249299 3,750 139 215 -640
2021-09-21 13:02:15 GMT 37.073738 -8.251210 3,775 141 216 -704
2021-09-21 13:02:13 GMT 37.074463 -8.251843 3,800 144 217 -704
2021-09-21 13:02:12 GMT 37.075287 -8.252544 3,800 146 218 -704
2021-09-21 13:02:10 GMT 37.076935 -8.253830 3,825 154 221 -704
2021-09-21 13:02:09 GMT 37.077972 -8.254554 3,850 156 221 -768
2021-09-21 13:02:08 GMT 37.080048 -8.255700 3,875 161 223 -832
2021-09-21 13:02:06 GMT 37.081139 -8.256166 3,875 164 224 -896
2021-09-21 13:02:05 GMT 37.082108 -8.256518 3,900 166 225 -896
2021-09-21 13:02:03 GMT 37.084255 -8.257181 3,925 170 225 -896
2021-09-21 13:02:02 GMT 37.085377 -8.257420 3,950 172 226 -896
2021-09-21 13:02:00 GMT 37.087372 -8.257745 3,975 174 227 -832
2021-09-21 13:01:59 GMT 37.089470 -8.257957 4,000 176 229 -832
2021-09-21 13:01:57 GMT 37.090542 -8.258077 4,025 176 229 -832
2021-09-21 13:01:56 GMT 37.091564 -8.258136 4,025 176 230 -896
2021-09-21 13:01:54 GMT 37.093735 -8.258271 4,050 176 231 -832
2021-09-21 13:01:52 GMT 37.095337 -8.258375 4,075 176 231 -832
2021-09-21 13:01:51 GMT 37.096619 -8.258505 4,100 176 233 -640
2021-09-21 13:01:50 GMT 37.097572 -8.258554 4,100 176 233 -512
2021-09-21 13:01:49 GMT 37.099110 -8.258674 4,100 176 234 -384
2021-09-21 13:01:47 GMT 37.101242 -8.258855 4,125 176 236 -192
2021-09-21 13:01:46 GMT 37.102249 -8.258914 4,125 176 237 -128
2021-09-21 13:01:44 GMT 37.104321 -8.259032 4,125 176 239 -128
2021-09-21 13:01:43 GMT 37.105545 -8.259147 4,125 176 240 -192
2021-09-21 13:01:41 GMT 37.107765 -8.259330 4,150 176 241 -384
2021-09-21 13:01:40 GMT 37.109024 -8.259390 4,150 176 242 -512
2021-09-21 13:01:39 GMT 37.110031 -8.259498 4,150 176 242 -576
2021-09-21 13:01:37 GMT 37.112137 -8.259673 4,175 176 243 -640
2021-09-21 13:01:35 GMT 37.114750 -8.259868 4,200 176 244 -704
2021-09-21 13:01:34 GMT 37.116119 -8.259966 4,225 176 244 -768
2021-09-21 13:01:32 GMT 37.118008 -8.260107 4,250 176 245 -832
2021-09-21 13:01:31 GMT 37.119267 -8.260226 4,250 176 245 -960
2021-09-21 13:01:30 GMT 37.120285 -8.260316 4,275 176 245 -1024
2021-09-21 13:01:28 GMT 37.122570 -8.260525 4,300 176 246 -1024
2021-09-21 13:01:26 GMT 37.126419 -8.260842 4,375 176 246 -960
2021-09-21 13:01:22 GMT 37.128387 -8.261002 4,400 176 246 -960
2021-09-21 13:01:19 GMT 37.131821 -8.261310 4,450 176 247 -960
2021-09-21 13:01:17 GMT 37.134350 -8.261480 4,475 176 247 -832
2021-09-21 13:01:16 GMT 37.136627 -8.261719 4,500 176 248 -704
2021-09-21 13:01:14 GMT 37.137653 -8.261778 4,500 176 249 -640
2021-09-21 13:01:13 GMT 37.138687 -8.261894 4,525 176 249 -576
2021-09-21 13:01:11 GMT 37.141113 -8.262069 4,525 176 250 -512
2021-09-21 13:01:10 GMT 37.143936 -8.262316 4,550 176 252 -448
2021-09-21 13:01:08 GMT 37.144958 -8.262362 4,550 176 252 -384
2021-09-21 13:01:07 GMT 37.145920 -8.262478 4,575 176 253 -384
2021-09-21 13:01:06 GMT 37.147289 -8.262555 4,575 176 254 -448
2021-09-21 13:01:03 GMT 37.150269 -8.262793 4,600 176 255 -448
2021-09-21 13:01:02 GMT 37.152176 -8.262973 4,600 176 256 -448
2021-09-21 13:01:01 GMT 37.154644 -8.263152 4,625 176 258 -448
2021-09-21 13:00:59 GMT 37.155853 -8.263271 4,625 176 259 -384
2021-09-21 13:00:58 GMT 37.158005 -8.263413 4,625 176 260 -384
2021-09-21 13:00:56 GMT 37.159065 -8.263510 4,650 176 260 -384
2021-09-21 13:00:54 GMT 37.161530 -8.263706 4,650 176 262 -384
2021-09-21 13:00:53 GMT 37.163681 -8.263881 4,675 176 264 -576
2021-09-21 13:00:51 GMT 37.165165 -8.263988 4,675 176 265 -576
2021-09-21 13:00:50 GMT 37.166519 -8.264056 4,700 176 265 -640
2021-09-21 13:00:48 GMT 37.168842 -8.264226 4,725 176 266 -832
2021-09-21 13:00:46 GMT 37.171684 -8.264465 4,750 176 267 -832
2021-09-21 13:00:45 GMT 37.173035 -8.264585 4,750 176 268 -832
2021-09-21 13:00:44 GMT 37.175629 -8.264758 4,800 176 268 -832
2021-09-21 13:00:41 GMT 37.177505 -8.264874 4,800 176 269 -960
2021-09-21 13:00:39 GMT 37.179977 -8.265108 4,850 176 269 -1024
2021-09-21 13:00:38 GMT 37.181225 -8.265182 4,850 176 270 -1088
2021-09-21 13:00:36 GMT 37.184235 -8.265400 4,900 176 270 -1088
2021-09-21 13:00:35 GMT 37.185242 -8.265517 4,925 176 270 -1088
2021-09-21 13:00:32 GMT 37.188858 -8.265809 4,975 176 270 -1472
2021-09-21 13:00:31 GMT 37.190369 -8.265868 5,025 176 269 -1664
2021-09-21 13:00:29 GMT 37.192749 -8.266043 5,075 176 269 -1728
2021-09-21 13:00:28 GMT 37.195129 -8.266277 5,125 176 270 -1280
2021-09-21 13:00:26 GMT 37.197754 -8.266495 5,150 176 270 -1024
2021-09-21 13:00:24 GMT 37.199146 -8.266555 5,175 176 270 -896
2021-09-21 13:00:23 GMT 37.200405 -8.266675 5,200 176 271 -832
2021-09-21 13:00:21 GMT 37.202641 -8.266794 5,225 176 272 -896
2021-09-21 13:00:20 GMT 37.204037 -8.266913 5,225 176 273 -832
2021-09-21 13:00:18 GMT 37.206436 -8.267095 5,250 176 274 -704
2021-09-21 13:00:17 GMT 37.208084 -8.267212 5,275 176 274 -640
2021-09-21 13:00:14 GMT 37.211746 -8.267504 5,300 176 276 -704
2021-09-21 13:00:13 GMT 37.214447 -8.267679 5,325 176 277 -832
2021-09-21 13:00:11 GMT 37.215630 -8.267749 5,350 176 277 -1088
2021-09-21 13:00:10 GMT 37.217026 -8.267869 5,375 176 278 -1216
2021-09-21 13:00:08 GMT 37.219353 -8.268048 5,400 176 278 -1280
2021-09-21 13:00:07 GMT 37.220749 -8.268108 5,425 176 278 -1344
2021-09-21 13:00:06 GMT 37.223728 -8.268346 5,475 176 278 -1408
2021-09-21 13:00:04 GMT 37.225250 -8.268439 5,500 176 278 -1472
2021-09-21 13:00:03 GMT 37.226566 -8.268525 5,525 176 279 -1472
2021-09-21 13:00:01 GMT 37.229034 -8.268705 5,575 176 279 -1536
2021-09-21 12:59:59 GMT 37.231476 -8.268907 5,600 176 279 -1472
2021-09-21 12:59:58 GMT 37.232758 -8.268965 5,650 176 279 -1472
2021-09-21 12:59:57 GMT 37.234177 -8.269082 5,675 176 279 -1472
2021-09-21 12:59:55 GMT 37.236389 -8.269242 5,725 176 279 -1536
2021-09-21 12:59:54 GMT 37.237701 -8.269316 5,750 176 279 -1536
2021-09-21 12:59:53 GMT 37.238983 -8.269433 5,775 176 279 -1600
2021-09-21 12:59:51 GMT 37.241684 -8.269608 5,850 176 279 -1664
2021-09-21 12:59:50 GMT 37.243374 -8.269720 5,875 176 279 -1664
2021-09-21 12:59:46 GMT 37.246864 -8.270018 5,950 176 278 -1600
2021-09-21 12:59:45 GMT 37.248634 -8.270138 5,975 175 278 -1536
2021-09-21 12:59:44 GMT 37.249832 -8.270251 6,000 175 278 -1600
2021-09-21 12:59:43 GMT 37.252258 -8.270484 6,075 176 278 -1792
2021-09-21 12:59:41 GMT 37.253429 -8.270556 6,100 176 278 -1856
2021-09-21 12:59:40 GMT 37.254959 -8.270718 6,125 176 277 -1856
2021-09-21 12:59:38 GMT 37.257385 -8.270914 6,175 176 277 -1856
2021-09-21 12:59:37 GMT 37.258827 -8.271033 6,225 176 277 -1792
2021-09-21 12:59:36 GMT 37.259949 -8.271127 6,250 176 276 -1856
2021-09-21 12:59:35 GMT 37.262924 -8.271361 6,325 176 275 -1920
2021-09-21 12:59:33 GMT 37.263931 -8.271419 6,350 176 274 -1792
2021-09-21 12:59:31 GMT 37.266464 -8.271630 6,400 176 274 -1664
2021-09-21 12:59:30 GMT 37.267593 -8.271712 6,425 176 274 -1472
2021-09-21 12:59:28 GMT 37.270294 -8.271945 6,475 176 274 -1472
2021-09-21 12:59:27 GMT 37.271912 -8.272048 6,525 176 274 -1600
2021-09-21 12:59:26 GMT 37.273041 -8.272121 6,550 176 273 -1664
2021-09-21 12:59:24 GMT 37.275467 -8.272296 6,600 176 273 -1856
2021-09-21 12:59:23 GMT 37.276749 -8.272413 6,625 176 273 -1856
2021-09-21 12:59:22 GMT 37.278103 -8.272526 6,675 176 272 -1920
2021-09-21 12:59:19 GMT 37.281921 -8.272764 6,750 176 271 -1856
2021-09-21 12:59:17 GMT 37.284531 -8.272997 6,825 175 270 -1728
2021-09-21 12:59:16 GMT 37.287041 -8.273242 6,875 176 271 -1536
2021-09-21 12:59:13 GMT 37.289795 -8.273465 6,925 176 271 -1408
2021-09-21 12:59:12 GMT 37.290802 -8.273523 6,950 176 271 -1408
2021-09-21 12:59:11 GMT 37.293045 -8.273699 6,975 176 271 -1536
2021-09-21 12:59:09 GMT 37.294579 -8.273840 7,025 176 271 -1536
2021-09-21 12:59:08 GMT 37.297348 -8.274049 7,075 176 271 -1536
2021-09-21 12:59:06 GMT 37.298584 -8.274166 7,100 176 271 -1536
2021-09-21 12:59:05 GMT 37.301098 -8.274377 7,150 176 271 -1472
2021-09-21 12:59:03 GMT 37.302074 -8.274437 7,175 176 271 -1472
2021-09-21 12:59:02 GMT 37.303207 -8.274517 7,175 176 271 -1408
2021-09-21 12:59:00 GMT 37.306217 -8.274735 7,250 176 272 -1280
2021-09-21 12:58:59 GMT 37.307522 -8.274855 7,250 176 272 -1216
2021-09-21 12:58:58 GMT 37.310127 -8.275093 7,300 176 272 -1152
2021-09-21 12:58:55 GMT 37.312546 -8.275276 7,350 176 273 -1088
2021-09-21 12:58:53 GMT 37.315063 -8.275452 7,375 176 274 -1024
2021-09-21 12:58:52 GMT 37.316319 -8.275571 7,400 176 274 -1024
2021-09-21 12:58:51 GMT 37.319019 -8.275750 7,425 176 275 -1024
2021-09-21 12:58:49 GMT 37.320278 -8.275870 7,450 176 275 -1088
2021-09-21 12:58:47 GMT 37.322571 -8.276036 7,475 176 276 -1280
2021-09-21 12:58:46 GMT 37.323853 -8.276153 7,500 176 276 -1408
2021-09-21 12:58:44 GMT 37.326424 -8.276347 7,550 176 275 -1600
2021-09-21 12:58:43 GMT 37.327789 -8.276445 7,575 176 275 -1792
2021-09-21 12:58:42 GMT 37.329353 -8.276586 7,625 176 275 -1920
2021-09-21 12:58:40 GMT 37.331776 -8.276765 7,675 176 275 -1792
2021-09-21 12:58:39 GMT 37.334198 -8.276971 7,725 176 274 -1664
2021-09-21 12:58:37 GMT 37.335434 -8.277029 7,750 176 274 -1664
2021-09-21 12:58:35 GMT 37.338135 -8.277263 7,800 176 274 -1472
2021-09-21 12:58:34 GMT 37.339371 -8.277380 7,825 176 275 -1280
2021-09-21 12:58:32 GMT 37.341797 -8.277555 7,875 176 276 -1024
2021-09-21 12:58:31 GMT 37.344498 -8.277789 7,900 176 276 -896
2021-09-21 12:58:29 GMT 37.345505 -8.277906 7,925 176 276 -960
2021-09-21 12:58:28 GMT 37.348206 -8.278081 7,950 176 276 -1088
2021-09-21 12:58:26 GMT 37.349327 -8.278198 7,975 176 276 -1024
2021-09-21 12:58:24 GMT 37.352417 -8.278432 8,000 176 277 -960
2021-09-21 12:58:23 GMT 37.353699 -8.278490 8,025 176 277 -960
2021-09-21 12:58:22 GMT 37.354980 -8.278607 8,050 176 277 -960
2021-09-21 12:58:20 GMT 37.357285 -8.278795 8,075 176 277 -960
2021-09-21 12:58:19 GMT 37.358688 -8.278899 8,100 176 277 -1024
2021-09-21 12:58:18 GMT 37.359985 -8.278974 8,100 176 277 -1024
2021-09-21 12:58:16 GMT 37.362671 -8.279192 8,150 176 277 -960
2021-09-21 12:58:15 GMT 37.363991 -8.279273 8,150 176 277 -960
2021-09-21 12:58:14 GMT 37.365143 -8.279367 8,175 176 277 -960
2021-09-21 12:58:13 GMT 37.367714 -8.279572 8,200 176 277 -960
2021-09-21 12:58:11 GMT 37.368851 -8.279659 8,225 176 277 -960
2021-09-21 12:58:09 GMT 37.371437 -8.279870 8,250 176 277 -960
2021-09-21 12:58:08 GMT 37.373207 -8.279989 8,275 176 277 -960
2021-09-21 12:58:06 GMT 37.375397 -8.280169 8,300 176 278 -1024
2021-09-21 12:58:04 GMT 37.378002 -8.280348 8,350 176 278 -1024
2021-09-21 12:58:03 GMT 37.380798 -8.280594 8,375 176 278 -1024
2021-09-21 12:58:00 GMT 37.381958 -8.280646 8,400 176 278 -1024
2021-09-21 12:57:59 GMT 37.383404 -8.280766 8,400 176 278 -1024
2021-09-21 12:57:57 GMT 37.385963 -8.281005 8,450 176 278 -1024
2021-09-21 12:57:56 GMT 37.387360 -8.281064 8,475 176 278 -1024
2021-09-21 12:57:55 GMT 37.389687 -8.281303 8,500 176 278 -1024
2021-09-21 12:57:53 GMT 37.390961 -8.281354 8,500 176 278 -1024
2021-09-21 12:57:52 GMT 37.392155 -8.281482 8,525 176 278 -1024
2021-09-21 12:57:51 GMT 37.394852 -8.281705 8,575 176 278 -1024
2021-09-21 12:57:49 GMT 37.396389 -8.281781 8,575 176 278 -1024
2021-09-21 12:57:48 GMT 37.397552 -8.281880 8,600 176 278 -1024
2021-09-21 12:57:46 GMT 37.399979 -8.282114 8,625 176 278 -1024
2021-09-21 12:57:45 GMT 37.402817 -8.282289 8,675 176 278 -1024
2021-09-21 12:57:43 GMT 37.404118 -8.282438 8,700 176 278 -1024
2021-09-21 12:57:42 GMT 37.405289 -8.282523 8,700 176 278 -1024
2021-09-21 12:57:41 GMT 37.409145 -8.282796 8,750 176 278 -1024
2021-09-21 12:57:39 GMT 37.409145 -8.282796 8,750 176 279 -1024
2021-09-21 12:57:38 GMT 37.410400 -8.282915 8,775 176 279 -1024
2021-09-21 12:57:37 GMT 37.413025 -8.283107 8,800 176 279 -1024
2021-09-21 12:57:35 GMT 37.416126 -8.283393 8,850 176 279 -1024
2021-09-21 12:57:33 GMT 37.417385 -8.283512 8,875 176 279 -1024
2021-09-21 12:57:31 GMT 37.420132 -8.283691 8,900 176 280 -1024
2021-09-21 12:57:30 GMT 37.420876 -8.283751 8,900 176 280 -1024
2021-09-21 12:57:28 GMT 37.423508 -8.283984 8,950 176 280 -1024
2021-09-21 12:57:27 GMT 37.425159 -8.284109 8,975 176 280 -1024
2021-09-21 12:57:25 GMT 37.427906 -8.284348 9,000 176 280 -1024
2021-09-21 12:57:24 GMT 37.428928 -8.284408 9,025 176 280 -1024
2021-09-21 12:57:22 GMT 37.431793 -8.284626 9,050 176 281 -1024
2021-09-21 12:57:20 GMT 37.434402 -8.284860 9,100 176 281 -1024
2021-09-21 12:57:19 GMT 37.435684 -8.284919 9,100 176 281 -1024
2021-09-21 12:57:18 GMT 37.436462 -8.284977 9,125 176 281 -1024
2021-09-21 12:57:15 GMT 37.440536 -8.285328 9,175 176 282 -1024
2021-09-21 12:57:13 GMT 37.443237 -8.285561 9,200 176 282 -1024
2021-09-21 12:57:12 GMT 37.444805 -8.285662 9,225 176 282 -1024
2021-09-21 12:57:09 GMT 37.448730 -8.285970 9,275 176 283 -1024
2021-09-21 12:57:08 GMT 37.450207 -8.286080 9,300 176 283 -1024
2021-09-21 12:57:06 GMT 37.452671 -8.286259 9,325 176 283 -1088
2021-09-21 12:57:05 GMT 37.455185 -8.286496 9,375 176 283 -1088
2021-09-21 12:57:03 GMT 37.456348 -8.286557 9,375 176 284 -1088
2021-09-21 12:57:02 GMT 37.459095 -8.286796 9,425 176 284 -1088
2021-09-21 12:57:00 GMT 37.461052 -8.286975 9,450 176 284 -1088
2021-09-21 12:56:58 GMT 37.463425 -8.287154 9,475 176 284 -1088
2021-09-21 12:56:57 GMT 37.464752 -8.287256 9,500 176 284 -1088
2021-09-21 12:56:55 GMT 37.467243 -8.287453 9,525 176 284 -1024
2021-09-21 12:56:54 GMT 37.468597 -8.287548 9,550 176 285 -960
2021-09-21 12:56:52 GMT 37.471207 -8.287724 9,575 176 285 -832
2021-09-21 12:56:50 GMT 37.477020 -8.288191 9,625 176 286 -640
2021-09-21 12:56:48 GMT 37.477020 -8.288191 9,625 176 287 -640
2021-09-21 12:56:47 GMT 37.478230 -8.288289 9,625 176 287 -640
2021-09-21 12:56:45 GMT 37.480911 -8.288542 9,650 176 288 -640
2021-09-21 12:56:43 GMT 37.481964 -8.288600 9,675 176 289 -576
2021-09-21 12:56:42 GMT 37.484886 -8.288826 9,675 176 289 -640
2021-09-21 12:56:40 GMT 37.486359 -8.288951 9,700 176 290 -640
2021-09-21 12:56:39 GMT 37.487724 -8.289065 9,700 176 291 -640
2021-09-21 12:56:37 GMT 37.490570 -8.289301 9,725 176 291 -640
2021-09-21 12:56:36 GMT 37.491917 -8.289423 9,725 176 293 -640
2021-09-21 12:56:35 GMT 37.493134 -8.289535 9,750 176 293 -640
2021-09-21 12:56:33 GMT 37.495594 -8.289722 9,775 176 295 -640
2021-09-21 12:56:32 GMT 37.497070 -8.289827 9,775 176 296 -704
2021-09-21 12:56:31 GMT 37.499969 -8.290080 9,800 176 297 -704
2021-09-21 12:56:29 GMT 37.501457 -8.290200 9,800 176 298 -768
2021-09-21 12:56:28 GMT 37.502853 -8.290319 9,825 176 298 -768
2021-09-21 12:56:27 GMT 37.505585 -8.290529 9,850 176 299 -896
2021-09-21 12:56:25 GMT 37.507137 -8.290677 9,875 176 300 -896
2021-09-21 12:56:24 GMT 37.508675 -8.290797 9,875 176 301 -896
2021-09-21 12:56:21 GMT 37.512726 -8.291095 9,925 176 302 -832
2021-09-21 12:56:20 GMT 37.514122 -8.291215 9,925 176 303 -704
2021-09-21 12:56:19 GMT 37.515381 -8.291288 9,950 176 304 -640
2021-09-21 12:56:17 GMT 37.517761 -8.291522 9,950 176 305 -640
2021-09-21 12:56:16 GMT 37.519337 -8.291633 9,975 176 306 -512
2021-09-21 12:56:15 GMT 37.521194 -8.291756 9,975 176 307 -448
2021-09-21 12:56:13 GMT 37.524036 -8.291991 10,000 176 309 -128
2021-09-21 12:56:12 GMT 37.525433 -8.292110 10,000 176 309 -128
2021-09-21 12:56:11 GMT 37.527901 -8.292289 10,000 176 311 -64
2021-09-21 12:56:09 GMT 37.529484 -8.292409 10,000 176 311 0
2021-09-21 12:56:08 GMT 37.531036 -8.292516 10,000 176 311 0
2021-09-21 12:56:06 GMT 37.533646 -8.292691 10,000 176 312 64
2021-09-21 12:56:05 GMT 37.535248 -8.292808 10,000 176 312 64
2021-09-21 12:56:04 GMT 37.538864 -8.293041 10,000 176 312 0
2021-09-21 12:56:01 GMT 37.540878 -8.293217 10,000 176 312 0
2021-09-21 12:56:00 GMT 37.541748 -8.293275 10,000 176 312 0
2021-09-21 12:55:59 GMT 37.544220 -8.293451 10,000 176 312 0
2021-09-21 12:55:58 GMT 37.545498 -8.293543 10,000 176 312 0
2021-09-21 12:55:57 GMT 37.548660 -8.293801 10,000 176 312 0
2021-09-21 12:55:55 GMT 37.551411 -8.293961 10,000 176 312 0
2021-09-21 12:55:53 GMT 37.552994 -8.294081 10,000 176 312 0
2021-09-21 12:55:52 GMT 37.554291 -8.294210 10,000 176 312 0
2021-09-21 12:55:49 GMT 37.558952 -8.294558 10,000 176 311 0
2021-09-21 12:55:48 GMT 37.561234 -8.294737 10,000 176 311 -64
2021-09-21 12:55:45 GMT 37.563538 -8.294911 10,000 176 311 -64
2021-09-21 12:55:44 GMT 37.566284 -8.295087 10,000 176 311 0
2021-09-21 12:55:43 GMT 37.567562 -8.295215 10,000 176 311 0
2021-09-21 12:55:42 GMT 37.568893 -8.295262 10,000 176 311 0
2021-09-21 12:55:41 GMT 37.570450 -8.295437 10,000 176 311 0
2021-09-21 12:55:39 GMT 37.573059 -8.295613 10,000 176 311 0
2021-09-21 12:55:37 GMT 37.577663 -8.295991 10,000 176 311 0
2021-09-21 12:55:35 GMT 37.579247 -8.296111 10,000 176 311 0
2021-09-21 12:55:34 GMT 37.580566 -8.296197 10,000 176 311 0
2021-09-21 12:55:31 GMT 37.587570 -8.296781 10,000 176 311 0
2021-09-21 12:55:29 GMT 37.587570 -8.296781 10,000 176 311 0
2021-09-21 12:55:28 GMT 37.589035 -8.296898 10,000 176 311 0
2021-09-21 12:55:26 GMT 37.592194 -8.297132 10,000 176 311 0
2021-09-21 12:55:25 GMT 37.593658 -8.297249 10,000 176 310 0
2021-09-21 12:55:23 GMT 37.596519 -8.297484 10,000 176 310 0
2021-09-21 12:55:22 GMT 37.598518 -8.297663 10,000 176 310 0
2021-09-21 12:55:21 GMT 37.601547 -8.297902 10,000 176 310 0
2021-09-21 12:55:19 GMT 37.602989 -8.298021 10,000 176 310 0
2021-09-21 12:55:18 GMT 37.603828 -8.298081 10,000 176 310 0
2021-09-21 12:55:15 GMT 37.608719 -8.298476 10,000 176 310 0
2021-09-21 12:55:14 GMT 37.610020 -8.298559 10,000 176 310 0
2021-09-21 12:55:12 GMT 37.612766 -8.298798 10,000 176 310 0
2021-09-21 12:55:11 GMT 37.614029 -8.298885 10,000 176 310 0
2021-09-21 12:55:10 GMT 37.616909 -8.299096 10,000 176 310 0
2021-09-21 12:55:08 GMT 37.618351 -8.299216 10,000 176 310 64
2021-09-21 12:55:07 GMT 37.619934 -8.299335 10,000 176 310 64
2021-09-21 12:55:05 GMT 37.622818 -8.299587 10,000 176 310 0
2021-09-21 12:55:03 GMT 37.624405 -8.299693 10,000 176 310 0
2021-09-21 12:55:01 GMT 37.627102 -8.299932 10,000 176 310 0
2021-09-21 12:55:00 GMT 37.628548 -8.300051 10,000 176 310 0
2021-09-21 12:54:59 GMT 37.630142 -8.300171 10,000 176 310 0
2021-09-21 12:54:57 GMT 37.633293 -8.300469 10,000 176 310 0
2021-09-21 12:54:56 GMT 37.634739 -8.300589 10,000 176 310 0
2021-09-21 12:54:55 GMT 37.637604 -8.300814 10,000 176 310 0
2021-09-21 12:54:53 GMT 37.639023 -8.300931 10,000 176 310 0
2021-09-21 12:54:51 GMT 37.641907 -8.301126 10,000 176 310 0
2021-09-21 12:54:50 GMT 37.644653 -8.301340 10,000 176 310 0
2021-09-21 12:54:48 GMT 37.646210 -8.301457 10,000 176 310 0
2021-09-21 12:54:47 GMT 37.647629 -8.301573 10,000 176 310 0
2021-09-21 12:54:46 GMT 37.650375 -8.301807 10,000 176 310 0
2021-09-21 12:54:44 GMT 37.651962 -8.301962 10,000 176 310 0
2021-09-21 12:54:43 GMT 37.653259 -8.302041 10,000 176 310 0
2021-09-21 12:54:41 GMT 37.656281 -8.302275 10,000 176 310 0
2021-09-21 12:54:40 GMT 37.657700 -8.302392 10,000 176 310 0
2021-09-21 12:54:38 GMT 37.660576 -8.302619 10,000 176 310 0
2021-09-21 12:54:37 GMT 37.661865 -8.302742 10,000 176 310 0
2021-09-21 12:54:36 GMT 37.663460 -8.302858 10,000 176 310 0
2021-09-21 12:54:34 GMT 37.666306 -8.303093 10,000 176 310 0
2021-09-21 12:54:33 GMT 37.667770 -8.303210 10,000 176 310 0
2021-09-21 12:54:32 GMT 37.670792 -8.303443 10,000 176 310 0
2021-09-21 12:54:30 GMT 37.672352 -8.303574 10,000 176 310 0
2021-09-21 12:54:29 GMT 37.673794 -8.303694 10,000 176 310 0
2021-09-21 12:54:28 GMT 37.678116 -8.304028 10,000 176 310 0
2021-09-21 12:54:26 GMT 37.678116 -8.304028 10,000 176 310 0
2021-09-21 12:54:25 GMT 37.679848 -8.304171 10,000 176 310 0
2021-09-21 12:54:24 GMT 37.682556 -8.304378 10,000 176 310 0
2021-09-21 12:54:22 GMT 37.684158 -8.304495 10,000 176 310 0
2021-09-21 12:54:21 GMT 37.687714 -8.304828 10,000 176 310 0
2021-09-21 12:54:18 GMT 37.691017 -8.305067 10,000 176 310 0
2021-09-21 12:54:15 GMT 37.694183 -8.305313 10,000 176 310 0
2021-09-21 12:54:14 GMT 37.695648 -8.305430 10,000 176 310 0
2021-09-21 12:54:13 GMT 37.700089 -8.305781 10,000 176 310 0
2021-09-21 12:54:11 GMT 37.700089 -8.305781 10,000 176 310 0
2021-09-21 12:54:10 GMT 37.701691 -8.305898 10,000 176 310 0
2021-09-21 12:54:08 GMT 37.703979 -8.306073 10,000 176 310 0
2021-09-21 12:54:06 GMT 37.708851 -8.306500 10,000 176 310 0
2021-09-21 12:54:03 GMT 37.710846 -8.306658 10,000 176 310 0
2021-09-21 12:54:02 GMT 37.713135 -8.306833 10,000 176 310 0
2021-09-21 12:54:00 GMT 37.716156 -8.307067 10,000 176 310 0
2021-09-21 12:53:57 GMT 37.719883 -8.307336 10,000 176 310 0
2021-09-21 12:53:55 GMT 37.722061 -8.307534 10,000 176 310 0
2021-09-21 12:53:54 GMT 37.724350 -8.307694 10,000 176 310 0
2021-09-21 12:53:52 GMT 37.726353 -8.307873 10,000 176 310 0
2021-09-21 12:53:51 GMT 37.729939 -8.308172 10,000 176 310 0
2021-09-21 12:53:50 GMT 37.729939 -8.308172 10,000 176 310 0
2021-09-21 12:53:48 GMT 37.733368 -8.308411 10,000 176 310 0
2021-09-21 12:53:46 GMT 37.735523 -8.308590 10,000 176 310 0
2021-09-21 12:53:45 GMT 37.737259 -8.308703 10,000 176 310 0
2021-09-21 12:53:43 GMT 37.739990 -8.308948 10,000 176 310 0
2021-09-21 12:53:41 GMT 37.743298 -8.309187 10,000 176 310 0
2021-09-21 12:53:39 GMT 37.746460 -8.309404 10,000 176 310 0
2021-09-21 12:53:36 GMT 37.749722 -8.309665 10,000 176 310 0
2021-09-21 12:53:34 GMT 37.753307 -8.309963 10,000 176 310 0
2021-09-21 12:53:33 GMT 37.757774 -8.310321 10,000 176 310 0
2021-09-21 12:53:31 GMT 37.757774 -8.310321 10,000 176 310 0
2021-09-21 12:53:29 GMT 37.759777 -8.310500 10,000 176 310 0
2021-09-21 12:53:28 GMT 37.761795 -8.310631 10,000 176 310 0
2021-09-21 12:53:26 GMT 37.764942 -8.310918 10,000 176 310 0
2021-09-21 12:53:25 GMT 37.766235 -8.310982 10,000 176 310 0
2021-09-21 12:53:24 GMT 37.769257 -8.311274 10,000 176 310 0
2021-09-21 12:53:22 GMT 37.770531 -8.311336 10,000 176 310 0
2021-09-21 12:53:20 GMT 37.773422 -8.311566 10,000 176 310 0
2021-09-21 12:53:18 GMT 37.775436 -8.311742 10,000 176 310 0
2021-09-21 12:53:17 GMT 37.777885 -8.311933 10,000 176 310 0
2021-09-21 12:53:16 GMT 37.781021 -8.312209 10,000 176 310 0
2021-09-21 12:53:11 GMT 37.785336 -8.312531 10,000 176 310 0
2021-09-21 12:53:08 GMT 37.789803 -8.312889 10,000 176 310 0
2021-09-21 12:53:06 GMT 37.792782 -8.313128 10,000 176 310 0
2021-09-21 12:53:04 GMT 37.796677 -8.313436 10,000 176 310 0
2021-09-21 12:53:02 GMT 37.798233 -8.313553 10,000 176 310 0
2021-09-21 12:53:00 GMT 37.801117 -8.313787 10,000 176 310 0
2021-09-21 12:52:59 GMT 37.802837 -8.313904 10,000 176 310 0
2021-09-21 12:52:58 GMT 37.805557 -8.314138 10,000 176 310 0
2021-09-21 12:52:56 GMT 37.807022 -8.314254 10,000 176 310 0
2021-09-21 12:52:54 GMT 37.809868 -8.314441 10,000 176 310 0
2021-09-21 12:52:52 GMT 37.812893 -8.314680 10,000 176 310 64
2021-09-21 12:52:50 GMT 37.815628 -8.314897 10,000 176 310 64
2021-09-21 12:52:48 GMT 37.817780 -8.315073 10,000 176 310 64
2021-09-21 12:52:47 GMT 37.818924 -8.315189 10,000 176 310 64
2021-09-21 12:52:45 GMT 37.823090 -8.315540 10,000 176 310 0
2021-09-21 12:52:43 GMT 37.825134 -8.315695 10,000 176 310 0
2021-09-21 12:52:41 GMT 37.828857 -8.316008 10,000 176 310 0
2021-09-21 12:52:38 GMT 37.832443 -8.316292 10,000 176 310 0
2021-09-21 12:52:35 GMT 37.841057 -8.317009 10,000 176 310 0
2021-09-21 12:52:33 GMT 37.841057 -8.317009 10,000 176 310 0
2021-09-21 12:52:30 GMT 37.845200 -8.317307 10,000 176 310 0
2021-09-21 12:52:25 GMT 37.859676 -8.318501 10,000 176 309 0
2021-09-21 12:52:20 GMT 37.859676 -8.318501 10,000 176 309 0
2021-09-21 12:52:16 GMT 37.865124 -8.318919 10,000 176 309 0
2021-09-21 12:52:13 GMT 37.869141 -8.319222 10,000 176 309 0
2021-09-21 12:52:09 GMT 37.874577 -8.319696 10,000 176 309 0
2021-09-21 12:52:05 GMT 37.880718 -8.320173 10,000 176 309 0
2021-09-21 12:52:02 GMT 37.884865 -8.320472 10,000 176 309 0
2021-09-21 12:51:59 GMT 37.889740 -8.320858 10,000 176 309 0
2021-09-21 12:51:56 GMT 37.894314 -8.321248 10,000 176 308 0
2021-09-21 12:51:48 GMT 37.904182 -8.322024 10,000 176 308 0
2021-09-21 12:51:45 GMT 37.919453 -8.323218 10,000 176 308 0
2021-09-21 12:51:39 GMT 37.919453 -8.323218 10,000 176 308 0
2021-09-21 12:51:35 GMT 37.923595 -8.323577 10,000 176 308 0
2021-09-21 12:51:28 GMT 37.932861 -8.324306 10,000 176 308 0
2021-09-21 12:51:25 GMT 37.937988 -8.324773 10,000 176 308 0
2021-09-21 12:51:22 GMT 37.942123 -8.325069 10,000 176 308 0
2021-09-21 12:51:20 GMT 37.944683 -8.325308 10,000 176 308 0
2021-09-21 12:51:17 GMT 37.948963 -8.325666 10,000 176 308 0
2021-09-21 12:51:14 GMT 37.952827 -8.325965 10,000 176 308 0
2021-09-21 12:51:08 GMT 37.971401 -8.327458 10,000 176 308 0
2021-09-21 12:51:02 GMT 37.971401 -8.327458 10,000 176 308 0
2021-09-21 12:50:58 GMT 37.975548 -8.327756 10,000 176 309 0
2021-09-21 12:50:55 GMT 37.981365 -8.328234 10,000 176 308 0
2021-09-21 12:50:49 GMT 37.989979 -8.328891 10,000 176 308 0
2021-09-21 12:50:44 GMT 37.995941 -8.329331 10,000 176 308 0
2021-09-21 12:50:39 GMT 38.004501 -8.330033 10,000 176 308 0
2021-09-21 12:50:34 GMT 38.010818 -8.330500 10,000 176 308 -64
2021-09-21 12:50:28 GMT 38.019215 -8.331160 10,000 176 308 -64
2021-09-21 12:50:24 GMT 38.025219 -8.331577 10,000 176 308 0
2021-09-21 12:50:17 GMT 38.034901 -8.332294 10,000 176 308 0
2021-09-21 12:50:13 GMT 38.040344 -8.332721 10,000 176 308 0
2021-09-21 12:50:08 GMT 38.047485 -8.333305 10,000 176 308 0
2021-09-21 12:50:04 GMT 38.057293 -8.334026 10,000 176 308 0
2021-09-21 12:49:57 GMT 38.063576 -8.334563 10,000 176 308 0
2021-09-21 12:49:51 GMT 38.071747 -8.335175 10,000 176 308 0
2021-09-21 12:49:47 GMT 38.077171 -8.335638 10,000 176 308 0
2021-09-21 12:49:41 GMT 38.085735 -8.336294 10,000 176 308 0
2021-09-21 12:49:37 GMT 38.091431 -8.336811 10,000 176 309 0
2021-09-21 12:49:33 GMT 38.098022 -8.337337 10,000 176 309 0
2021-09-21 12:49:30 GMT 38.101147 -8.337608 10,000 176 309 0
2021-09-21 12:49:27 GMT 38.105759 -8.337980 10,000 176 309 0
2021-09-21 12:49:20 GMT 38.115463 -8.338740 10,000 176 309 -64
2021-09-21 12:49:17 GMT 38.120373 -8.339101 10,000 176 309 -64
2021-09-21 12:49:10 GMT 38.130112 -8.339850 10,000 176 309 0
2021-09-21 12:49:07 GMT 38.134941 -8.340235 10,000 176 309 0
2021-09-21 12:49:01 GMT 38.144672 -8.341011 10,000 176 309 0
2021-09-21 12:48:56 GMT 38.149841 -8.341428 10,000 176 309 0
2021-09-21 12:48:50 GMT 38.159409 -8.342188 10,000 176 309 64
2021-09-21 12:48:46 GMT 38.163990 -8.342564 10,000 176 309 64
2021-09-21 12:48:40 GMT 38.173721 -8.343340 10,000 176 309 0
2021-09-21 12:48:36 GMT 38.178864 -8.343766 10,000 176 309 -64
2021-09-21 12:48:29 GMT 38.189034 -8.344534 10,000 176 309 0
2021-09-21 12:48:26 GMT 38.194611 -8.344993 10,000 176 309 0
2021-09-21 12:48:20 GMT 38.202766 -8.345669 10,000 176 309 0
2021-09-21 12:48:15 GMT 38.209534 -8.346220 10,000 176 309 0
2021-09-21 12:48:09 GMT 38.217133 -8.346863 10,000 176 309 0
2021-09-21 12:48:05 GMT 38.223999 -8.347447 10,000 176 310 -64
2021-09-21 12:47:57 GMT 38.237171 -8.348535 10,000 176 309 0
2021-09-21 12:47:54 GMT 38.238613 -8.348654 10,000 176 309 64
2021-09-21 12:47:49 GMT 38.246750 -8.349317 10,000 176 309 64
2021-09-21 12:47:45 GMT 38.253204 -8.349843 10,000 176 309 0
2021-09-21 12:47:39 GMT 38.261097 -8.350445 10,000 176 309 0
2021-09-21 12:47:36 GMT 38.265800 -8.350804 10,000 176 309 -64
2021-09-21 12:47:33 GMT 38.268406 -8.350983 10,000 176 309 0
2021-09-21 12:47:28 GMT 38.275681 -8.351596 10,000 176 309 0
2021-09-21 12:47:24 GMT 38.282700 -8.352117 10,000 176 308 0
2021-09-21 12:47:18 GMT 38.290237 -8.352707 10,000 176 308 0
2021-09-21 12:47:13 GMT 38.297363 -8.353311 10,000 176 308 64
2021-09-21 12:47:08 GMT 38.305481 -8.353992 10,000 176 308 -64
2021-09-21 12:47:03 GMT 38.311615 -8.354460 10,000 176 307 -64
2021-09-21 12:46:58 GMT 38.319149 -8.355043 10,000 176 307 64
2021-09-21 12:46:55 GMT 38.322685 -8.355341 10,000 176 307 64
2021-09-21 12:46:52 GMT 38.327946 -8.355819 10,000 176 307 0
2021-09-21 12:46:47 GMT 38.333908 -8.356271 10,000 176 306 0
2021-09-21 12:46:43 GMT 38.341003 -8.356797 10,000 176 306 0
2021-09-21 12:46:36 GMT 38.351967 -8.357670 10,000 176 306 0
2021-09-21 12:46:31 GMT 38.357460 -8.358148 10,000 176 306 0
2021-09-21 12:46:28 GMT 38.362255 -8.358506 10,000 176 305 0
2021-09-21 12:46:25 GMT 38.366226 -8.358843 10,000 176 306 0
2021-09-21 12:46:22 GMT 38.370075 -8.359163 10,000 176 305 0
2021-09-21 12:46:17 GMT 38.377106 -8.359700 10,000 176 306 64
2021-09-21 12:46:14 GMT 38.381248 -8.359999 10,000 176 306 64
2021-09-21 12:46:11 GMT 38.384926 -8.360297 10,000 176 306 0
2021-09-21 12:46:08 GMT 38.389709 -8.360654 10,000 176 306 0
2021-09-21 12:46:05 GMT 38.394703 -8.361073 10,000 176 306 64
2021-09-21 12:46:02 GMT 38.398956 -8.361414 10,000 176 306 64
2021-09-21 12:45:57 GMT 38.406013 -8.361969 10,000 176 307 0
2021-09-21 12:45:54 GMT 38.409599 -8.362268 10,000 176 307 -64
2021-09-21 12:45:51 GMT 38.413879 -8.362566 10,000 176 308 -64
2021-09-21 12:45:48 GMT 38.419003 -8.362976 10,000 176 308 -64
2021-09-21 12:45:45 GMT 38.423538 -8.363342 10,000 176 307 64
2021-09-21 12:45:40 GMT 38.429260 -8.363820 10,000 176 308 64
2021-09-21 12:45:37 GMT 38.434364 -8.364197 10,000 176 308 -64
2021-09-21 12:45:34 GMT 38.437950 -8.364502 10,000 176 308 0
2021-09-21 12:45:31 GMT 38.442764 -8.364895 10,000 176 308 64
2021-09-21 12:45:28 GMT 38.448944 -8.365372 10,000 176 308 -64
2021-09-21 12:45:24 GMT 38.452614 -8.365723 10,000 176 309 0
2021-09-21 12:45:20 GMT 38.457783 -8.366150 10,000 176 309 0
2021-09-21 12:45:17 GMT 38.464645 -8.366686 10,000 176 309 -64
2021-09-21 12:45:14 GMT 38.466660 -8.366865 10,000 176 309 -64
2021-09-21 12:45:09 GMT 38.479988 -8.367920 10,000 176 309 0
2021-09-21 12:45:03 GMT 38.482269 -8.368103 10,000 176 309 0
2021-09-21 12:45:00 GMT 38.487396 -8.368537 10,000 176 309 -64
2021-09-21 12:44:56 GMT 38.493118 -8.368955 10,000 176 309 -64
2021-09-21 12:44:51 GMT 38.499725 -8.369507 10,000 176 309 192
2021-09-21 12:44:47 GMT 38.505432 -8.369970 10,000 176 309 -128
2021-09-21 12:44:43 GMT 38.510605 -8.370388 10,000 176 309 -128
2021-09-21 12:44:40 GMT 38.516018 -8.370850 10,000 176 310 64
2021-09-21 12:44:37 GMT 38.519485 -8.371104 10,000 176 309 64
2021-09-21 12:44:34 GMT 38.525070 -8.371582 10,000 176 309 64
2021-09-21 12:44:29 GMT 38.532532 -8.372179 10,000 176 310 64
2021-09-21 12:44:26 GMT 38.536827 -8.372559 10,000 176 310 -64
2021-09-21 12:44:18 GMT 38.546722 -8.373433 10,000 176 311 -64
2021-09-21 12:44:13 GMT 38.555054 -8.374090 10,000 176 312 -128
2021-09-21 12:44:09 GMT 38.560501 -8.374567 10,000 176 312 -128
2021-09-21 12:44:06 GMT 38.563705 -8.374866 10,000 176 313 -64
2021-09-21 12:44:03 GMT 38.568623 -8.375244 10,000 176 313 0
2021-09-21 12:44:00 GMT 38.572952 -8.375642 10,000 176 314 64
2021-09-21 12:43:57 GMT 38.577942 -8.376000 10,000 176 314 0
2021-09-21 12:43:53 GMT 38.584030 -8.376526 10,000 176 315 0
2021-09-21 12:43:49 GMT 38.590595 -8.377014 10,000 176 315 0
2021-09-21 12:43:46 GMT 38.593666 -8.377258 10,000 176 315 64
2021-09-21 12:43:43 GMT 38.597626 -8.377563 10,000 176 315 64
2021-09-21 12:43:39 GMT 38.602978 -8.377991 10,000 176 315 0
2021-09-21 12:43:36 GMT 38.607376 -8.378329 10,000 176 315 0
2021-09-21 12:43:33 GMT 38.612057 -8.378723 10,000 176 315 0
2021-09-21 12:43:29 GMT 38.618042 -8.379225 10,000 176 315 0
2021-09-21 12:43:26 GMT 38.627655 -8.380001 10,000 176 314 64
2021-09-21 12:43:23 GMT 38.627655 -8.380001 10,000 176 314 64
2021-09-21 12:43:19 GMT 38.632866 -8.380493 10,000 176 314 0
2021-09-21 12:43:16 GMT 38.637379 -8.380859 10,000 176 314 0
2021-09-21 12:43:12 GMT 38.642624 -8.381255 10,000 176 315 0
2021-09-21 12:43:07 GMT 38.650368 -8.381897 10,000 176 315 0
2021-09-21 12:43:03 GMT 38.655579 -8.382330 10,000 176 315 0
2021-09-21 12:43:00 GMT 38.660843 -8.382751 10,000 176 315 0
2021-09-21 12:42:57 GMT 38.665237 -8.383106 10,000 176 315 64
2021-09-21 12:42:53 GMT 38.672340 -8.383667 10,000 176 315 -64
2021-09-21 12:42:46 GMT 38.680252 -8.384300 10,000 176 315 64
2021-09-21 12:42:42 GMT 38.686386 -8.384778 10,000 176 315 0
2021-09-21 12:42:37 GMT 38.695290 -8.385498 10,000 176 315 -64
2021-09-21 12:42:34 GMT 38.698921 -8.385803 10,000 176 315 64
2021-09-21 12:42:31 GMT 38.703438 -8.386169 10,000 176 315 -64
2021-09-21 12:42:26 GMT 38.710003 -8.386719 10,000 176 315 -64
2021-09-21 12:42:23 GMT 38.714237 -8.387024 10,000 176 315 -64
2021-09-21 12:42:20 GMT 38.718338 -8.387345 10,000 176 315 64
2021-09-21 12:42:17 GMT 38.722385 -8.387695 10,000 176 315 64
2021-09-21 12:42:14 GMT 38.728668 -8.388184 10,000 176 315 0
2021-09-21 12:42:10 GMT 38.733185 -8.388550 10,000 176 315 -64
2021-09-21 12:42:05 GMT 38.740906 -8.389136 10,000 176 315 0
2021-09-21 12:42:01 GMT 38.746731 -8.389648 10,000 176 315 64
2021-09-21 12:41:56 GMT 38.755482 -8.390381 10,000 176 315 0
2021-09-21 12:41:51 GMT 38.761459 -8.390808 10,000 176 315 -64
2021-09-21 12:41:47 GMT 38.767307 -8.391296 10,000 176 315 0
2021-09-21 12:41:44 GMT 38.772709 -8.391724 10,000 176 314 0
2021-09-21 12:41:40 GMT 38.776943 -8.392090 10,000 176 314 0
2021-09-21 12:41:37 GMT 38.781876 -8.392480 10,000 176 314 0
2021-09-21 12:41:33 GMT 38.789154 -8.393077 10,000 176 314 0
2021-09-21 12:41:30 GMT 38.791214 -8.393256 10,000 176 314 0
2021-09-21 12:41:24 GMT 38.800964 -8.394032 10,000 176 314 0
2021-09-21 12:41:21 GMT 38.806179 -8.394470 10,000 176 314 0
2021-09-21 12:41:16 GMT 38.811447 -8.394928 10,000 176 314 0
2021-09-21 12:41:13 GMT 38.817398 -8.395406 10,000 176 314 0
2021-09-21 12:41:09 GMT 38.821774 -8.395752 10,000 176 314 0
2021-09-21 12:41:06 GMT 38.827011 -8.396182 10,000 176 314 0
2021-09-21 12:41:03 GMT 38.830479 -8.396484 10,000 176 314 64
2021-09-21 12:41:00 GMT 38.836029 -8.396898 10,000 176 315 0
2021-09-21 12:40:55 GMT 38.843140 -8.397522 10,000 176 315 0
2021-09-21 12:40:52 GMT 38.847378 -8.397827 10,000 176 315 0
2021-09-21 12:40:49 GMT 38.850590 -8.398132 10,000 176 315 0
2021-09-21 12:40:43 GMT 38.860382 -8.398869 10,000 176 315 0
2021-09-21 12:40:40 GMT 38.865906 -8.399353 10,000 176 315 64
2021-09-21 12:40:33 GMT 38.876286 -8.400146 10,000 176 316 0
2021-09-21 12:40:29 GMT 38.886806 -8.401001 10,000 176 316 0
2021-09-21 12:40:24 GMT 38.889725 -8.401257 10,000 176 316 0
2021-09-21 12:40:19 GMT 38.895279 -8.401672 10,000 176 316 -64
2021-09-21 12:40:14 GMT 38.902447 -8.402283 10,000 176 316 0
2021-09-21 12:40:11 GMT 38.907707 -8.402710 10,000 176 316 0
2021-09-21 12:40:08 GMT 38.910507 -8.402989 10,000 176 316 0
2021-09-21 12:40:04 GMT 38.916641 -8.403466 10,000 176 316 0
2021-09-21 12:40:01 GMT 38.921349 -8.403870 10,000 176 316 0
2021-09-21 12:39:58 GMT 38.925587 -8.404236 10,000 176 317 0
2021-09-21 12:39:51 GMT 38.936153 -8.405090 10,000 176 317 0
2021-09-21 12:39:48 GMT 38.940388 -8.405457 10,000 176 317 0
2021-09-21 12:39:44 GMT 38.946114 -8.405945 10,000 176 317 0
2021-09-21 12:39:41 GMT 38.952759 -8.406511 10,000 176 317 0
2021-09-21 12:39:38 GMT 38.955368 -8.406691 10,000 176 317 0
2021-09-21 12:39:33 GMT 38.963928 -8.407407 10,000 176 318 -64
2021-09-21 12:39:30 GMT 38.966877 -8.407654 10,000 176 318 -64
2021-09-21 12:39:27 GMT 38.971848 -8.408064 10,000 176 318 0
2021-09-21 12:39:23 GMT 38.982006 -8.408875 10,000 176 318 0
2021-09-21 12:39:20 GMT 38.982006 -8.408875 10,000 176 318 0
2021-09-21 12:39:17 GMT 38.985683 -8.409180 10,000 176 318 0
2021-09-21 12:39:13 GMT 38.992481 -8.409729 10,000 176 318 64
2021-09-21 12:39:10 GMT 38.996429 -8.410034 10,000 176 318 64
2021-09-21 12:39:05 GMT 39.010311 -8.411194 10,000 176 319 0
2021-09-21 12:39:01 GMT 39.011627 -8.411288 10,000 176 319 0
2021-09-21 12:38:57 GMT 39.016342 -8.411706 10,000 176 319 0
2021-09-21 12:38:53 GMT 39.021996 -8.412170 10,000 176 319 0
2021-09-21 12:38:50 GMT 39.026733 -8.412542 10,000 176 320 0
2021-09-21 12:38:46 GMT 39.031311 -8.412960 10,000 176 320 0
2021-09-21 12:38:42 GMT 39.037216 -8.413391 10,000 176 320 0
2021-09-21 12:38:39 GMT 39.041824 -8.413818 10,000 176 320 0
2021-09-21 12:38:36 GMT 39.046555 -8.414154 10,000 176 320 0
2021-09-21 12:38:31 GMT 39.056210 -8.414978 10,000 176 320 0
2021-09-21 12:38:27 GMT 39.061378 -8.415344 10,000 176 320 0
2021-09-21 12:38:22 GMT 39.067337 -8.415886 10,000 176 320 0
2021-09-21 12:38:19 GMT 39.072643 -8.416321 10,000 176 320 -64
2021-09-21 12:38:16 GMT 39.076649 -8.416626 10,000 176 320 0
2021-09-21 12:38:12 GMT 39.082420 -8.417114 10,000 176 320 64
2021-09-21 12:38:09 GMT 39.086884 -8.417438 10,000 176 320 64
2021-09-21 12:38:05 GMT 39.092056 -8.417856 10,000 176 320 64
2021-09-21 12:38:02 GMT 39.102112 -8.418701 10,000 176 320 0
2021-09-21 12:37:59 GMT 39.102112 -8.418701 10,000 176 320 0
2021-09-21 12:37:55 GMT 39.106857 -8.419067 10,000 176 320 0
2021-09-21 12:37:52 GMT 39.113098 -8.419617 10,000 176 320 0
2021-09-21 12:37:49 GMT 39.117233 -8.419946 10,000 176 320 0
2021-09-21 12:37:46 GMT 39.121857 -8.420304 10,000 176 320 0
2021-09-21 12:37:41 GMT 39.128647 -8.420898 10,000 176 320 0
2021-09-21 12:37:38 GMT 39.132648 -8.421204 10,000 176 320 0
2021-09-21 12:37:35 GMT 39.136978 -8.421570 10,000 176 320 0
2021-09-21 12:37:29 GMT 39.146755 -8.422363 10,000 176 320 0
2021-09-21 12:37:25 GMT 39.151920 -8.422729 10,000 176 320 0
2021-09-21 12:37:19 GMT 39.161545 -8.423528 10,000 176 319 64
2021-09-21 12:37:15 GMT 39.167496 -8.424006 10,000 176 319 64
2021-09-21 12:37:11 GMT 39.173244 -8.424500 10,000 176 319 -64
2021-09-21 12:37:08 GMT 39.177246 -8.424805 10,000 176 319 -64
2021-09-21 12:37:04 GMT 39.182411 -8.425232 10,000 176 319 -64
2021-09-21 12:37:01 GMT 39.188000 -8.425720 10,000 176 318 64
2021-09-21 12:36:58 GMT 39.192284 -8.426025 10,000 176 318 64
2021-09-21 12:36:54 GMT 39.198055 -8.426514 10,000 176 318 0
2021-09-21 12:36:50 GMT 39.203339 -8.426932 10,000 176 317 -64
2021-09-21 12:36:47 GMT 39.207916 -8.427290 10,000 176 318 0
2021-09-21 12:36:44 GMT 39.212448 -8.427708 10,000 176 317 -64
2021-09-21 12:36:38 GMT 39.221985 -8.428467 10,000 176 317 64
2021-09-21 12:36:34 GMT 39.227600 -8.428962 10,000 176 317 -64
2021-09-21 12:36:30 GMT 39.237438 -8.429749 10,000 176 317 0
2021-09-21 12:36:27 GMT 39.237438 -8.429749 10,000 176 317 0
2021-09-21 12:36:23 GMT 39.242558 -8.430176 10,000 176 317 64
2021-09-21 12:36:20 GMT 39.247833 -8.430634 10,000 176 316 64
2021-09-21 12:36:17 GMT 39.251495 -8.430932 10,000 176 317 64
2021-09-21 12:36:14 GMT 39.257782 -8.431458 10,000 176 317 64
2021-09-21 12:36:08 GMT 39.266739 -8.432186 10,000 176 317 -128
2021-09-21 12:36:03 GMT 39.279335 -8.433228 10,000 176 316 64
2021-09-21 12:35:57 GMT 39.282871 -8.433533 10,000 176 316 0
2021-09-21 12:35:53 GMT 39.287842 -8.433977 10,000 176 316 -128
2021-09-21 12:35:49 GMT 39.293701 -8.434395 10,000 176 315 -64
2021-09-21 12:35:46 GMT 39.297352 -8.434692 10,000 176 315 0
2021-09-21 12:35:42 GMT 39.302891 -8.435181 10,000 176 315 128
2021-09-21 12:35:36 GMT 39.312698 -8.436007 10,000 176 316 -64
2021-09-21 12:35:33 GMT 39.317650 -8.436401 10,000 176 316 -64
2021-09-21 12:35:27 GMT 39.326118 -8.437134 10,000 176 316 64
2021-09-21 12:35:21 GMT 39.340038 -8.438293 10,000 176 316 0
2021-09-21 12:35:16 GMT 39.342831 -8.438538 10,000 176 316 0
2021-09-21 12:35:12 GMT 39.347626 -8.438965 10,000 176 316 0
2021-09-21 12:35:07 GMT 39.355404 -8.439636 10,000 176 316 0
2021-09-21 12:35:02 GMT 39.362431 -8.440186 10,000 176 315 0
2021-09-21 12:34:58 GMT 39.368111 -8.440674 10,000 176 315 64
2021-09-21 12:34:55 GMT 39.372803 -8.441082 10,000 176 315 64
2021-09-21 12:34:52 GMT 39.377747 -8.441500 10,000 176 315 0
2021-09-21 12:34:47 GMT 39.387680 -8.442277 10,000 176 315 0
2021-09-21 12:34:44 GMT 39.387680 -8.442277 10,000 176 315 0
2021-09-21 12:34:41 GMT 39.392487 -8.442635 10,000 176 315 128
2021-09-21 12:34:35 GMT 39.402695 -8.443471 10,000 176 316 -64
2021-09-21 12:34:30 GMT 39.408691 -8.443948 10,000 176 316 -128
2021-09-21 12:34:27 GMT 39.414570 -8.444397 10,000 176 316 0
2021-09-21 12:34:24 GMT 39.417801 -8.444665 10,000 176 316 64
2021-09-21 12:34:21 GMT 39.422157 -8.445068 10,000 176 316 64
2021-09-21 12:34:16 GMT 39.429466 -8.445679 10,000 176 316 64
2021-09-21 12:34:13 GMT 39.434029 -8.446045 10,000 176 316 -64
2021-09-21 12:34:10 GMT 39.437256 -8.446337 10,000 176 316 -128
2021-09-21 12:34:06 GMT 39.444550 -8.446960 10,000 176 316 0
2021-09-21 12:34:01 GMT 39.452461 -8.447632 10,000 176 316 -64
2021-09-21 12:33:57 GMT 39.462704 -8.448425 10,000 176 316 0
2021-09-21 12:33:54 GMT 39.462704 -8.448425 10,000 176 315 0
2021-09-21 12:33:50 GMT 39.467056 -8.448785 10,000 176 315 0
2021-09-21 12:33:45 GMT 39.474201 -8.449402 10,000 176 315 0
2021-09-21 12:33:40 GMT 39.482395 -8.450073 10,000 176 315 0
2021-09-21 12:33:35 GMT 39.489807 -8.450636 10,000 176 314 -64
2021-09-21 12:33:29 GMT 39.503483 -8.451782 10,000 176 314 0
2021-09-21 12:33:24 GMT 39.504776 -8.451890 10,000 176 314 0
2021-09-21 12:33:20 GMT 39.512051 -8.452515 10,000 176 314 64
2021-09-21 12:33:16 GMT 39.516403 -8.452845 10,000 176 314 0
2021-09-21 12:33:13 GMT 39.522537 -8.453382 10,000 175 314 -64
2021-09-21 12:33:09 GMT 39.526901 -8.453796 10,000 176 314 -64
2021-09-21 12:33:06 GMT 39.532578 -8.454285 10,000 176 314 -64
2021-09-21 12:33:02 GMT 39.537094 -8.454651 10,000 176 314 0
2021-09-21 12:32:58 GMT 39.543194 -8.455139 10,000 176 314 0
2021-09-21 12:32:54 GMT 39.548267 -8.455566 10,000 176 314 0
2021-09-21 12:32:51 GMT 39.552784 -8.455933 10,000 176 314 0
2021-09-21 12:32:48 GMT 39.557159 -8.456299 10,000 176 314 0
2021-09-21 12:32:45 GMT 39.561813 -8.456666 10,000 176 314 0
2021-09-21 12:32:42 GMT 39.567307 -8.457144 10,000 176 314 0
2021-09-21 12:32:38 GMT 39.572113 -8.457562 10,000 176 314 64
2021-09-21 12:32:34 GMT 39.578384 -8.458040 10,000 176 314 -64
2021-09-21 12:32:31 GMT 39.582157 -8.458313 10,000 176 314 -64
2021-09-21 12:32:27 GMT 39.587814 -8.458816 10,000 176 313 -64
2021-09-21 12:32:24 GMT 39.592770 -8.459229 10,000 176 313 -64
2021-09-21 12:32:21 GMT 39.597107 -8.459532 10,000 176 313 0
2021-09-21 12:32:17 GMT 39.601990 -8.459961 10,000 176 312 0
2021-09-21 12:32:14 GMT 39.607063 -8.460388 10,000 176 312 0
2021-09-21 12:32:10 GMT 39.611984 -8.460786 10,000 176 311 0
2021-09-21 12:32:07 GMT 39.616150 -8.461144 10,000 176 311 0
2021-09-21 12:32:04 GMT 39.622334 -8.461670 10,000 176 311 64
2021-09-21 12:32:01 GMT 39.626953 -8.462040 10,000 176 311 64
2021-09-21 12:31:57 GMT 39.631596 -8.462402 10,000 176 312 64
2021-09-21 12:31:53 GMT 39.637367 -8.462891 10,000 176 312 64
2021-09-21 12:31:50 GMT 39.641373 -8.463257 10,000 176 312 64
2021-09-21 12:31:46 GMT 39.646305 -8.463684 10,000 176 312 -64
2021-09-21 12:31:43 GMT 39.651489 -8.464070 10,000 176 312 -64
2021-09-21 12:31:40 GMT 39.656406 -8.464478 10,000 176 312 -128
2021-09-21 12:31:36 GMT 39.661434 -8.464905 10,000 176 311 -64
2021-09-21 12:31:33 GMT 39.666641 -8.465324 10,000 176 311 0
2021-09-21 12:31:30 GMT 39.670700 -8.465637 10,000 176 311 0
2021-09-21 12:31:27 GMT 39.674973 -8.466041 10,000 176 310 0
2021-09-21 12:31:23 GMT 39.680603 -8.466518 10,000 176 310 0
2021-09-21 12:31:20 GMT 39.685455 -8.466919 10,000 176 310 64
2021-09-21 12:31:15 GMT 39.691223 -8.467354 10,000 176 310 64
2021-09-21 12:31:12 GMT 39.695526 -8.467772 10,000 176 310 64
2021-09-21 12:31:07 GMT 39.704544 -8.468506 10,000 176 310 0
2021-09-21 12:31:03 GMT 39.710037 -8.469026 10,000 176 310 0
2021-09-21 12:30:59 GMT 39.715485 -8.469482 10,000 176 311 0
2021-09-21 12:30:55 GMT 39.720512 -8.469910 10,000 176 311 -64
2021-09-21 12:30:51 GMT 39.726288 -8.470399 10,000 176 311 -64
2021-09-21 12:30:48 GMT 39.730007 -8.470764 10,000 176 311 -64
2021-09-21 12:30:45 GMT 39.734894 -8.471175 10,000 176 311 0
2021-09-21 12:30:42 GMT 39.739784 -8.471558 10,000 176 310 0
2021-09-21 12:30:39 GMT 39.744812 -8.471985 10,000 176 311 0
2021-09-21 12:30:35 GMT 39.749863 -8.472429 10,000 176 311 64
2021-09-21 12:30:32 GMT 39.754028 -8.472788 10,000 176 311 64
2021-09-21 12:30:28 GMT 39.759197 -8.473267 10,000 176 312 0
2021-09-21 12:30:24 GMT 39.769180 -8.474101 10,000 176 312 64
2021-09-21 12:30:21 GMT 39.769180 -8.474101 10,000 176 312 0
2021-09-21 12:30:17 GMT 39.774372 -8.474548 10,000 176 312 0
2021-09-21 12:30:14 GMT 39.779446 -8.474976 10,000 176 313 0
2021-09-21 12:30:11 GMT 39.783031 -8.475281 10,000 176 313 0
2021-09-21 12:30:05 GMT 39.797695 -8.476501 10,000 176 314 -64
2021-09-21 12:30:02 GMT 39.804382 -8.477027 10,000 176 314 -64
2021-09-21 12:29:58 GMT 39.804382 -8.477027 10,000 176 314 -64
2021-09-21 12:29:53 GMT 39.810333 -8.477505 10,000 176 313 0
2021-09-21 12:29:50 GMT 39.814686 -8.477844 10,000 176 313 64
2021-09-21 12:29:47 GMT 39.818874 -8.478210 10,000 176 313 64
2021-09-21 12:29:43 GMT 39.829193 -8.479057 10,000 176 313 -64
2021-09-21 12:29:34 GMT 39.838055 -8.479797 10,000 176 313 0
2021-09-21 12:29:30 GMT 39.842697 -8.480132 10,000 176 313 -64
2021-09-21 12:29:27 GMT 39.848602 -8.480609 10,000 176 313 -64
2021-09-21 12:29:23 GMT 39.852673 -8.480957 10,000 176 313 0
2021-09-21 12:29:20 GMT 39.857895 -8.481386 10,000 176 313 64
2021-09-21 12:29:16 GMT 39.863846 -8.481812 10,000 176 313 64
2021-09-21 12:29:13 GMT 39.867920 -8.482162 10,000 176 313 128
2021-09-21 12:29:10 GMT 39.872131 -8.482520 10,000 176 314 64
2021-09-21 12:29:06 GMT 39.878231 -8.483032 10,000 176 314 -128
2021-09-21 12:29:02 GMT 39.883907 -8.483521 10,000 176 315 -64
2021-09-21 12:28:59 GMT 39.887970 -8.483834 10,000 176 315 0
2021-09-21 12:28:55 GMT 39.893497 -8.484375 10,000 176 315 0
2021-09-21 12:28:52 GMT 39.903183 -8.485168 10,000 176 316 -64
2021-09-21 12:28:49 GMT 39.908443 -8.485596 10,000 176 316 -64
2021-09-21 12:28:46 GMT 39.908443 -8.485596 10,000 176 316 -64
2021-09-21 12:28:42 GMT 39.912956 -8.485962 10,000 176 316 0
2021-09-21 12:28:39 GMT 39.918079 -8.486389 10,000 176 316 64
2021-09-21 12:28:33 GMT 39.932880 -8.487688 10,000 176 316 64
2021-09-21 12:28:29 GMT 39.932880 -8.487688 10,000 176 316 64
2021-09-21 12:28:25 GMT 39.938599 -8.488220 10,000 176 316 64
2021-09-21 12:28:22 GMT 39.942238 -8.488499 10,000 176 316 0
2021-09-21 12:28:19 GMT 39.947250 -8.488892 10,000 176 316 0
2021-09-21 12:28:14 GMT 39.954254 -8.489502 10,000 176 316 -64
2021-09-21 12:28:11 GMT 39.962910 -8.490247 10,000 176 316 0
2021-09-21 12:28:08 GMT 39.962910 -8.490247 10,000 176 316 64
2021-09-21 12:28:05 GMT 39.968445 -8.490723 10,000 176 316 64
2021-09-21 12:28:01 GMT 39.973011 -8.491121 10,000 176 316 0
2021-09-21 12:27:58 GMT 39.977234 -8.491455 10,000 176 316 -64
2021-09-21 12:27:54 GMT 39.983532 -8.491995 10,000 176 315 -64
2021-09-21 12:27:50 GMT 39.989365 -8.492554 10,000 176 315 0
2021-09-21 12:27:44 GMT 39.998383 -8.493286 10,000 176 314 -64
2021-09-21 12:27:38 GMT 40.012066 -8.494492 10,000 176 313 0
2021-09-21 12:27:33 GMT 40.013489 -8.494629 10,000 176 313 0
2021-09-21 12:27:29 GMT 40.019165 -8.495117 10,000 176 313 64
2021-09-21 12:27:24 GMT 40.028034 -8.495802 10,000 176 314 64
2021-09-21 12:27:19 GMT 40.043446 -8.497051 10,000 176 315 0
2021-09-21 12:27:13 GMT 40.043446 -8.497051 10,000 176 315 -64
2021-09-21 12:27:09 GMT 40.049171 -8.497488 10,000 176 316 0
2021-09-21 12:27:03 GMT 40.058350 -8.498230 10,000 176 316 -64
2021-09-21 12:26:57 GMT 40.072723 -8.499423 10,000 176 317 0
2021-09-21 12:26:50 GMT 40.076843 -8.499756 10,000 176 317 0
2021-09-21 12:26:47 GMT 40.081696 -8.500122 10,000 176 317 0
2021-09-21 12:26:43 GMT 40.088287 -8.500610 10,000 176 317 0
2021-09-21 12:26:40 GMT 40.092136 -8.500921 10,000 176 317 0
2021-09-21 12:26:37 GMT 40.095211 -8.501171 10,000 176 317 0
2021-09-21 12:26:34 GMT 40.100655 -8.501670 10,000 176 317 0
2021-09-21 12:26:30 GMT 40.107513 -8.502258 10,000 175 317 0
2021-09-21 12:26:27 GMT 40.111038 -8.502625 10,000 175 317 0
2021-09-21 12:26:22 GMT 40.118088 -8.503296 10,000 176 317 0
2021-09-21 12:26:19 GMT 40.123653 -8.503793 10,000 176 317 64
2021-09-21 12:26:16 GMT 40.131287 -8.504479 10,000 176 317 0
2021-09-21 12:26:13 GMT 40.131287 -8.504479 10,000 176 317 0
2021-09-21 12:26:09 GMT 40.137451 -8.505005 10,000 176 317 0
2021-09-21 12:26:06 GMT 40.140518 -8.505310 10,000 176 317 0
2021-09-21 12:26:02 GMT 40.148605 -8.505977 10,000 176 317 64
2021-09-21 12:25:58 GMT 40.152561 -8.506352 10,000 176 317 0
2021-09-21 12:25:55 GMT 40.156952 -8.506714 10,000 176 317 0
2021-09-21 12:25:52 GMT 40.162525 -8.507163 10,000 176 317 0
2021-09-21 12:25:49 GMT 40.165604 -8.507446 10,000 176 317 -64
2021-09-21 12:25:46 GMT 40.170017 -8.507788 10,000 176 316 0
2021-09-21 12:25:43 GMT 40.174534 -8.508162 10,000 176 316 64
2021-09-21 12:25:40 GMT 40.181889 -8.508786 10,000 176 317 -64
2021-09-21 12:25:36 GMT 40.191422 -8.509521 10,000 176 317 -64
2021-09-21 12:25:32 GMT 40.191422 -8.509521 10,000 176 316 64
2021-09-21 12:25:29 GMT 40.195358 -8.509827 10,000 176 318 0
2021-09-21 12:25:26 GMT 40.200211 -8.510254 10,000 176 321 0
2021-09-21 12:25:22 GMT 40.205490 -8.510659 10,000 176 318 0
2021-09-21 12:25:19 GMT 40.210613 -8.511096 10,000 176 318 0
2021-09-21 12:25:16 GMT 40.214569 -8.511408 10,000 176 318 0
2021-09-21 12:25:13 GMT 40.220619 -8.511907 10,000 176 319 64
2021-09-21 12:25:09 GMT 40.225479 -8.512329 10,000 176 320 -64
2021-09-21 12:25:06 GMT 40.230103 -8.512756 10,000 176 320 0
2021-09-21 12:25:02 GMT 40.235703 -8.513218 10,000 176 320 -64
2021-09-21 12:24:58 GMT 40.242828 -8.513794 10,000 176 321 0
2021-09-21 12:24:55 GMT 40.245201 -8.514030 10,000 176 321 0
2021-09-21 12:24:52 GMT 40.256653 -8.514954 10,000 176 321 0
2021-09-21 12:24:48 GMT 40.256653 -8.514954 10,000 176 321 0
2021-09-21 12:24:45 GMT 40.261402 -8.515403 10,000 176 321 0
2021-09-21 12:24:42 GMT 40.265579 -8.515747 10,000 176 321 -64
2021-09-21 12:24:38 GMT 40.272575 -8.516339 10,000 176 321 -64
2021-09-21 12:24:34 GMT 40.276108 -8.516663 10,000 176 320 0
2021-09-21 12:24:31 GMT 40.281326 -8.517151 10,025 176 320 -64
2021-09-21 12:24:28 GMT 40.286026 -8.517588 10,025 176 319 0
2021-09-21 12:24:23 GMT 40.299480 -8.518711 10,000 176 318 128
2021-09-21 12:24:17 GMT 40.303158 -8.519024 10,000 176 318 128
2021-09-21 12:24:14 GMT 40.306511 -8.519336 10,000 176 318 64
2021-09-21 12:24:06 GMT 40.318336 -8.520334 9,975 176 319 0
2021-09-21 12:24:03 GMT 40.322060 -8.520647 9,975 176 320 0
2021-09-21 12:23:57 GMT 40.331509 -8.521396 9,975 176 320 64
2021-09-21 12:23:53 GMT 40.336723 -8.521833 9,975 176 321 0
2021-09-21 12:23:46 GMT 40.348454 -8.522831 10,000 175 321 -64
2021-09-21 12:23:41 GMT 40.361721 -8.524017 10,000 175 323 -64
2021-09-21 12:23:36 GMT 40.363815 -8.524267 10,000 175 323 -128
2021-09-21 12:23:33 GMT 40.367260 -8.524579 10,000 175 323 -128
2021-09-21 12:23:25 GMT 40.379379 -8.525635 10,025 176 324 0
2021-09-21 12:23:22 GMT 40.383320 -8.525952 10,025 176 324 256
2021-09-21 12:23:18 GMT 40.391418 -8.526611 9,975 176 326 128
2021-09-21 12:23:15 GMT 40.394257 -8.526855 10,000 176 325 128
2021-09-21 12:23:12 GMT 40.398056 -8.527161 9,975 176 326 64
2021-09-21 12:23:06 GMT 40.407856 -8.528012 10,000 176 328 -128
2021-09-21 12:23:02 GMT 40.413940 -8.528503 10,000 176 329 -64
2021-09-21 12:22:54 GMT 40.425659 -8.529480 10,000 176 329 -64
2021-09-21 12:22:51 GMT 40.430244 -8.529823 10,000 176 329 0
2021-09-21 12:22:45 GMT 40.441360 -8.530762 10,000 176 328 0
2021-09-21 12:22:41 GMT 40.445435 -8.531128 10,000 176 328 0
2021-09-21 12:22:34 GMT 40.456921 -8.532070 10,025 176 324 0
2021-09-21 12:22:31 GMT 40.461411 -8.532471 10,000 176 322 64
2021-09-21 12:22:24 GMT 40.471680 -8.533381 10,000 176 320 0
2021-09-21 12:22:21 GMT 40.476425 -8.533752 10,000 176 320 0
2021-09-21 12:22:16 GMT 40.483841 -8.534424 10,000 176 319 0
2021-09-21 12:22:13 GMT 40.487366 -8.534729 10,000 176 319 0
2021-09-21 12:22:10 GMT 40.491394 -8.535034 10,000 176 319 64
2021-09-21 12:22:04 GMT 40.501984 -8.535940 10,000 176 318 128
2021-09-21 12:22:00 GMT 40.507324 -8.536438 10,000 176 318 64
2021-09-21 12:21:53 GMT 40.517487 -8.537313 10,000 176 319 0
2021-09-21 12:21:49 GMT 40.522327 -8.537750 10,000 176 319 0
2021-09-21 12:21:43 GMT 40.532684 -8.538635 10,000 176 319 -64
2021-09-21 12:21:39 GMT 40.538013 -8.539124 10,000 176 319 -128
2021-09-21 12:21:33 GMT 40.547287 -8.539917 10,025 176 317 -192
2021-09-21 12:21:29 GMT 40.552586 -8.540372 10,025 176 316 -64
2021-09-21 12:21:26 GMT 40.556541 -8.540747 10,025 176 316 64
2021-09-21 12:21:23 GMT 40.563385 -8.541308 10,025 176 315 64
2021-09-21 12:21:17 GMT 40.570816 -8.541992 10,000 176 314 128
2021-09-21 12:21:12 GMT 40.577225 -8.542603 10,000 176 314 0
2021-09-21 12:21:06 GMT 40.586662 -8.543368 10,000 176 315 0
2021-09-21 12:21:02 GMT 40.592064 -8.543868 10,000 176 315 0
2021-09-21 12:20:57 GMT 40.601532 -8.544617 10,000 176 315 0
2021-09-21 12:20:51 GMT 40.607391 -8.545105 10,000 176 315 0
2021-09-21 12:20:48 GMT 40.612637 -8.545553 10,000 176 315 64
2021-09-21 12:20:44 GMT 40.619339 -8.546082 10,000 176 315 128
2021-09-21 12:20:41 GMT 40.622227 -8.546302 10,000 176 315 64
2021-09-21 12:20:36 GMT 40.631027 -8.547051 10,000 176 316 64
2021-09-21 12:20:33 GMT 40.634659 -8.547363 9,975 176 317 64
2021-09-21 12:20:30 GMT 40.639069 -8.547791 9,975 176 317 64
2021-09-21 12:20:27 GMT 40.643051 -8.548096 10,000 176 318 -64
2021-09-21 12:20:24 GMT 40.647171 -8.548462 10,000 176 318 -64
2021-09-21 12:20:21 GMT 40.652626 -8.548986 10,000 176 319 0
2021-09-21 12:20:15 GMT 40.660122 -8.549610 10,000 176 319 -64
2021-09-21 12:20:10 GMT 40.667358 -8.550232 10,000 176 319 -64
2021-09-21 12:20:06 GMT 40.676788 -8.550964 10,000 176 318 -64
2021-09-21 12:20:03 GMT 40.682419 -8.551421 10,000 176 318 -64
2021-09-21 12:20:00 GMT 40.682419 -8.551421 10,000 176 318 -64
2021-09-21 12:19:54 GMT 40.691391 -8.552185 10,000 176 317 128
2021-09-21 12:19:51 GMT 40.697548 -8.552669 10,000 176 317 64
2021-09-21 12:19:45 GMT 40.706177 -8.553406 10,000 176 316 0
2021-09-21 12:19:40 GMT 40.712173 -8.553894 10,000 176 316 0
2021-09-21 12:19:34 GMT 40.720963 -8.554688 10,000 176 316 0
2021-09-21 12:19:29 GMT 40.727692 -8.555298 10,000 175 315 0
2021-09-21 12:19:25 GMT 40.733368 -8.555786 10,000 176 315 0
2021-09-21 12:19:22 GMT 40.740097 -8.556396 10,000 176 315 0
2021-09-21 12:19:19 GMT 40.742981 -8.556641 10,000 176 315 0
2021-09-21 12:19:14 GMT 40.751595 -8.557351 10,000 176 315 64
2021-09-21 12:19:10 GMT 40.757584 -8.557861 10,000 176 315 0
2021-09-21 12:19:04 GMT 40.764725 -8.558533 10,000 176 315 -64
2021-09-21 12:18:59 GMT 40.772003 -8.559143 10,000 176 315 -64
2021-09-21 12:18:53 GMT 40.781067 -8.559937 10,000 176 315 0
2021-09-21 12:18:49 GMT 40.786884 -8.560410 10,000 176 314 0
2021-09-21 12:18:43 GMT 40.795761 -8.561218 10,000 176 314 64
2021-09-21 12:18:39 GMT 40.801712 -8.561707 10,000 176 314 0
2021-09-21 12:18:33 GMT 40.812160 -8.562657 10,000 176 314 -64
2021-09-21 12:18:29 GMT 40.816677 -8.563031 10,000 176 313 -64
2021-09-21 12:18:22 GMT 40.825790 -8.563782 10,000 176 313 0
2021-09-21 12:18:18 GMT 40.831741 -8.564331 10,000 176 313 0
2021-09-21 12:18:11 GMT 40.842327 -8.565216 10,000 176 313 64
2021-09-21 12:18:08 GMT 40.846664 -8.565613 10,000 176 313 64
2021-09-21 12:18:04 GMT 40.852295 -8.566101 10,000 176 313 0
2021-09-21 12:18:00 GMT 40.858704 -8.566650 10,000 176 314 -64
2021-09-21 12:17:57 GMT 40.861450 -8.566895 10,000 176 314 -64
2021-09-21 12:17:51 GMT 40.871613 -8.567749 10,000 176 314 -64
2021-09-21 12:17:47 GMT 40.876099 -8.568176 10,000 175 314 0
2021-09-21 12:17:43 GMT 40.882782 -8.568787 10,000 175 313 -64
2021-09-21 12:17:40 GMT 40.886272 -8.569086 10,025 175 313 -64
2021-09-21 12:17:37 GMT 40.891346 -8.569586 10,025 175 312 -64
2021-09-21 12:17:33 GMT 40.897385 -8.570129 10,025 175 310 64
2021-09-21 12:17:30 GMT 40.900845 -8.570460 10,000 175 309 192
2021-09-21 12:17:27 GMT 40.905544 -8.570896 10,000 176 309 192
2021-09-21 12:17:21 GMT 40.914871 -8.571716 10,000 176 309 128
2021-09-21 12:17:16 GMT 40.920719 -8.572207 9,975 176 310 128
2021-09-21 12:17:10 GMT 40.930664 -8.573059 9,975 176 312 64
2021-09-21 12:17:06 GMT 40.935246 -8.573456 9,975 176 312 0
2021-09-21 12:17:00 GMT 40.944672 -8.574280 9,975 176 314 -64
2021-09-21 12:16:57 GMT 40.950073 -8.574707 9,975 176 315 -128
2021-09-21 12:16:50 GMT 40.958984 -8.575453 10,000 176 316 -64
2021-09-21 12:16:46 GMT 40.964710 -8.575890 10,000 176 316 -64
2021-09-21 12:16:40 GMT 40.974068 -8.576639 10,000 176 317 -64
2021-09-21 12:16:36 GMT 40.980103 -8.577148 10,000 176 319 -64
2021-09-21 12:16:30 GMT 40.989151 -8.577888 10,000 176 322 -64
2021-09-21 12:16:26 GMT 40.994972 -8.578387 10,000 176 324 0
2021-09-21 12:16:19 GMT 41.004135 -8.579163 10,000 176 326 128
2021-09-21 12:16:16 GMT 41.010910 -8.579712 10,000 176 326 64
2021-09-21 12:16:09 GMT 41.019379 -8.580444 10,000 176 326 0
2021-09-21 12:16:05 GMT 41.025696 -8.580994 10,000 176 326 0
2021-09-21 12:15:59 GMT 41.035519 -8.581820 10,000 175 326 -128
2021-09-21 12:15:55 GMT 41.041386 -8.582507 10,025 173 325 -64
2021-09-21 12:15:49 GMT 41.049763 -8.583818 10,025 173 325 64
2021-09-21 12:15:44 GMT 41.056641 -8.584900 10,000 173 325 64
2021-09-21 12:15:39 GMT 41.064846 -8.586190 10,000 173 326 -64
2021-09-21 12:15:35 GMT 41.072063 -8.587376 10,000 172 326 0
2021-09-21 12:15:28 GMT 41.081047 -8.588874 10,000 172 326 64
2021-09-21 12:15:24 GMT 41.087677 -8.589966 10,000 172 327 64
2021-09-21 12:15:19 GMT 41.095047 -8.591187 10,000 172 327 64
2021-09-21 12:15:14 GMT 41.102741 -8.592495 10,000 172 329 64
2021-09-21 12:15:09 GMT 41.110748 -8.593811 10,000 173 329 -128
2021-09-21 12:15:05 GMT 41.116379 -8.594666 10,000 173 330 -64
2021-09-21 12:15:01 GMT 41.124390 -8.595947 10,000 173 329 -64
2021-09-21 12:14:58 GMT 41.127548 -8.596497 10,000 173 329 -64
2021-09-21 12:14:55 GMT 41.131943 -8.597168 10,025 173 326 0
2021-09-21 12:14:52 GMT 41.136292 -8.597839 10,025 173 325 0
2021-09-21 12:14:48 GMT 41.142105 -8.598816 10,025 173 322 128
2021-09-21 12:14:45 GMT 41.148033 -8.599736 10,000 173 321 64
2021-09-21 12:14:42 GMT 41.150986 -8.600220 10,000 173 320 64
2021-09-21 12:14:38 GMT 41.157158 -8.601171 10,000 173 320 64
2021-09-21 12:14:35 GMT 41.161011 -8.601807 10,000 173 320 64
2021-09-21 12:14:32 GMT 41.171917 -8.603543 9,975 173 321 0
2021-09-21 12:14:28 GMT 41.171917 -8.603543 9,975 173 321 0
2021-09-21 12:14:25 GMT 41.176479 -8.604292 10,000 173 321 -64
2021-09-21 12:14:21 GMT 41.181793 -8.605103 10,000 173 322 -128
2021-09-21 12:14:18 GMT 41.185959 -8.605774 10,000 173 322 -64
2021-09-21 12:14:15 GMT 41.191143 -8.606602 10,000 173 322 0
2021-09-21 12:14:11 GMT 41.196171 -8.607414 10,000 173 322 -64
2021-09-21 12:14:07 GMT 41.202362 -8.608350 10,000 173 321 -64
2021-09-21 12:14:03 GMT 41.209763 -8.609558 10,000 173 321 0
2021-09-21 12:14:00 GMT 41.215397 -8.610472 10,000 173 321 0
2021-09-21 12:13:57 GMT 41.223076 -8.611658 10,000 173 321 64
2021-09-21 12:13:54 GMT 41.223076 -8.611658 10,000 173 321 64
2021-09-21 12:13:51 GMT 41.225739 -8.612122 10,000 172 321 64
2021-09-21 12:13:48 GMT 41.230637 -8.612915 10,000 172 322 64
2021-09-21 12:13:44 GMT 41.236404 -8.613892 10,000 173 322 0
2021-09-21 12:13:41 GMT 41.240536 -8.614530 10,000 173 323 0
2021-09-21 12:13:38 GMT 41.245747 -8.615341 10,000 173 323 -64
2021-09-21 12:13:35 GMT 41.250183 -8.616089 10,000 173 323 -64
2021-09-21 12:13:32 GMT 41.255852 -8.616964 10,000 173 324 0
2021-09-21 12:13:29 GMT 41.263458 -8.618103 10,000 173 324 0
2021-09-21 12:13:26 GMT 41.263458 -8.618103 10,000 173 324 64
2021-09-21 12:13:21 GMT 41.270283 -8.619211 10,000 173 323 -64
2021-09-21 12:13:18 GMT 41.276379 -8.620148 10,000 173 323 0
2021-09-21 12:13:14 GMT 41.280567 -8.620834 10,000 173 323 0
2021-09-21 12:13:11 GMT 41.286163 -8.621765 10,000 173 322 64
2021-09-21 12:13:07 GMT 41.291508 -8.622582 10,000 172 322 64
2021-09-21 12:13:04 GMT 41.296677 -8.623456 10,000 172 321 0
2021-09-21 12:13:01 GMT 41.300537 -8.624084 10,000 172 321 0
2021-09-21 12:12:57 GMT 41.307175 -8.625183 10,000 172 321 0
2021-09-21 12:12:53 GMT 41.311897 -8.625953 10,000 173 320 0
2021-09-21 12:12:50 GMT 41.315578 -8.626577 10,000 172 319 0
2021-09-21 12:12:46 GMT 41.328781 -8.628723 10,000 172 318 0
2021-09-21 12:12:43 GMT 41.328781 -8.628723 10,000 172 318 0
2021-09-21 12:12:40 GMT 41.331123 -8.629074 10,000 172 318 0
2021-09-21 12:12:37 GMT 41.337296 -8.630127 10,000 172 318 0
2021-09-21 12:12:33 GMT 41.342422 -8.630981 10,000 172 319 0
2021-09-21 12:12:30 GMT 41.346085 -8.631592 10,000 172 319 0
2021-09-21 12:12:27 GMT 41.351933 -8.632570 10,000 172 319 64
2021-09-21 12:12:23 GMT 41.357380 -8.633444 10,000 173 320 0
2021-09-21 12:12:20 GMT 41.360172 -8.633943 10,000 173 320 0
2021-09-21 12:12:17 GMT 41.365173 -8.634705 10,000 173 321 0
2021-09-21 12:12:13 GMT 41.372696 -8.635941 10,000 173 322 -64
2021-09-21 12:12:10 GMT 41.375519 -8.636414 10,000 173 322 0
2021-09-21 12:12:06 GMT 41.382473 -8.637564 10,000 173 323 0
2021-09-21 12:12:03 GMT 41.385452 -8.638000 10,000 173 323 64
2021-09-21 12:12:00 GMT 41.390804 -8.638895 10,000 173 324 64
2021-09-21 12:11:56 GMT 41.397228 -8.639917 10,000 173 324 0
2021-09-21 12:11:52 GMT 41.402443 -8.640747 10,000 173 325 64
2021-09-21 12:11:49 GMT 41.407658 -8.641577 10,000 173 326 64
2021-09-21 12:11:45 GMT 41.412186 -8.642308 10,000 173 327 0
2021-09-21 12:11:42 GMT 41.417896 -8.643174 10,000 173 328 0
2021-09-21 12:11:39 GMT 41.421524 -8.643806 10,000 173 328 64
2021-09-21 12:11:36 GMT 41.425766 -8.644452 10,000 173 330 0
2021-09-21 12:11:33 GMT 41.430588 -8.645241 10,000 173 331 0
2021-09-21 12:11:29 GMT 41.437317 -8.646303 9,975 173 331 0
2021-09-21 12:11:26 GMT 41.444016 -8.647390 10,000 172 332 0
2021-09-21 12:11:22 GMT 41.452698 -8.648800 10,000 173 332 -64
2021-09-21 12:11:19 GMT 41.452698 -8.648800 10,000 173 332 -64
2021-09-21 12:11:15 GMT 41.459145 -8.649817 10,000 173 332 -128
2021-09-21 12:11:12 GMT 41.461891 -8.650264 10,000 173 332 -128
2021-09-21 12:11:09 GMT 41.468445 -8.651296 10,000 173 332 -64
2021-09-21 12:11:04 GMT 41.475632 -8.652482 10,000 173 331 -64
2021-09-21 12:11:01 GMT 41.478973 -8.653011 10,000 173 330 0
2021-09-21 12:10:58 GMT 41.483955 -8.653841 10,000 172 330 0
2021-09-21 12:10:55 GMT 41.489262 -8.654735 10,000 173 329 64
2021-09-21 12:10:52 GMT 41.494572 -8.655566 10,000 173 329 64
2021-09-21 12:10:49 GMT 41.497131 -8.656013 10,000 173 328 64
2021-09-21 12:10:46 GMT 41.507858 -8.657788 10,000 173 328 0
2021-09-21 12:10:43 GMT 41.507858 -8.657788 10,000 173 328 0
2021-09-21 12:10:40 GMT 41.512398 -8.658504 10,000 173 328 0
2021-09-21 12:10:35 GMT 41.519760 -8.659723 10,000 173 328 0
2021-09-21 12:10:30 GMT 41.527294 -8.660931 10,000 172 327 0
2021-09-21 12:10:27 GMT 41.531067 -8.661506 10,000 172 327 0
2021-09-21 12:10:23 GMT 41.536049 -8.662336 10,000 172 327 0
2021-09-21 12:10:20 GMT 41.542377 -8.663358 10,000 173 328 -64
2021-09-21 12:10:15 GMT 41.548691 -8.664405 10,000 173 328 64
2021-09-21 12:10:12 GMT 41.555328 -8.665466 10,000 173 328 64
2021-09-21 12:10:09 GMT 41.558075 -8.665903 10,000 173 328 64
2021-09-21 12:10:06 GMT 41.564392 -8.666964 10,000 173 329 128
2021-09-21 12:10:02 GMT 41.569702 -8.667776 9,975 173 330 64
2021-09-21 12:09:59 GMT 41.572723 -8.668275 9,975 173 330 0
2021-09-21 12:09:56 GMT 41.577896 -8.669149 10,000 173 331 -64
2021-09-21 12:09:53 GMT 41.582462 -8.669874 10,000 173 331 -64
2021-09-21 12:09:49 GMT 41.589024 -8.670959 10,000 173 332 -64
2021-09-21 12:09:44 GMT 41.597397 -8.672270 10,000 173 332 -64
2021-09-21 12:09:39 GMT 41.604153 -8.673387 10,000 173 332 -64
2021-09-21 12:09:36 GMT 41.609024 -8.674143 10,000 173 331 0
2021-09-21 12:09:33 GMT 41.613419 -8.674830 10,025 173 331 0
2021-09-21 12:09:29 GMT 41.619984 -8.675878 10,025 173 331 0
2021-09-21 12:09:26 GMT 41.623611 -8.676517 10,000 173 330 0
2021-09-21 12:09:23 GMT 41.628361 -8.677283 10,000 173 330 0
2021-09-21 12:09:19 GMT 41.634430 -8.678263 10,000 173 330 64
2021-09-21 12:09:16 GMT 41.638824 -8.679012 10,000 173 329 0
2021-09-21 12:09:13 GMT 41.643955 -8.679838 10,000 173 328 0
2021-09-21 12:09:08 GMT 41.650269 -8.680885 10,000 172 327 0
2021-09-21 12:09:05 GMT 41.660065 -8.682508 10,000 172 326 0
2021-09-21 12:09:02 GMT 41.660065 -8.682508 10,000 172 326 0
2021-09-21 12:08:59 GMT 41.670090 -8.684131 10,000 172 325 0
2021-09-21 12:08:56 GMT 41.670090 -8.684131 10,000 172 325 0
2021-09-21 12:08:52 GMT 41.673843 -8.684755 10,000 172 325 0
2021-09-21 12:08:48 GMT 41.680115 -8.685754 10,000 172 325 0
2021-09-21 12:08:43 GMT 41.689857 -8.687375 10,000 172 325 0
2021-09-21 12:08:39 GMT 41.695816 -8.688375 10,000 172 325 0
2021-09-21 12:08:35 GMT 41.700333 -8.689100 10,000 173 325 0
2021-09-21 12:08:32 GMT 41.705429 -8.689936 10,000 173 326 0
2021-09-21 12:08:28 GMT 41.711243 -8.690872 10,000 173 326 64
2021-09-21 12:08:22 GMT 41.720116 -8.692293 10,000 173 326 0
2021-09-21 12:08:18 GMT 41.727612 -8.693443 10,000 173 327 0
2021-09-21 12:08:12 GMT 41.735733 -8.694742 10,000 173 327 64
2021-09-21 12:08:09 GMT 41.739807 -8.695429 10,000 173 328 64
2021-09-21 12:08:05 GMT 41.746124 -8.696428 10,000 173 328 0
2021-09-21 12:08:01 GMT 41.750980 -8.697212 10,000 173 329 0
2021-09-21 12:07:57 GMT 41.757774 -8.698361 10,000 172 329 0
2021-09-21 12:07:54 GMT 41.761688 -8.698987 10,000 172 329 0
2021-09-21 12:07:51 GMT 41.768204 -8.700086 10,000 173 329 0
2021-09-21 12:07:47 GMT 41.773361 -8.700922 10,000 173 330 -64
2021-09-21 12:07:44 GMT 41.777328 -8.701555 10,000 173 329 -64
2021-09-21 12:07:40 GMT 41.782791 -8.702420 10,000 173 329 -64
2021-09-21 12:07:36 GMT 41.789433 -8.703535 10,000 173 329 0
2021-09-21 12:07:33 GMT 41.793854 -8.704238 10,000 172 329 0
2021-09-21 12:07:27 GMT 41.802280 -8.705707 10,000 172 329 0
2021-09-21 12:07:23 GMT 41.809708 -8.706915 10,000 172 329 0
2021-09-21 12:07:20 GMT 41.814423 -8.707726 10,000 172 329 0
2021-09-21 12:07:16 GMT 41.820763 -8.708773 10,000 172 329 0
2021-09-21 12:07:08 GMT 41.832584 -8.710817 10,000 172 329 64
2021-09-21 12:07:03 GMT 41.839417 -8.711909 10,000 172 330 64
2021-09-21 12:07:00 GMT 41.843945 -8.712669 10,000 172 330 64
2021-09-21 12:06:57 GMT 41.848068 -8.713407 10,000 172 331 0
2021-09-21 12:06:54 GMT 41.852188 -8.714093 10,000 172 331 0
2021-09-21 12:06:50 GMT 41.859959 -8.715352 10,000 172 332 -64
2021-09-21 12:06:47 GMT 41.863907 -8.716028 10,000 172 332 0
2021-09-21 12:06:44 GMT 41.868942 -8.716902 10,000 172 332 0
2021-09-21 12:06:40 GMT 41.874763 -8.717843 10,000 172 333 0
2021-09-21 12:06:37 GMT 41.879185 -8.718609 10,000 172 333 0
2021-09-21 12:06:32 GMT 41.886539 -8.719823 10,000 172 334 0
2021-09-21 12:06:28 GMT 41.892700 -8.720897 10,000 172 334 0
2021-09-21 12:06:24 GMT 41.899612 -8.722083 10,000 172 334 0
2021-09-21 12:06:17 GMT 41.910236 -8.723911 10,000 172 335 0
2021-09-21 12:06:13 GMT 41.915955 -8.724892 10,000 172 335 0
2021-09-21 12:06:06 GMT 41.926903 -8.726785 10,000 172 335 0
2021-09-21 12:06:01 GMT 41.933670 -8.727951 10,000 172 335 0
2021-09-21 12:05:56 GMT 41.942001 -8.729387 10,000 172 335 0
2021-09-21 12:05:53 GMT 41.946312 -8.730107 10,000 172 335 0
2021-09-21 12:05:49 GMT 41.953251 -8.731320 10,000 172 335 0
2021-09-21 12:05:46 GMT 41.957886 -8.732133 10,000 172 335 0
2021-09-21 12:05:42 GMT 41.963608 -8.733132 10,000 172 335 -64
2021-09-21 12:05:39 GMT 41.968689 -8.734006 10,000 172 335 0
2021-09-21 12:05:36 GMT 41.974091 -8.734942 10,000 172 335 0
2021-09-21 12:05:29 GMT 41.982742 -8.736440 10,000 172 335 0
2021-09-21 12:05:25 GMT 41.989372 -8.737580 10,000 172 335 -64
2021-09-21 12:05:21 GMT 41.996590 -8.738858 10,000 172 335 0
2021-09-21 12:05:15 GMT 42.004921 -8.740263 10,000 172 334 0
2021-09-21 12:05:08 GMT 42.016605 -8.742115 10,000 174 335 64
2021-09-21 12:05:05 GMT 42.020920 -8.742808 10,000 174 335 64
2021-09-21 12:04:54 GMT 42.038811 -8.743904 10,000 182 338 0
2021-09-21 12:04:44 GMT 42.053513 -8.743432 10,000 182 338 -64
2021-09-21 12:04:34 GMT 42.069031 -8.742932 10,000 182 338 0
2021-09-21 12:04:30 GMT 42.076382 -8.742754 10,000 182 338 64
2021-09-21 12:04:23 GMT 42.085602 -8.742495 10,000 182 338 64
2021-09-21 12:04:18 GMT 42.093418 -8.742243 10,000 182 339 64
2021-09-21 12:04:13 GMT 42.101284 -8.741987 10,000 182 339 64
2021-09-21 12:04:08 GMT 42.109131 -8.741746 10,000 182 340 0
2021-09-21 12:04:04 GMT 42.117161 -8.741476 10,000 182 340 0
2021-09-21 12:03:59 GMT 42.125473 -8.741185 10,000 182 340 -64
2021-09-21 12:03:53 GMT 42.133530 -8.740935 10,000 182 340 -64
2021-09-21 12:03:48 GMT 42.142319 -8.740623 10,000 182 339 -64
2021-09-21 12:03:43 GMT 42.149551 -8.740373 10,000 182 339 0
2021-09-21 12:03:37 GMT 42.157837 -8.740123 10,000 182 338 0
2021-09-21 12:03:32 GMT 42.165852 -8.739880 10,000 182 338 0
2021-09-21 12:03:27 GMT 42.175209 -8.739560 10,000 182 337 0
2021-09-21 12:03:23 GMT 42.181458 -8.739312 10,000 182 337 0
2021-09-21 12:03:16 GMT 42.190620 -8.738985 10,000 182 336 0
2021-09-21 12:03:12 GMT 42.196999 -8.738794 10,000 182 335 64
2021-09-21 12:03:06 GMT 42.207092 -8.738438 10,000 182 334 0
2021-09-21 12:03:02 GMT 42.213089 -8.738251 10,000 182 334 0
2021-09-21 12:02:51 GMT 42.229294 -8.737751 10,000 182 333 0
2021-09-21 12:02:42 GMT 42.244526 -8.737325 10,000 182 333 64
2021-09-21 12:02:31 GMT 42.260075 -8.736877 10,000 182 333 0
2021-09-21 12:02:21 GMT 42.276123 -8.736440 10,000 182 333 0
2021-09-21 12:02:10 GMT 42.292145 -8.735879 10,000 182 333 0
2021-09-21 12:02:00 GMT 42.308029 -8.735379 10,000 182 333 0
2021-09-21 12:01:50 GMT 42.324085 -8.734897 10,000 182 333 0
2021-09-21 12:01:40 GMT 42.339352 -8.734450 10,000 182 333 0
2021-09-21 12:01:30 GMT 42.355274 -8.734003 10,000 182 334 0
2021-09-21 12:01:19 GMT 42.371799 -8.733492 10,000 182 335 0
2021-09-21 12:01:10 GMT 42.386673 -8.733007 10,000 182 335 -64
2021-09-21 12:00:58 GMT 42.403595 -8.732470 10,000 182 335 0
2021-09-21 12:00:49 GMT 42.418030 -8.732009 10,000 182 334 0
2021-09-21 12:00:38 GMT 42.434551 -8.731448 10,000 182 332 0
2021-09-21 12:00:28 GMT 42.451126 -8.730947 10,000 182 331 64
2021-09-21 12:00:18 GMT 42.465363 -8.730448 10,000 182 331 0
2021-09-21 12:00:07 GMT 42.482082 -8.729276 10,000 187 333 0
2021-09-21 11:59:57 GMT 42.498142 -8.724039 10,000 203 337 64
2021-09-21 11:59:46 GMT 42.514156 -8.712797 10,000 212 340 0
2021-09-21 11:59:36 GMT 42.526703 -8.702483 10,000 212 340 -128
2021-09-21 11:59:27 GMT 42.538925 -8.692433 10,025 212 339 -64
2021-09-21 11:59:15 GMT 42.554424 -8.679646 10,000 212 336 64
2021-09-21 11:55:23 GMT 42.865997 -8.423048 10,625 211 346 -1600
2021-09-21 11:55:13 GMT 42.879917 -8.411669 10,900 212 349 -1664
2021-09-21 11:55:02 GMT 42.894211 -8.399898 11,175 212 351 -1408
2021-09-21 11:54:53 GMT 42.907944 -8.388650 11,425 211 355 -1664
2021-09-21 11:54:42 GMT 42.922943 -8.376436 11,725 211 357 -1728
2021-09-21 11:54:33 GMT 42.936432 -8.365566 11,975 211 354 -896
2021-09-21 11:54:21 GMT 42.954681 -8.350786 12,000 211 356 -64
2021-09-21 11:54:10 GMT 42.969177 -8.339006 12,000 211 358 -64
2021-09-21 11:53:39 GMT 43.012360 -8.304029 12,025 211 356 0
2021-09-21 11:53:08 GMT 43.055794 -8.268520 12,000 211 357 0
2021-09-21 11:51:38 GMT 43.186569 -8.161628 13,175 211 382 -1088
2021-09-21 11:51:36 GMT 43.188080 -8.160351 13,175 211 382 -1088
2021-09-21 11:51:35 GMT 43.189911 -8.158853 13,200 211 384 -1088
2021-09-21 11:51:24 GMT 43.206894 -8.145021 13,400 211 392 -960
2021-09-21 11:51:23 GMT 43.208450 -8.143743 13,400 211 400 -1216
2021-09-21 11:51:17 GMT 43.218338 -8.135631 13,500 211 400 -1216
2021-09-21 11:51:16 GMT 43.220726 -8.133676 13,525 211 400 -1216
2021-09-21 11:51:15 GMT 43.221542 -8.133077 13,550 211 400 -1344
2021-09-21 11:51:13 GMT 43.224686 -8.130406 13,600 212 401 -1920
2021-09-21 11:51:12 GMT 43.226917 -8.128575 13,650 212 401 -2048
2021-09-21 11:51:11 GMT 43.228363 -8.127456 13,675 211 402 -2368
2021-09-21 11:51:10 GMT 43.231705 -8.124645 13,750 212 402 -2368
2021-09-21 11:51:08 GMT 43.233154 -8.123474 13,800 212 404 -2368
2021-09-21 11:51:07 GMT 43.234924 -8.122035 13,825 212 404 -2240
2021-09-21 11:51:04 GMT 43.238743 -8.118831 13,925 212 406 -1856
2021-09-21 11:51:03 GMT 43.241364 -8.116725 13,950 212 409 -1408
2021-09-21 11:51:02 GMT 43.244751 -8.113914 14,000 212 410 -1536
2021-09-21 11:51:00 GMT 43.246353 -8.112573 14,025 212 410 -1600
2021-09-21 11:50:59 GMT 43.248001 -8.111232 14,050 212 411 -1728
2021-09-21 11:50:57 GMT 43.250938 -8.108760 14,125 212 412 -1920
2021-09-21 11:50:56 GMT 43.252567 -8.107452 14,150 212 412 -1984
2021-09-21 11:50:54 GMT 43.256016 -8.104575 14,200 212 412 -2112
2021-09-21 11:50:53 GMT 43.257477 -8.103375 14,250 212 413 -2176
2021-09-21 11:50:51 GMT 43.260761 -8.100651 14,325 212 415 -2112
2021-09-21 11:50:50 GMT 43.262238 -8.099479 14,350 212 415 -2112
2021-09-21 11:50:48 GMT 43.266163 -8.096204 14,450 212 416 -2112
2021-09-21 11:50:47 GMT 43.266998 -8.095519 14,450 212 416 -2240
2021-09-21 11:50:46 GMT 43.271282 -8.091954 14,575 211 416 -2624
2021-09-21 11:50:43 GMT 43.275604 -8.088429 14,700 211 417 -3200
2021-09-21 11:50:41 GMT 43.277103 -8.087180 14,750 211 417 -3200
2021-09-21 11:50:40 GMT 43.279083 -8.085554 14,800 211 417 -3200
2021-09-21 11:50:39 GMT 43.282379 -8.082872 14,925 211 418 -3200
2021-09-21 11:50:37 GMT 43.284027 -8.081466 14,975 211 418 -3136
2021-09-21 11:50:35 GMT 43.287342 -8.078744 15,075 211 419 -3136
2021-09-21 11:50:34 GMT 43.289200 -8.077251 15,125 211 419 -3136
2021-09-21 11:50:33 GMT 43.290695 -8.076063 15,175 211 420 -3136
2021-09-21 11:50:32 GMT 43.294186 -8.073186 15,300 211 420 -3200
2021-09-21 11:50:30 GMT 43.296047 -8.071681 15,350 211 421 -3200
2021-09-21 11:50:29 GMT 43.299026 -8.069196 15,450 211 421 -3328
2021-09-21 11:50:27 GMT 43.301376 -8.067286 15,525 211 422 -3328
2021-09-21 11:50:26 GMT 43.302063 -8.066711 15,550 211 422 -3392
2021-09-21 11:50:22 GMT 43.309616 -8.060580 15,800 211 423 -3264
2021-09-21 11:50:20 GMT 43.312344 -8.058406 15,875 211 424 -3072
2021-09-21 11:50:19 GMT 43.314514 -8.056619 15,950 211 424 -2944
2021-09-21 11:50:17 GMT 43.317741 -8.053959 16,050 211 426 -2752
2021-09-21 11:50:16 GMT 43.321106 -8.051254 16,125 211 427 -2752
2021-09-21 11:50:14 GMT 43.322800 -8.049849 16,175 211 428 -2880
2021-09-21 11:50:13 GMT 43.324863 -8.048205 16,225 211 428 -3072
2021-09-21 11:50:12 GMT 43.327938 -8.045654 16,325 211 428 -3456
2021-09-21 11:50:10 GMT 43.329620 -8.044292 16,400 211 428 -3648
2021-09-21 11:50:09 GMT 43.332687 -8.041801 16,500 211 427 -3840
2021-09-21 11:50:07 GMT 43.335060 -8.039834 16,600 212 428 -3776
2021-09-21 11:50:06 GMT 43.337757 -8.037545 16,700 211 429 -3328
2021-09-21 11:50:03 GMT 43.341202 -8.034774 16,775 212 429 -3072
2021-09-21 11:50:02 GMT 43.343582 -8.032794 16,850 212 431 -2496
2021-09-21 11:50:01 GMT 43.346466 -8.030431 16,925 212 432 -2496
2021-09-21 11:49:59 GMT 43.348373 -8.028848 16,975 211 431 -2688
2021-09-21 11:49:58 GMT 43.349899 -8.027557 17,025 211 431 -3008
2021-09-21 11:49:56 GMT 43.353310 -8.024793 17,125 211 431 -3584
2021-09-21 11:49:54 GMT 43.355209 -8.023213 17,200 211 431 -3776
2021-09-21 11:49:53 GMT 43.356937 -8.021785 17,250 211 431 -3840
2021-09-21 11:49:51 GMT 43.360519 -8.018870 17,400 211 431 -3776
2021-09-21 11:49:50 GMT 43.362396 -8.017273 17,475 212 432 -3712
2021-09-21 11:49:48 GMT 43.365643 -8.014592 17,575 212 432 -3584
2021-09-21 11:49:47 GMT 43.367554 -8.013088 17,650 212 432 -3520
2021-09-21 11:49:46 GMT 43.372162 -8.009229 17,775 211 433 -3392
2021-09-21 11:49:44 GMT 43.372162 -8.009229 17,800 211 433 -3328
2021-09-21 11:49:43 GMT 43.373882 -8.007856 17,850 211 435 -3264
2021-09-21 11:49:40 GMT 43.379425 -8.003285 18,025 212 436 -3328
2021-09-21 11:49:39 GMT 43.382538 -8.000730 18,125 211 437 -3520
2021-09-21 11:49:37 GMT 43.384636 -7.999028 18,200 211 437 -3584
2021-09-21 11:49:36 GMT 43.386154 -7.997728 18,250 211 437 -3712
2021-09-21 11:49:35 GMT 43.389664 -7.994908 18,375 211 437 -3840
2021-09-21 11:49:33 GMT 43.391876 -7.993001 18,475 211 437 -3904
2021-09-21 11:49:31 GMT 43.394505 -7.990853 18,575 212 437 -3904
2021-09-21 11:49:28 GMT 43.400558 -7.985883 18,725 212 437 -3840
2021-09-21 11:49:27 GMT 43.402142 -7.984576 18,850 212 438 -3648
2021-09-21 11:49:26 GMT 43.403862 -7.983137 18,900 212 438 -3584
2021-09-21 11:49:25 GMT 43.407028 -7.980545 19,000 211 439 -3520
2021-09-21 11:49:23 GMT 43.412941 -7.975682 19,150 211 439 -3712
2021-09-21 11:49:21 GMT 43.412941 -7.975682 19,225 211 439 -3840
2021-09-21 11:49:20 GMT 43.413803 -7.974988 19,250 211 439 -4032
2021-09-21 11:49:18 GMT 43.417831 -7.971667 19,400 211 439 -4160
2021-09-21 11:49:17 GMT 43.419571 -7.970262 19,475 211 439 -4160
2021-09-21 11:49:16 GMT 43.421135 -7.968946 19,550 211 439 -4096
2021-09-21 11:49:14 GMT 43.424973 -7.965791 19,675 211 440 -3840
2021-09-21 11:49:13 GMT 43.428490 -7.962930 19,800 211 440 -3584
2021-09-21 11:49:11 GMT 43.430054 -7.961639 19,850 211 441 -3456
2021-09-21 11:49:10 GMT 43.431980 -7.960052 19,925 211 441 -3392
2021-09-21 11:49:08 GMT 43.435135 -7.957487 20,025 211 442 -3328
2021-09-21 11:49:06 GMT 43.438637 -7.954625 20,125 211 442 -3328
2021-09-21 11:49:05 GMT 43.440582 -7.953080 20,200 211 442 -3328
2021-09-21 11:49:03 GMT 43.444107 -7.950205 20,300 211 443 -3328
2021-09-21 11:49:02 GMT 43.445900 -7.948739 20,350 211 444 -3328
2021-09-21 11:49:01 GMT 43.447670 -7.947301 20,425 211 444 -3328
2021-09-21 11:48:59 GMT 43.451393 -7.944292 20,525 211 445 -3392
2021-09-21 11:48:58 GMT 43.453354 -7.942732 20,600 211 446 -3392
2021-09-21 11:48:56 GMT 43.456886 -7.939911 20,700 211 446 -3392
2021-09-21 11:48:55 GMT 43.458702 -7.938472 20,775 211 447 -3392
2021-09-21 11:48:54 GMT 43.462425 -7.935464 20,875 211 447 -3392
2021-09-21 11:48:52 GMT 43.463333 -7.934748 20,900 211 448 -3456
2021-09-21 11:48:51 GMT 43.465851 -7.932704 21,000 211 448 -3456
2021-09-21 11:48:50 GMT 43.469036 -7.930102 21,100 211 448 -3456
2021-09-21 11:48:48 GMT 43.470657 -7.928807 21,150 211 449 -3456
2021-09-21 11:48:47 GMT 43.474411 -7.925805 21,275 211 450 -3456
2021-09-21 11:48:45 GMT 43.476021 -7.924478 21,325 211 450 -3456
2021-09-21 11:48:44 GMT 43.477661 -7.923187 21,375 211 450 -3456
2021-09-21 11:48:42 GMT 43.481232 -7.920227 21,500 211 451 -3456
2021-09-21 11:48:40 GMT 43.484863 -7.917350 21,600 211 451 -3456
2021-09-21 11:48:39 GMT 43.488831 -7.914116 21,725 211 453 -3456
2021-09-21 11:48:37 GMT 43.490452 -7.912772 21,775 211 453 -3456
2021-09-21 11:48:36 GMT 43.494415 -7.909581 21,900 211 454 -3456
2021-09-21 11:48:34 GMT 43.496410 -7.907933 21,975 211 454 -3456
2021-09-21 11:48:33 GMT 43.498363 -7.906363 22,025 211 455 -3456
2021-09-21 11:48:31 GMT 43.501297 -7.904009 22,125 211 455 -3456
2021-09-21 11:48:30 GMT 43.503296 -7.902364 22,200 211 455 -3456
2021-09-21 11:48:28 GMT 43.506931 -7.899432 22,300 211 456 -3456
2021-09-21 11:48:26 GMT 43.512039 -7.895337 22,475 211 458 -3520
2021-09-21 11:48:24 GMT 43.514740 -7.893102 22,550 211 458 -3520
2021-09-21 11:48:23 GMT 43.518036 -7.890483 22,675 211 458 -3584
2021-09-21 11:48:21 GMT 43.520050 -7.888822 22,725 211 459 -3584
2021-09-21 11:48:20 GMT 43.521881 -7.887353 22,800 211 459 -3520
2021-09-21 11:48:17 GMT 43.525925 -7.884129 22,925 211 460 -3392
2021-09-21 11:48:16 GMT 43.530670 -7.880205 23,050 211 460 -3200
2021-09-21 11:48:14 GMT 43.532719 -7.878571 23,150 211 462 -3072
2021-09-21 11:48:13 GMT 43.536026 -7.875889 23,200 211 463 -2944
2021-09-21 11:48:11 GMT 43.538399 -7.873928 23,275 211 464 -2880
2021-09-21 11:48:10 GMT 43.540421 -7.872279 23,325 211 464 -2880
2021-09-21 11:48:08 GMT 43.543579 -7.869724 23,400 211 466 -2944
2021-09-21 11:48:07 GMT 43.545456 -7.868191 23,450 211 466 -3008
2021-09-21 11:48:06 GMT 43.547478 -7.866538 23,500 211 466 -3072
2021-09-21 11:48:05 GMT 43.551388 -7.863399 23,625 211 467 -3200
2021-09-21 11:48:03 GMT 43.555115 -7.860335 23,725 211 468 -3264
2021-09-21 11:48:01 GMT 43.556946 -7.858802 23,775 211 469 -3264
2021-09-21 11:48:00 GMT 43.558823 -7.857269 23,850 211 469 -3264
2021-09-21 11:47:58 GMT 43.562187 -7.854505 23,925 211 470 -3264
2021-09-21 11:47:56 GMT 43.568333 -7.849404 24,100 211 472 -3200
2021-09-21 11:47:54 GMT 43.570038 -7.848071 24,150 211 472 -3264
2021-09-21 11:47:53 GMT 43.571548 -7.846793 24,200 211 472 -3264
2021-09-21 11:47:52 GMT 43.573608 -7.845133 24,275 211 473 -3328
2021-09-21 11:47:50 GMT 43.577362 -7.842003 24,375 212 473 -3264
2021-09-21 11:47:49 GMT 43.579239 -7.840470 24,425 211 474 -3200
2021-09-21 11:47:47 GMT 43.582996 -7.837372 24,525 211 475 -3008
2021-09-21 11:47:46 GMT 43.584869 -7.835807 24,575 211 475 -2944
2021-09-21 11:47:45 GMT 43.586582 -7.834364 24,625 212 477 -2880
2021-09-21 11:47:43 GMT 43.590179 -7.831400 24,725 212 478 -2880
2021-09-21 11:47:40 GMT 43.595844 -7.826647 24,875 212 480 -3008
2021-09-21 11:47:39 GMT 43.597778 -7.825076 24,900 212 481 -3072
2021-09-21 11:47:38 GMT 43.601578 -7.821946 25,025 212 482 -3200
2021-09-21 11:47:36 GMT 43.604416 -7.819519 25,100 212 482 -3264
2021-09-21 11:47:35 GMT 43.605389 -7.818734 25,125 212 482 -3328
2021-09-21 11:47:33 GMT 43.609360 -7.815367 25,225 212 482 -3392
2021-09-21 11:47:32 GMT 43.611465 -7.813643 25,300 212 484 -3456
2021-09-21 11:47:31 GMT 43.613388 -7.811982 25,375 212 484 -3520
2021-09-21 11:47:29 GMT 43.617004 -7.808916 25,475 212 484 -3712
2021-09-21 11:47:28 GMT 43.620609 -7.805852 25,600 212 484 -3968
2021-09-21 11:47:26 GMT 43.623276 -7.803614 25,700 212 484 -4032
2021-09-21 11:47:23 GMT 43.628616 -7.799050 25,900 212 485 -4032
2021-09-21 11:47:22 GMT 43.630737 -7.797291 25,975 212 485 -3968
2021-09-21 11:47:21 GMT 43.634342 -7.794146 26,100 212 485 -3904
2021-09-21 11:47:19 GMT 43.636276 -7.792564 26,150 212 486 -3904
2021-09-21 11:47:18 GMT 43.638748 -7.790392 26,225 212 486 -3840
2021-09-21 11:47:16 GMT 43.642181 -7.787454 26,350 212 487 -3840
2021-09-21 11:47:15 GMT 43.644493 -7.785514 26,425 212 487 -3840
2021-09-21 11:47:14 GMT 43.648308 -7.782244 26,550 212 487 -3840
2021-09-21 11:47:12 GMT 43.650219 -7.780609 26,625 212 488 -3840
2021-09-21 11:47:09 GMT 43.656178 -7.775508 26,825 212 488 -3776
2021-09-21 11:47:08 GMT 43.657150 -7.774679 26,850 212 489 -3776
2021-09-21 11:47:07 GMT 43.661343 -7.771061 27,000 212 489 -3904
2021-09-21 11:47:05 GMT 43.663300 -7.769427 27,050 212 488 -3968
2021-09-21 11:47:04 GMT 43.665394 -7.767596 27,125 212 489 -4032
2021-09-21 11:47:03 GMT 43.669052 -7.764524 27,250 212 489 -4096
2021-09-21 11:47:01 GMT 43.670609 -7.763182 27,325 212 489 -4032
2021-09-21 11:46:59 GMT 43.674473 -7.759944 27,450 212 490 -4032
2021-09-21 11:46:58 GMT 43.677155 -7.757625 27,550 212 490 -4032
2021-09-21 11:46:56 GMT 43.680847 -7.754582 27,675 212 490 -4032
2021-09-21 11:46:55 GMT 43.682785 -7.752898 27,725 212 490 -4032
2021-09-21 11:46:54 GMT 43.686264 -7.750024 27,850 212 490 -4096
2021-09-21 11:46:52 GMT 43.688187 -7.748363 27,925 212 490 -4096
2021-09-21 11:46:51 GMT 43.692673 -7.744659 28,100 212 489 -4096
2021-09-21 11:46:49 GMT 43.694778 -7.742870 28,150 212 489 -4096
2021-09-21 11:46:48 GMT 43.696911 -7.741111 28,225 212 490 -4096
2021-09-21 11:46:46 GMT 43.699814 -7.738655 28,350 212 490 -4032
2021-09-21 11:46:44 GMT 43.703705 -7.735421 28,450 212 490 -3968
2021-09-21 11:46:43 GMT 43.706406 -7.733132 28,575 212 490 -3904
2021-09-21 11:46:42 GMT 43.708328 -7.731501 28,625 212 491 -3904
2021-09-21 11:46:41 GMT 43.709885 -7.730223 28,675 212 491 -3840
2021-09-21 11:46:39 GMT 43.713760 -7.726920 28,800 212 491 -3840
2021-09-21 11:46:38 GMT 43.715298 -7.725612 28,850 212 491 -3840
2021-09-21 11:46:35 GMT 43.721100 -7.720706 29,050 212 491 -3840
2021-09-21 11:46:33 GMT 43.724796 -7.717569 29,175 212 491 -3904
2021-09-21 11:46:32 GMT 43.727875 -7.714893 29,275 212 492 -3904
2021-09-21 11:46:31 GMT 43.732132 -7.711253 29,425 212 492 -3840
2021-09-21 11:46:28 GMT 43.735016 -7.708762 29,500 212 492 -3840
2021-09-21 11:46:26 GMT 43.740810 -7.703836 29,650 212 492 -3776
2021-09-21 11:46:25 GMT 43.740810 -7.703836 29,700 212 492 -3776
2021-09-21 11:46:23 GMT 43.745453 -7.699819 29,850 212 492 -3840
2021-09-21 11:46:20 GMT 43.749298 -7.696498 29,975 212 492 -3840
2021-09-21 11:46:19 GMT 43.751266 -7.694837 30,050 212 492 -3840
2021-09-21 11:46:17 GMT 43.755341 -7.691388 30,175 212 492 -3840
2021-09-21 11:46:16 GMT 43.757053 -7.689907 30,250 212 492 -3840
2021-09-21 11:46:15 GMT 43.763062 -7.684740 30,425 212 493 -3840
2021-09-21 11:46:12 GMT 43.764828 -7.683302 30,500 212 492 -3840
2021-09-21 11:45:59 GMT 43.791271 -7.661067 31,350 210 491 -3776
2021-09-21 11:45:50 GMT 43.810272 -7.646421 31,950 210 491 -3712
2021-09-21 11:45:47 GMT 43.814453 -7.643215 32,100 210 490 -3904
2021-09-21 11:45:36 GMT 43.835728 -7.626604 32,800 210 488 -3648
2021-09-21 11:45:26 GMT 43.855469 -7.610975 33,400 210 486 -3456
2021-09-21 11:45:16 GMT 43.874268 -7.596216 33,925 210 486 -3520
2021-09-21 11:45:07 GMT 43.894665 -7.581220 34,425 206 484 -2496
2021-09-21 11:44:56 GMT 43.915237 -7.567344 34,950 207 485 -2432
2021-09-21 11:44:53 GMT 43.921051 -7.563320 34,950 207 485 -2432
2021-09-21 11:44:46 GMT 43.944763 -7.546969 35,400 207 489 -832
2021-09-21 11:44:36 GMT 43.956253 -7.538984 35,475 207 491 -1152
2021-09-21 11:44:31 GMT 43.965794 -7.532370 35,625 207 493 -2176
2021-09-21 11:44:27 GMT 43.973755 -7.526877 35,800 207 492 -3264
2021-09-21 11:44:23 GMT 43.982090 -7.520992 36,000 207 493 -2368
2021-09-21 11:44:14 GMT 44.000793 -7.507878 36,375 207 492 -2688
2021-09-21 11:44:06 GMT 44.016861 -7.496764 36,725 207 491 -2176
2021-09-21 11:44:03 GMT 44.026840 -7.489865 36,875 207 491 -1152
2021-09-21 11:43:53 GMT 44.043732 -7.478176 36,975 207 493 -192
2021-09-21 11:43:44 GMT 44.061859 -7.465593 37,000 207 493 0
2021-09-21 11:43:34 GMT 44.083481 -7.450496 37,000 207 493 0
2021-09-21 11:43:24 GMT 44.102009 -7.437483 37,000 207 493 64
2021-09-21 11:43:14 GMT 44.123199 -7.422670 37,000 207 494 0
2021-09-21 11:43:04 GMT 44.142929 -7.408745 37,000 207 493 0
2021-09-21 11:42:54 GMT 44.163269 -7.394453 37,000 207 492 0
2021-09-21 11:42:43 GMT 44.184826 -7.379347 37,000 207 492 64
2021-09-21 11:42:33 GMT 44.206009 -7.364567 37,000 207 493 0
2021-09-21 11:42:24 GMT 44.226395 -7.350255 37,000 207 493 0
2021-09-21 11:42:13 GMT 44.246979 -7.335859 37,000 207 493 64
2021-09-21 11:42:03 GMT 44.267166 -7.321799 37,000 207 494 0
2021-09-21 11:41:56 GMT 44.282089 -7.311336 37,000 207 494 0
2021-09-21 11:41:53 GMT 44.288177 -7.307085 37,000 207 494 0
2021-09-21 11:41:43 GMT 44.308418 -7.292912 37,000 207 495 0
2021-09-21 11:41:36 GMT 44.324760 -7.281390 37,000 207 495 0
2021-09-21 11:41:33 GMT 44.331093 -7.276969 37,000 207 495 0
2021-09-21 11:41:22 GMT 44.350296 -7.263467 37,000 207 495 0
2021-09-21 11:41:13 GMT 44.368103 -7.250977 37,000 207 495 0
2021-09-21 11:41:11 GMT 44.372406 -7.247968 37,000 207 495 0
2021-09-21 11:41:05 GMT 44.386116 -7.238382 37,000 207 495 0
2021-09-21 11:41:02 GMT 44.392029 -7.234162 37,000 207 495 0
2021-09-21 11:40:54 GMT 44.407791 -7.223118 37,000 207 495 0
2021-09-21 11:40:51 GMT 44.414566 -7.218345 37,000 207 495 0
2021-09-21 11:40:33 GMT 44.450226 -7.193298 37,000 207 497 0
2021-09-21 11:40:31 GMT 44.455170 -7.189832 37,000 207 497 0
2021-09-21 11:40:23 GMT 44.470367 -7.179173 37,000 207 497 0
2021-09-21 11:40:21 GMT 44.475681 -7.175412 37,000 207 497 0
2021-09-21 11:40:11 GMT 44.496231 -7.160928 37,000 207 498 0
2021-09-21 11:40:03 GMT 44.511612 -7.150007 37,000 207 497 0
2021-09-21 11:40:01 GMT 44.517391 -7.145937 37,000 207 498 0
2021-09-21 11:39:53 GMT 44.533585 -7.134443 37,000 207 498 0
2021-09-21 11:39:51 GMT 44.537502 -7.131668 37,000 207 498 0
2021-09-21 11:39:43 GMT 44.553543 -7.120383 37,000 207 498 0
2021-09-21 11:39:40 GMT 44.559082 -7.116459 37,000 207 498 0
2021-09-21 11:39:33 GMT 44.574932 -7.105274 37,000 207 498 0
2021-09-21 11:39:30 GMT 44.580276 -7.101484 37,000 207 498 0
2021-09-21 11:39:24 GMT 44.593872 -7.091871 37,000 207 499 0
2021-09-21 11:39:21 GMT 44.601929 -7.086247 37,000 207 499 0
2021-09-21 11:39:14 GMT 44.614502 -7.077339 37,000 207 499 0
2021-09-21 11:39:09 GMT 44.623352 -7.071075 37,000 207 499 -64
2021-09-21 11:39:03 GMT 44.636333 -7.061931 37,000 207 499 -64
2021-09-21 11:39:00 GMT 44.643131 -7.057108 37,000 207 499 0
2021-09-21 11:38:52 GMT 44.658554 -7.046095 37,000 207 499 0
2021-09-21 11:38:49 GMT 44.664139 -7.042171 37,000 207 499 0
2021-09-21 11:38:42 GMT 44.679161 -7.031518 37,000 207 499 0
2021-09-21 11:38:39 GMT 44.685165 -7.027231 37,000 207 499 64
2021-09-21 11:38:34 GMT 44.697144 -7.018760 37,000 207 500 -64
2021-09-21 11:38:29 GMT 44.705795 -7.012612 37,000 207 500 0
2021-09-21 11:38:20 GMT 44.726784 -6.997487 37,000 208 501 0
2021-09-21 11:38:14 GMT 44.737747 -6.989659 37,000 208 500 -64
2021-09-21 11:38:09 GMT 44.746994 -6.982989 37,000 208 500 -64
2021-09-21 11:38:03 GMT 44.760395 -6.973438 37,000 208 501 64
2021-09-21 11:37:59 GMT 44.768692 -6.967490 37,000 208 502 0
2021-09-21 11:37:53 GMT 44.780228 -6.959185 37,000 208 501 0
2021-09-21 11:37:48 GMT 44.789520 -6.952515 37,000 208 502 -64
2021-09-21 11:37:44 GMT 44.800056 -6.944967 37,000 208 501 64
2021-09-21 11:37:37 GMT 44.814304 -6.934785 37,000 207 501 0
2021-09-21 11:37:31 GMT 44.826500 -6.926076 37,000 207 501 0
2021-09-21 11:37:27 GMT 44.834930 -6.919883 37,000 209 503 0
2021-09-21 11:37:24 GMT 44.841019 -6.915174 37,000 210 504 0
2021-09-21 11:37:18 GMT 44.851593 -6.906869 37,000 210 504 0
2021-09-21 11:37:14 GMT 44.861553 -6.899012 37,000 210 504 0
2021-09-21 11:37:09 GMT 44.873100 -6.889902 37,000 210 504 0
2021-09-21 11:36:57 GMT 44.895023 -6.872618 37,000 210 503 0
2021-09-21 11:36:54 GMT 44.902359 -6.866913 37,000 210 503 0
2021-09-21 11:36:47 GMT 44.914345 -6.857478 37,000 210 502 0
2021-09-21 11:36:44 GMT 44.922455 -6.851087 37,000 210 502 0
2021-09-21 11:36:38 GMT 44.934219 -6.841867 37,000 210 503 -64
2021-09-21 11:36:33 GMT 44.944336 -6.833888 37,000 210 502 0
2021-09-21 11:36:27 GMT 44.954891 -6.825591 37,000 210 502 0
2021-09-21 11:36:21 GMT 44.968094 -6.815186 37,000 210 503 0
2021-09-21 11:36:16 GMT 44.977982 -6.807338 37,000 210 502 0
2021-09-21 11:36:12 GMT 44.985893 -6.801140 37,000 210 502 0
2021-09-21 11:36:03 GMT 45.004303 -6.786543 37,000 210 502 0
2021-09-21 11:35:54 GMT 45.024300 -6.770727 37,000 210 501 0
2021-09-21 11:35:44 GMT 45.044495 -6.754695 37,000 210 501 0
2021-09-21 11:35:33 GMT 45.065079 -6.738371 37,000 210 500 0
2021-09-21 11:35:26 GMT 45.078159 -6.727987 37,000 210 500 0
2021-09-21 11:35:20 GMT 45.092266 -6.716733 37,000 210 500 0
2021-09-21 11:35:14 GMT 45.104744 -6.706818 37,000 210 500 0
2021-09-21 11:35:06 GMT 45.120663 -6.694224 37,000 210 500 0
2021-09-21 11:35:03 GMT 45.126709 -6.689431 37,000 210 500 0
2021-09-21 11:34:56 GMT 45.139984 -6.678837 37,000 210 499 0
2021-09-21 11:34:49 GMT 45.153854 -6.667830 37,000 210 499 0
2021-09-21 11:34:46 GMT 45.159676 -6.663141 37,000 210 499 0
2021-09-21 11:34:35 GMT 45.181366 -6.645878 37,000 210 499 0
2021-09-21 11:34:33 GMT 45.185623 -6.642478 37,000 210 499 0
2021-09-21 11:34:25 GMT 45.201057 -6.630182 37,000 210 499 0
2021-09-21 11:34:20 GMT 45.210892 -6.622336 37,000 210 499 0
2021-09-21 11:34:15 GMT 45.221146 -6.614162 37,000 210 499 0
2021-09-21 11:34:08 GMT 45.235229 -6.602917 37,000 210 499 0
2021-09-21 11:33:59 GMT 45.253895 -6.588045 37,000 210 498 0
2021-09-21 11:33:49 GMT 45.273354 -6.572437 37,000 210 499 0
2021-09-21 11:33:42 GMT 45.287201 -6.561388 37,000 210 499 0
2021-09-21 11:33:32 GMT 45.306873 -6.545708 37,000 210 498 0
2021-09-21 11:33:23 GMT 45.325958 -6.530434 37,000 210 498 0
2021-09-21 11:33:06 GMT 45.360268 -6.502968 37,000 210 498 0
2021-09-21 11:33:03 GMT 45.366669 -6.497759 37,000 210 498 0
2021-09-21 11:32:52 GMT 45.388321 -6.480364 37,000 210 498 0
2021-09-21 11:32:42 GMT 45.408600 -6.464081 37,000 210 498 0
2021-09-21 11:32:32 GMT 45.428833 -6.447732 37,000 210 499 0
2021-09-21 11:32:22 GMT 45.448700 -6.431710 37,000 210 499 0
2021-09-21 11:27:25 GMT 46.046539 -5.944016 37,000 210 501 0
2021-09-21 11:26:52 GMT 46.112644 -5.889221 37,000 210 502 0
2021-09-21 11:26:39 GMT 46.139973 -5.866562 37,000 210 502 0
2021-09-21 11:26:32 GMT 46.152447 -5.856262 37,000 210 502 0
2021-09-21 11:26:23 GMT 46.171303 -5.840538 37,000 211 501 0
2021-09-21 11:26:00 GMT 46.216644 -5.802841 37,000 211 501 0
2021-09-21 11:25:48 GMT 46.241684 -5.781890 37,000 211 501 64
2021-09-21 11:25:39 GMT 46.260124 -5.766586 37,000 211 501 0
2021-09-21 11:25:07 GMT 46.322548 -5.714470 37,000 211 499 64
2021-09-21 11:23:24 GMT 46.528015 -5.542134 37,000 211 497 0
2021-09-21 11:23:12 GMT 46.552052 -5.521935 37,000 211 497 0
2021-09-21 11:23:04 GMT 46.568718 -5.507858 37,000 211 496 0
2021-09-21 11:22:51 GMT 46.593887 -5.486666 37,000 211 496 -64
2021-09-21 11:22:41 GMT 46.612896 -5.470573 37,000 211 496 64
2021-09-21 11:22:21 GMT 46.653488 -5.436241 37,000 211 494 0
2021-09-21 11:22:10 GMT 46.674454 -5.418470 37,000 211 495 0
2021-09-21 11:21:59 GMT 46.696976 -5.399378 37,000 211 495 0
2021-09-21 11:21:50 GMT 46.714752 -5.384331 37,000 211 494 0
2021-09-21 11:21:38 GMT 46.737625 -5.364879 37,000 211 494 0
2021-09-21 11:21:29 GMT 46.755981 -5.349270 37,000 211 494 0
2021-09-21 11:21:19 GMT 46.777039 -5.331322 37,000 211 493 0
2021-09-21 11:21:10 GMT 46.793610 -5.317177 37,000 211 493 0
2021-09-21 11:21:07 GMT 46.799881 -5.311823 37,000 211 493 0
2021-09-21 11:20:55 GMT 46.823311 -5.291771 37,000 211 493 0
2021-09-21 11:20:46 GMT 46.840210 -5.277323 37,000 211 493 0
2021-09-21 11:20:36 GMT 46.860645 -5.259773 37,000 211 493 0
2021-09-21 11:20:27 GMT 46.877930 -5.245010 37,000 211 493 0
2021-09-21 11:20:23 GMT 46.888916 -5.235603 37,000 211 493 0
2021-09-21 11:20:16 GMT 46.900726 -5.225441 37,000 211 493 64
2021-09-21 11:20:12 GMT 46.906967 -5.220055 37,000 211 493 64
2021-09-21 11:20:08 GMT 46.918186 -5.210407 37,000 211 493 0
2021-09-21 11:20:05 GMT 46.922283 -5.206886 37,000 211 493 0
2021-09-21 11:19:57 GMT 46.937988 -5.193375 37,000 211 493 0
2021-09-21 11:19:49 GMT 46.953518 -5.180054 37,000 211 493 -64
2021-09-21 11:19:40 GMT 46.972511 -5.163645 37,000 211 492 64
2021-09-21 11:19:30 GMT 46.989761 -5.148811 37,000 211 492 0
2021-09-21 11:19:22 GMT 47.005829 -5.134941 37,000 211 492 0
2021-09-21 11:19:18 GMT 47.013474 -5.128349 37,000 211 492 0
2021-09-21 11:19:10 GMT 47.028946 -5.115028 37,000 211 492 0
2021-09-21 11:19:01 GMT 47.046204 -5.100192 37,000 211 491 0
2021-09-21 11:18:56 GMT 47.056538 -5.091248 37,000 211 491 0
2021-09-21 11:18:49 GMT 47.071426 -5.078362 37,000 211 492 0
2021-09-21 11:18:39 GMT 47.089005 -5.063187 37,000 211 492 0
2021-09-21 11:18:36 GMT 47.095093 -5.057968 37,000 211 492 0
2021-09-21 11:18:30 GMT 47.107002 -5.047654 37,000 211 491 0
2021-09-21 11:18:27 GMT 47.123062 -5.033781 37,000 211 490 0
2021-09-21 11:18:20 GMT 47.128143 -5.029404 37,000 211 491 -64
2021-09-21 11:18:17 GMT 47.134003 -5.024344 37,000 211 490 0
2021-09-21 11:18:10 GMT 47.148239 -5.012032 37,000 211 491 64
2021-09-21 11:18:07 GMT 47.153137 -5.007843 37,000 211 491 64
2021-09-21 11:17:58 GMT 47.171520 -4.991878 37,000 211 492 0
2021-09-21 11:17:47 GMT 47.191864 -4.974266 37,000 211 492 0
2021-09-21 11:17:37 GMT 47.210815 -4.957787 37,000 211 492 0
2021-09-21 11:17:29 GMT 47.228039 -4.942862 37,000 211 492 0
2021-09-21 11:17:16 GMT 47.251373 -4.922630 37,000 211 492 64
2021-09-21 11:17:11 GMT 47.261124 -4.914116 37,000 211 493 0
2021-09-21 11:17:07 GMT 47.270737 -4.905739 37,000 211 493 0
2021-09-21 11:17:04 GMT 47.275635 -4.901482 37,000 211 493 0
2021-09-21 11:16:58 GMT 47.293442 -4.885895 37,000 211 493 0
2021-09-21 11:16:47 GMT 47.311661 -4.869965 37,000 211 494 0
2021-09-21 11:16:43 GMT 47.316395 -4.865887 37,000 211 494 0
2021-09-21 11:16:35 GMT 47.332672 -4.851631 37,000 211 494 0
2021-09-21 11:16:24 GMT 47.353634 -4.833280 37,000 211 494 0
2021-09-21 11:16:17 GMT 47.370712 -4.818329 37,000 211 494 -64
2021-09-21 11:16:14 GMT 47.374676 -4.814899 37,000 211 495 0
2021-09-21 11:16:10 GMT 47.382729 -4.807857 37,000 211 495 0
2021-09-21 11:16:07 GMT 47.386826 -4.804265 37,000 211 494 0
2021-09-21 11:16:04 GMT 47.394699 -4.797386 37,000 211 495 0
2021-09-21 11:15:56 GMT 47.410034 -4.783928 37,000 211 495 -64
2021-09-21 11:15:52 GMT 47.417679 -4.777199 37,000 211 495 0
2021-09-21 11:15:47 GMT 47.428909 -4.767362 37,000 211 495 0
2021-09-21 11:15:36 GMT 47.447994 -4.750601 37,000 211 496 0
2021-09-21 11:15:30 GMT 47.460239 -4.739826 37,000 211 496 0
2021-09-21 11:15:25 GMT 47.470108 -4.731234 37,000 211 497 0
2021-09-21 11:15:20 GMT 47.479370 -4.723065 37,000 211 496 0
2021-09-21 11:15:16 GMT 47.488632 -4.714920 37,000 211 496 0
2021-09-21 11:15:13 GMT 47.495712 -4.708698 37,000 211 496 0
2021-09-21 11:15:05 GMT 47.518242 -4.688909 37,000 211 497 0
2021-09-21 11:15:01 GMT 47.518242 -4.688909 37,000 211 497 0
2021-09-21 11:14:56 GMT 47.527882 -4.680387 37,000 211 497 0
2021-09-21 11:14:53 GMT 47.536789 -4.672554 37,000 211 497 0
2021-09-21 11:14:47 GMT 47.546036 -4.664383 37,000 211 497 0
2021-09-21 11:14:44 GMT 47.549992 -4.660879 37,000 211 498 -64
2021-09-21 11:14:41 GMT 47.562057 -4.650238 37,000 211 498 0
2021-09-21 11:14:38 GMT 47.562057 -4.650238 37,000 211 497 0
2021-09-21 11:14:35 GMT 47.568146 -4.644882 37,000 211 497 0
2021-09-21 11:14:30 GMT 47.580002 -4.634377 37,000 211 497 0
2021-09-21 11:14:26 GMT 47.588104 -4.627235 37,000 211 498 64
2021-09-21 11:14:23 GMT 47.592041 -4.623734 37,000 211 498 64
2021-09-21 11:14:18 GMT 47.602707 -4.614326 37,000 211 498 64
2021-09-21 11:14:15 GMT 47.608429 -4.609245 37,000 211 498 0
2021-09-21 11:14:11 GMT 47.616943 -4.601692 37,000 211 498 0
2021-09-21 11:14:06 GMT 47.626785 -4.592972 37,000 211 498 0
2021-09-21 11:14:03 GMT 47.632343 -4.588060 37,000 211 498 0
2021-09-21 11:14:01 GMT 47.637085 -4.583908 37,000 211 498 0
2021-09-21 11:13:55 GMT 47.648125 -4.574115 37,000 211 498 0
2021-09-21 11:13:51 GMT 47.656631 -4.566605 37,000 211 498 0
2021-09-21 11:13:48 GMT 47.662369 -4.561509 37,000 211 498 0
2021-09-21 11:13:45 GMT 47.668304 -4.556305 37,000 211 498 0
2021-09-21 11:13:41 GMT 47.677963 -4.547706 37,000 211 498 64
2021-09-21 11:13:36 GMT 47.686066 -4.540523 37,000 211 498 64
2021-09-21 11:13:32 GMT 47.694168 -4.533371 37,000 211 498 0
2021-09-21 11:13:30 GMT 47.707993 -4.521149 37,000 211 498 0
2021-09-21 11:13:25 GMT 47.707993 -4.521149 37,000 211 498 -64
2021-09-21 11:13:22 GMT 47.712925 -4.516789 37,000 211 498 -64
2021-09-21 11:13:20 GMT 47.717113 -4.513127 37,000 211 498 -64
2021-09-21 11:13:14 GMT 47.728775 -4.502815 37,000 211 498 -64
2021-09-21 11:13:10 GMT 47.747131 -4.486542 37,000 211 498 0
2021-09-21 11:13:05 GMT 47.747131 -4.486542 37,000 211 498 0
2021-09-21 11:13:02 GMT 47.753098 -4.481295 37,000 211 498 0
2021-09-21 11:12:58 GMT 47.771027 -4.465324 37,000 211 498 64
2021-09-21 11:12:54 GMT 47.771027 -4.465324 37,000 211 499 64
2021-09-21 11:12:49 GMT 47.777771 -4.459322 37,000 211 499 0
2021-09-21 11:12:45 GMT 47.785446 -4.452484 37,000 211 499 0
2021-09-21 11:12:42 GMT 47.791992 -4.446648 37,000 211 499 0
2021-09-21 11:12:38 GMT 47.799271 -4.440193 37,000 211 499 0
2021-09-21 11:12:32 GMT 47.811710 -4.429040 37,000 212 498 0
2021-09-21 11:12:29 GMT 47.818039 -4.423439 37,000 212 498 0
2021-09-21 11:12:25 GMT 47.825161 -4.417067 37,000 212 498 0
2021-09-21 11:12:22 GMT 47.831261 -4.411574 37,000 212 498 0
2021-09-21 11:12:19 GMT 47.838547 -4.405037 37,000 212 498 0
2021-09-21 11:12:15 GMT 47.853745 -4.391433 37,000 212 498 0
2021-09-21 11:12:11 GMT 47.853745 -4.391433 37,000 212 498 0
2021-09-21 11:12:08 GMT 47.858505 -4.387184 37,000 212 498 0
2021-09-21 11:12:05 GMT 47.865189 -4.381210 37,000 212 498 0
2021-09-21 11:12:02 GMT 47.871323 -4.375717 37,000 212 498 0
2021-09-21 11:11:59 GMT 47.879196 -4.368645 37,000 212 498 0
2021-09-21 11:11:55 GMT 47.885120 -4.363333 37,000 212 498 0
2021-09-21 11:11:51 GMT 47.892803 -4.356431 37,000 212 498 0
2021-09-21 11:11:48 GMT 47.898529 -4.351290 37,000 212 498 0
2021-09-21 11:11:44 GMT 47.906433 -4.344200 37,000 212 498 0
2021-09-21 11:11:41 GMT 47.911938 -4.339177 37,000 212 498 0
2021-09-21 11:11:37 GMT 47.921219 -4.330879 37,000 212 499 0
2021-09-21 11:11:34 GMT 47.926163 -4.326416 37,000 212 499 0
2021-09-21 11:11:31 GMT 47.932663 -4.320580 37,000 212 498 0
2021-09-21 11:11:28 GMT 47.938980 -4.314880 37,000 212 499 0
2021-09-21 11:11:24 GMT 47.945499 -4.309035 37,000 212 499 0
2021-09-21 11:11:21 GMT 47.955322 -4.300117 37,000 212 499 -64
2021-09-21 11:11:17 GMT 47.959900 -4.295998 37,000 212 499 -64
2021-09-21 11:11:14 GMT 47.964798 -4.291603 37,000 212 499 0
2021-09-21 11:11:09 GMT 47.976242 -4.281303 37,000 212 499 0
2021-09-21 11:11:05 GMT 47.984138 -4.274175 37,000 212 499 0
2021-09-21 11:11:01 GMT 48.000340 -4.259597 37,000 212 499 0
2021-09-21 11:10:57 GMT 48.000340 -4.259597 37,000 212 499 0
2021-09-21 11:10:54 GMT 48.004852 -4.255442 37,000 212 499 0
2021-09-21 11:10:51 GMT 48.011372 -4.249596 37,000 212 499 0
2021-09-21 11:10:48 GMT 48.018307 -4.243328 37,000 212 499 0
2021-09-21 11:10:44 GMT 48.025803 -4.236568 37,000 212 500 0
2021-09-21 11:10:39 GMT 48.035660 -4.227608 37,000 212 500 0
2021-09-21 11:10:34 GMT 48.045547 -4.218681 37,000 212 500 0
2021-09-21 11:10:29 GMT 48.059551 -4.206003 37,000 212 500 0
2021-09-21 11:10:24 GMT 48.063675 -4.202202 37,000 212 500 0
2021-09-21 11:10:19 GMT 48.075333 -4.191707 37,000 212 500 0
2021-09-21 11:10:17 GMT 48.085052 -4.182907 37,000 212 500 0
2021-09-21 11:10:14 GMT 48.085052 -4.182907 37,000 212 500 0
2021-09-21 11:10:11 GMT 48.090183 -4.178256 37,000 212 500 0
2021-09-21 11:10:09 GMT 48.096085 -4.172882 37,000 212 500 0
2021-09-21 11:10:04 GMT 48.104599 -4.165192 37,000 212 500 0
2021-09-21 11:10:01 GMT 48.110321 -4.159973 37,000 212 500 0
2021-09-21 11:09:58 GMT 48.116253 -4.154663 37,000 212 500 0
2021-09-21 11:09:54 GMT 48.124374 -4.147270 37,000 212 500 0
2021-09-21 11:09:51 GMT 48.129913 -4.142258 37,000 212 501 64
2021-09-21 11:09:48 GMT 48.135853 -4.136916 37,000 212 501 64
2021-09-21 11:09:44 GMT 48.143784 -4.129761 37,000 212 501 64
2021-09-21 11:09:41 GMT 48.150513 -4.123718 37,000 212 501 0
2021-09-21 11:09:39 GMT 48.155457 -4.119255 37,000 212 501 0
2021-09-21 11:09:37 GMT 48.163784 -4.111706 37,000 212 501 0
2021-09-21 11:09:34 GMT 48.163784 -4.111706 37,000 212 500 -64
2021-09-21 11:09:30 GMT 48.170883 -4.105295 37,000 212 501 0
2021-09-21 11:09:28 GMT 48.175827 -4.100858 37,000 212 501 0
2021-09-21 11:09:24 GMT 48.183975 -4.093534 37,000 212 501 0
2021-09-21 11:09:21 GMT 48.190109 -4.087970 37,000 212 500 -64
2021-09-21 11:09:18 GMT 48.195831 -4.082829 37,000 212 500 -64
2021-09-21 11:09:13 GMT 48.204189 -4.075350 37,000 212 500 0
2021-09-21 11:09:10 GMT 48.211079 -4.069134 37,000 212 500 0
2021-09-21 11:09:07 GMT 48.217224 -4.063568 37,000 212 500 0
2021-09-21 11:09:03 GMT 48.231331 -4.050919 37,000 212 500 0
2021-09-21 11:09:00 GMT 48.231331 -4.050919 37,000 212 500 0
2021-09-21 11:08:58 GMT 48.237476 -4.045426 37,000 212 500 0
2021-09-21 11:08:54 GMT 48.243393 -4.040081 37,000 212 500 64
2021-09-21 11:08:49 GMT 48.251129 -4.033109 37,000 212 500 0
2021-09-21 11:08:47 GMT 48.257263 -4.027546 37,000 212 500 0
2021-09-21 11:08:43 GMT 48.264999 -4.020644 37,000 212 500 0
2021-09-21 11:08:40 GMT 48.269760 -4.016348 37,000 212 500 0
2021-09-21 11:08:37 GMT 48.276855 -4.009939 37,000 212 500 0
2021-09-21 11:08:34 GMT 48.282440 -4.004869 37,000 212 500 0
2021-09-21 11:08:31 GMT 48.288357 -3.999529 37,000 212 501 0
2021-09-21 11:08:28 GMT 48.294502 -3.994036 37,000 212 501 0
2021-09-21 11:08:26 GMT 48.298691 -3.990278 37,000 212 501 0
2021-09-21 11:08:23 GMT 48.310143 -3.979797 37,000 212 500 0
2021-09-21 11:08:20 GMT 48.310143 -3.979797 37,000 212 500 0
2021-09-21 11:08:16 GMT 48.317081 -3.973509 37,000 212 500 -64
2021-09-21 11:08:13 GMT 48.324188 -3.967050 37,000 215 502 0
2021-09-21 11:08:10 GMT 48.330112 -3.961583 37,000 212 501 0
2021-09-21 11:08:08 GMT 48.334255 -3.957752 37,000 212 500 0
2021-09-21 11:08:06 GMT 48.337189 -3.955008 37,000 212 500 0
2021-09-21 11:08:03 GMT 48.343895 -3.948862 37,000 213 501 -64
2021-09-21 11:08:00 GMT 48.349731 -3.943247 37,000 214 501 0
2021-09-21 11:07:58 GMT 48.353622 -3.939444 37,000 215 501 0
2021-09-21 11:07:56 GMT 48.356506 -3.936486 37,000 215 502 0
2021-09-21 11:07:52 GMT 48.364700 -3.928105 37,000 215 502 0
2021-09-21 11:07:49 GMT 48.371017 -3.921556 37,000 215 502 0
2021-09-21 11:07:46 GMT 48.376968 -3.915499 37,000 215 502 0
2021-09-21 11:07:43 GMT 48.382671 -3.909615 37,000 215 502 0
2021-09-21 11:07:40 GMT 48.388412 -3.903668 37,000 215 501 0
2021-09-21 11:07:38 GMT 48.392029 -3.899930 37,000 215 501 0
2021-09-21 11:07:36 GMT 48.395462 -3.896344 37,000 215 501 0
2021-09-21 11:07:32 GMT 48.402924 -3.888667 37,000 215 501 0
2021-09-21 11:07:29 GMT 48.408649 -3.882727 37,000 215 501 0
2021-09-21 11:07:26 GMT 48.414932 -3.876222 37,000 215 501 0
2021-09-21 11:07:23 GMT 48.420471 -3.870512 37,000 215 501 0
2021-09-21 11:07:20 GMT 48.426956 -3.863807 37,000 215 501 0
2021-09-21 11:07:15 GMT 48.434784 -3.855708 37,000 215 501 0
2021-09-21 11:07:12 GMT 48.440323 -3.850004 37,000 215 501 0
2021-09-21 11:07:09 GMT 48.449478 -3.840567 37,000 215 501 0
2021-09-21 11:07:05 GMT 48.456161 -3.833595 37,000 215 501 0
2021-09-21 11:07:01 GMT 48.462845 -3.826693 37,000 215 501 0
2021-09-21 11:06:58 GMT 48.466827 -3.822538 37,000 215 501 0
2021-09-21 11:06:56 GMT 48.472378 -3.816809 37,000 215 501 0
2021-09-21 11:06:52 GMT 48.484573 -3.804161 37,000 215 501 0
2021-09-21 11:06:49 GMT 48.484573 -3.804161 37,000 215 500 0
2021-09-21 11:06:46 GMT 48.492004 -3.796410 37,000 215 500 0
2021-09-21 11:06:43 GMT 48.497864 -3.790283 37,000 215 500 0
2021-09-21 11:06:40 GMT 48.502625 -3.785353 37,000 215 501 0
2021-09-21 11:06:37 GMT 48.507385 -3.780381 37,000 215 501 0
2021-09-21 11:06:34 GMT 48.515579 -3.771852 37,000 215 501 0
2021-09-21 11:06:31 GMT 48.518600 -3.768663 37,000 215 500 0
2021-09-21 11:06:28 GMT 48.525284 -3.761691 37,000 215 500 0
2021-09-21 11:06:25 GMT 48.537415 -3.749014 37,000 215 500 0
2021-09-21 11:06:21 GMT 48.537415 -3.749014 37,000 215 500 0
2021-09-21 11:06:18 GMT 48.544628 -3.741495 37,000 215 500 0
2021-09-21 11:06:14 GMT 48.551468 -3.734295 37,000 215 500 0
2021-09-21 11:06:11 GMT 48.556229 -3.729365 37,000 215 500 0
2021-09-21 11:06:08 GMT 48.563828 -3.721407 37,000 215 500 0
2021-09-21 11:06:03 GMT 48.571609 -3.713308 37,000 215 501 0
2021-09-21 11:06:00 GMT 48.584564 -3.699787 37,000 215 501 0
2021-09-21 11:05:58 GMT 48.584564 -3.699787 37,000 215 501 0
2021-09-21 11:05:55 GMT 48.588547 -3.695561 37,000 215 501 0
2021-09-21 11:05:51 GMT 48.594406 -3.689434 37,000 215 501 0
2021-09-21 11:05:49 GMT 48.599945 -3.683659 37,000 215 501 0
2021-09-21 11:05:47 GMT 48.603928 -3.679504 37,000 215 501 0
2021-09-21 11:05:43 GMT 48.609848 -3.673337 37,000 215 501 0
2021-09-21 11:05:41 GMT 48.613632 -3.669363 37,000 215 501 0
2021-09-21 11:05:39 GMT 48.617805 -3.664952 37,000 215 501 -64
2021-09-21 11:05:37 GMT 48.621414 -3.661194 37,000 215 501 -64
2021-09-21 11:05:33 GMT 48.629196 -3.653025 37,000 215 501 0
2021-09-21 11:05:30 GMT 48.635101 -3.646898 37,000 215 500 0
2021-09-21 11:05:27 GMT 48.646343 -3.635101 37,000 215 500 0
2021-09-21 11:05:24 GMT 48.646343 -3.635101 37,000 215 500 0
2021-09-21 11:05:21 GMT 48.651627 -3.629573 37,000 215 500 0
2021-09-21 11:05:18 GMT 48.657749 -3.623175 37,000 215 500 0
2021-09-21 11:05:16 GMT 48.663242 -3.617393 37,000 215 500 0
2021-09-21 11:05:13 GMT 48.672958 -3.607319 37,000 215 500 0
2021-09-21 11:05:11 GMT 48.672958 -3.607319 37,000 215 500 0
2021-09-21 11:05:08 GMT 48.676941 -3.603093 37,000 215 500 0
2021-09-21 11:05:06 GMT 48.680931 -3.598962 37,000 215 500 0
2021-09-21 11:05:03 GMT 48.685680 -3.593975 37,000 215 500 0
2021-09-21 11:05:00 GMT 48.692734 -3.586614 37,000 215 500 0
2021-09-21 11:04:57 GMT 48.698807 -3.580242 37,000 215 500 0
2021-09-21 11:04:54 GMT 48.703789 -3.575110 37,000 215 500 0
2021-09-21 11:04:51 GMT 48.710449 -3.568162 37,000 215 500 0
2021-09-21 11:04:48 GMT 48.723576 -3.554439 37,000 215 501 0
2021-09-21 11:04:44 GMT 48.723576 -3.554439 37,000 215 500 0
2021-09-21 11:04:41 GMT 48.728695 -3.549018 37,000 215 501 0
2021-09-21 11:04:38 GMT 48.739197 -3.538091 37,000 215 501 0
2021-09-21 11:04:33 GMT 48.743546 -3.533550 37,000 215 501 0
2021-09-21 11:04:30 GMT 48.750824 -3.525978 37,000 215 501 0
2021-09-21 11:04:27 GMT 48.755367 -3.521190 37,000 215 501 0
2021-09-21 11:04:24 GMT 48.760712 -3.515625 37,000 215 501 0
2021-09-21 11:04:21 GMT 48.767029 -3.509075 37,000 215 501 0
2021-09-21 11:04:19 GMT 48.775944 -3.499724 37,000 215 501 0
2021-09-21 11:04:16 GMT 48.782650 -3.492785 37,000 215 501 0
2021-09-21 11:04:13 GMT 48.782650 -3.492785 37,000 215 501 0
2021-09-21 11:04:09 GMT 48.792751 -3.482232 37,000 215 501 0
2021-09-21 11:04:07 GMT 48.792751 -3.482232 37,000 215 501 0
2021-09-21 11:04:04 GMT 48.798843 -3.475835 37,000 215 501 0
2021-09-21 11:04:01 GMT 48.805691 -3.468644 37,000 215 501 0
2021-09-21 11:03:59 GMT 48.809277 -3.464813 37,000 215 501 0
2021-09-21 11:03:56 GMT 48.814224 -3.459637 37,000 215 501 0
2021-09-21 11:03:53 GMT 48.819939 -3.453682 37,000 215 501 0
2021-09-21 11:03:50 GMT 48.828503 -3.444648 37,000 215 501 0
2021-09-21 11:03:47 GMT 48.832504 -3.440455 37,000 215 501 0
2021-09-21 11:03:44 GMT 48.837860 -3.434890 37,000 215 501 0
2021-09-21 11:03:41 GMT 48.844299 -3.428087 37,000 215 502 0
2021-09-21 11:03:38 GMT 48.849060 -3.423086 37,000 215 501 0
2021-09-21 11:03:34 GMT 48.854805 -3.417109 37,000 215 501 0
2021-09-21 11:03:32 GMT 48.859726 -3.411889 37,000 215 501 0
2021-09-21 11:03:29 GMT 48.869469 -3.401714 37,000 215 501 0
2021-09-21 11:03:27 GMT 48.869469 -3.401714 37,000 215 501 0
2021-09-21 11:03:23 GMT 48.877853 -3.392944 37,000 215 501 0
2021-09-21 11:03:20 GMT 48.883392 -3.387169 37,000 215 501 0
2021-09-21 11:03:17 GMT 48.891209 -3.379019 37,000 215 501 0
2021-09-21 11:03:13 GMT 48.896759 -3.373225 37,000 215 501 0
2021-09-21 11:03:10 GMT 48.903591 -3.366009 37,000 215 502 0
2021-09-21 11:03:07 GMT 48.908203 -3.361253 37,000 215 501 0
2021-09-21 11:03:03 GMT 48.917931 -3.351047 37,000 215 502 0
2021-09-21 11:03:00 GMT 48.921562 -3.347288 37,000 215 502 0
2021-09-21 11:02:57 GMT 48.927475 -3.341041 37,000 215 502 0
2021-09-21 11:02:54 GMT 48.933201 -3.335073 37,000 215 502 0
2021-09-21 11:02:50 GMT 48.940475 -3.327519 37,000 215 502 0
2021-09-21 11:02:48 GMT 48.945282 -3.322519 37,000 215 502 0
2021-09-21 11:02:45 GMT 48.955776 -3.311511 37,000 215 503 0
2021-09-21 11:02:42 GMT 48.955776 -3.311511 37,000 215 503 0
2021-09-21 11:02:39 GMT 48.964966 -3.301955 37,000 215 502 0
2021-09-21 11:02:37 GMT 48.964966 -3.301955 37,000 215 503 0
2021-09-21 11:02:35 GMT 48.968021 -3.298790 37,000 215 503 0
2021-09-21 11:02:33 GMT 48.972427 -3.294138 37,000 215 502 0
2021-09-21 11:02:29 GMT 48.979706 -3.286575 37,000 215 502 0
2021-09-21 11:02:26 GMT 48.985664 -3.280431 37,000 215 502 0
2021-09-21 11:02:22 GMT 48.994461 -3.271251 37,000 215 502 0
2021-09-21 11:02:19 GMT 48.999481 -3.266038 37,000 215 503 0
2021-09-21 11:02:16 GMT 49.004471 -3.260897 37,000 215 503 0
2021-09-21 11:02:14 GMT 49.008659 -3.256507 37,000 215 502 0
2021-09-21 11:02:11 GMT 49.014618 -3.250291 37,000 215 503 0
2021-09-21 11:02:09 GMT 49.019787 -3.244942 37,000 215 503 0
2021-09-21 11:02:06 GMT 49.023651 -3.240895 37,000 215 503 0
2021-09-21 11:02:03 GMT 49.029190 -3.235112 37,000 215 503 0
2021-09-21 11:02:01 GMT 49.033237 -3.230992 37,000 215 503 0
2021-09-21 11:01:58 GMT 49.040314 -3.223548 37,000 215 503 0
2021-09-21 11:01:55 GMT 49.046272 -3.217404 37,000 215 503 0
2021-09-21 11:01:53 GMT 49.049149 -3.214417 37,000 215 503 0
2021-09-21 11:01:51 GMT 49.053394 -3.210032 37,000 215 503 0
2021-09-21 11:01:48 GMT 49.059727 -3.203454 37,000 215 503 0
2021-09-21 11:01:45 GMT 49.064713 -3.198289 37,000 215 503 0
2021-09-21 11:01:43 GMT 49.068947 -3.193914 37,000 215 503 0
2021-09-21 11:01:40 GMT 49.073555 -3.189143 37,000 215 503 0
2021-09-21 11:01:38 GMT 49.078171 -3.184345 37,000 215 503 0
2021-09-21 11:01:36 GMT 49.081841 -3.180542 37,000 215 503 0
2021-09-21 11:01:34 GMT 49.091850 -3.170206 37,000 215 503 0
2021-09-21 11:01:31 GMT 49.091850 -3.170206 37,000 215 503 0
2021-09-21 11:01:29 GMT 49.095898 -3.166014 37,000 215 503 0
2021-09-21 11:01:26 GMT 49.102432 -3.159274 37,000 215 503 0
2021-09-21 11:01:23 GMT 49.107239 -3.154273 37,000 215 503 0
2021-09-21 11:01:20 GMT 49.113190 -3.148146 37,000 215 503 0
2021-09-21 11:01:17 GMT 49.119919 -3.141150 37,000 215 503 0
2021-09-21 11:01:15 GMT 49.121689 -3.139416 37,000 215 503 0
2021-09-21 11:01:13 GMT 49.126099 -3.134766 37,000 215 503 0
2021-09-21 11:01:11 GMT 49.130539 -3.130188 37,000 215 503 0
2021-09-21 11:01:08 GMT 49.136307 -3.124237 37,000 215 503 0
2021-09-21 11:01:06 GMT 49.141296 -3.119061 37,000 215 503 0
2021-09-21 11:01:04 GMT 49.144405 -3.115853 37,000 215 503 0
2021-09-21 11:01:01 GMT 49.149994 -3.110117 37,000 215 503 0
2021-09-21 11:00:57 GMT 49.157860 -3.101903 37,000 215 503 0
2021-09-21 11:00:54 GMT 49.163677 -3.095904 37,000 215 503 0
2021-09-21 11:00:51 GMT 49.168259 -3.091102 37,000 215 504 0
2021-09-21 11:00:48 GMT 49.174850 -3.084341 37,000 215 504 0
2021-09-21 11:00:45 GMT 49.180252 -3.078778 37,000 215 504 0
2021-09-21 11:00:42 GMT 49.185059 -3.073777 37,000 215 504 0
2021-09-21 11:00:39 GMT 49.191788 -3.066805 37,000 215 504 0
2021-09-21 11:00:36 GMT 49.197571 -3.060849 37,000 215 504 0
2021-09-21 11:00:34 GMT 49.202225 -3.056030 37,000 215 504 0
2021-09-21 11:00:31 GMT 49.206459 -3.051669 37,000 215 504 0
2021-09-21 11:00:28 GMT 49.213394 -3.044481 37,000 215 504 0
2021-09-21 11:00:25 GMT 49.219589 -3.038081 37,000 215 504 0
2021-09-21 11:00:22 GMT 49.224197 -3.033311 37,000 215 504 0
2021-09-21 11:00:20 GMT 49.228455 -3.028917 37,000 215 504 0
2021-09-21 11:00:17 GMT 49.235184 -3.021944 37,000 215 504 0
2021-09-21 11:00:14 GMT 49.241592 -3.015395 37,000 215 504 0
2021-09-21 11:00:11 GMT 49.247177 -3.009620 37,000 215 504 0
2021-09-21 11:00:09 GMT 49.250061 -3.006592 37,000 215 504 0
2021-09-21 11:00:06 GMT 49.255646 -3.000817 37,000 215 504 0
2021-09-21 11:00:02 GMT 49.264557 -2.991678 37,000 215 504 0
2021-09-21 10:59:59 GMT 49.268978 -2.987053 37,000 215 504 0
2021-09-21 10:59:57 GMT 49.273029 -2.982860 37,000 215 505 0
2021-09-21 10:59:54 GMT 49.279408 -2.976283 37,000 215 505 0
2021-09-21 10:59:51 GMT 49.291992 -2.963351 37,000 215 505 0
2021-09-21 10:59:48 GMT 49.291992 -2.963351 37,000 215 505 0
2021-09-21 10:59:45 GMT 49.295654 -2.959514 37,000 215 505 0
2021-09-21 10:59:43 GMT 49.300495 -2.954527 37,000 215 505 0
2021-09-21 10:59:40 GMT 49.308426 -2.946378 37,000 214 506 0
2021-09-21 10:59:36 GMT 49.314423 -2.940181 37,000 215 505 0
2021-09-21 10:59:34 GMT 49.317303 -2.937180 37,000 215 505 0
2021-09-21 10:59:32 GMT 49.321014 -2.933420 37,000 215 505 0
2021-09-21 10:59:29 GMT 49.326424 -2.927784 37,000 215 505 0
2021-09-21 10:59:27 GMT 49.331451 -2.922645 37,000 215 505 0
2021-09-21 10:59:24 GMT 49.336063 -2.917810 37,000 215 505 0
2021-09-21 10:59:21 GMT 49.343033 -2.910602 37,000 215 505 0
2021-09-21 10:59:19 GMT 49.347282 -2.906245 37,000 215 505 0
2021-09-21 10:59:17 GMT 49.351147 -2.902198 37,000 215 505 0
2021-09-21 10:59:14 GMT 49.355804 -2.897433 37,000 215 505 0
2021-09-21 10:59:12 GMT 49.361435 -2.891587 37,000 215 505 0
2021-09-21 10:59:09 GMT 49.366241 -2.886587 37,000 215 505 0
2021-09-21 10:59:06 GMT 49.381916 -2.870395 37,000 215 505 0
2021-09-21 10:59:02 GMT 49.381916 -2.870395 37,000 215 505 0
2021-09-21 10:58:59 GMT 49.389862 -2.862150 37,000 215 505 0
2021-09-21 10:58:57 GMT 49.397415 -2.854333 37,000 215 505 0
2021-09-21 10:58:53 GMT 49.397415 -2.854333 37,000 215 505 0
2021-09-21 10:58:49 GMT 49.405144 -2.846326 37,000 214 506 0
2021-09-21 10:58:46 GMT 49.411331 -2.839966 37,000 214 506 0
2021-09-21 10:58:43 GMT 49.422180 -2.828698 37,000 214 506 0
2021-09-21 10:58:40 GMT 49.422180 -2.828698 37,000 214 506 0
2021-09-21 10:58:37 GMT 49.433807 -2.816692 37,000 214 506 0
2021-09-21 10:58:34 GMT 49.433807 -2.816692 37,000 214 506 0
2021-09-21 10:58:31 GMT 49.441360 -2.808886 37,000 214 506 0
2021-09-21 10:58:28 GMT 49.444290 -2.805850 37,000 214 506 0
2021-09-21 10:58:25 GMT 49.451065 -2.798839 37,000 214 506 0
2021-09-21 10:58:22 GMT 49.463516 -2.786046 37,000 214 506 0
2021-09-21 10:58:19 GMT 49.463516 -2.786046 37,000 214 506 -64
2021-09-21 10:58:17 GMT 49.467361 -2.781998 37,000 214 506 -64
2021-09-21 10:58:15 GMT 49.471249 -2.777982 37,000 214 506 0
2021-09-21 10:58:11 GMT 49.478622 -2.770362 36,525 214 505 1216
2021-09-21 10:58:09 GMT 49.482697 -2.766169 37,000 214 507 0
2021-09-21 10:58:06 GMT 49.488937 -2.759721 37,000 214 507 0
2021-09-21 10:58:04 GMT 49.491638 -2.756900 37,000 214 507 0
2021-09-21 10:58:02 GMT 49.503883 -2.744281 37,000 214 507 0
2021-09-21 10:57:58 GMT 49.503883 -2.744281 37,000 214 507 0
2021-09-21 10:57:55 GMT 49.510120 -2.737897 37,000 214 506 -128
2021-09-21 10:57:51 GMT 49.516872 -2.730845 37,000 214 505 960
2021-09-21 10:57:49 GMT 49.522923 -2.724684 37,000 214 505 256
2021-09-21 10:57:46 GMT 49.526779 -2.720634 36,875 214 505 1088
2021-09-21 10:57:42 GMT 49.536255 -2.710876 36,825 214 505 1088
2021-09-21 10:57:39 GMT 49.541309 -2.705680 36,875 214 505 1088
2021-09-21 10:57:37 GMT 49.544197 -2.702637 36,850 214 505 1088
2021-09-21 10:57:34 GMT 49.550766 -2.695843 36,675 214 505 1152
2021-09-21 10:57:30 GMT 49.557541 -2.688832 36,725 214 505 1152
2021-09-21 10:57:28 GMT 49.562347 -2.683844 36,675 214 505 1152
2021-09-21 10:57:26 GMT 49.566029 -2.679996 36,650 214 505 1216
2021-09-21 10:57:22 GMT 49.571663 -2.674206 36,500 214 505 1152
2021-09-21 10:57:19 GMT 49.579376 -2.666208 36,500 214 505 1216
2021-09-21 10:57:16 GMT 49.591167 -2.653941 36,400 214 505 1152
2021-09-21 10:57:12 GMT 49.591167 -2.653941 36,375 214 505 1152
2021-09-21 10:57:10 GMT 49.595444 -2.649584 36,350 215 505 1152
2021-09-21 10:57:07 GMT 49.601990 -2.642718 36,275 215 505 1216
2021-09-21 10:57:05 GMT 49.605698 -2.638887 36,125 215 505 320
2021-09-21 10:57:02 GMT 49.610916 -2.633466 36,175 215 505 1344
2021-09-21 10:57:00 GMT 49.615143 -2.629073 36,125 215 505 1216
2021-09-21 10:56:58 GMT 49.620358 -2.623654 36,075 215 505 1024
2021-09-21 10:56:55 GMT 49.624638 -2.619200 36,050 215 506 768
2021-09-21 10:56:53 GMT 49.630417 -2.613156 36,000 215 505 0
2021-09-21 10:56:49 GMT 49.643188 -2.599857 36,000 215 504 0
2021-09-21 10:56:46 GMT 49.643188 -2.599857 36,000 215 504 0
2021-09-21 10:56:42 GMT 49.655136 -2.587425 36,000 215 505 0
2021-09-21 10:56:40 GMT 49.655136 -2.587425 36,000 215 504 0
2021-09-21 10:56:38 GMT 49.660763 -2.581564 36,000 215 505 0
2021-09-21 10:56:35 GMT 49.668678 -2.573325 36,000 215 505 0
2021-09-21 10:56:33 GMT 49.668678 -2.573325 36,000 215 505 0
2021-09-21 10:56:31 GMT 49.671570 -2.570295 36,000 215 505 0
2021-09-21 10:56:28 GMT 49.680267 -2.561299 36,000 214 505 0
2021-09-21 10:56:24 GMT 49.684925 -2.556474 36,000 215 505 0
2021-09-21 10:56:21 GMT 49.690510 -2.550610 36,000 215 505 0
2021-09-21 10:56:19 GMT 49.695923 -2.544997 36,000 214 505 0
2021-09-21 10:56:15 GMT 49.702103 -2.538584 36,000 214 505 0
2021-09-21 10:56:11 GMT 49.711578 -2.528735 36,000 214 505 0
2021-09-21 10:56:09 GMT 49.715275 -2.524925 36,000 214 505 0
2021-09-21 10:56:07 GMT 49.723160 -2.516664 36,000 214 505 0
2021-09-21 10:56:05 GMT 49.723160 -2.516664 36,000 214 505 0
2021-09-21 10:56:01 GMT 49.729382 -2.510228 36,000 214 505 0
2021-09-21 10:55:58 GMT 49.740967 -2.498161 36,000 214 505 0
2021-09-21 10:55:55 GMT 49.740967 -2.498161 36,000 214 505 0
2021-09-21 10:55:52 GMT 49.746964 -2.491945 36,000 214 505 0
2021-09-21 10:55:50 GMT 49.750797 -2.487884 36,000 214 505 0
2021-09-21 10:55:48 GMT 49.754700 -2.483922 36,000 214 505 0
2021-09-21 10:55:45 GMT 49.760479 -2.477862 36,000 214 505 0
2021-09-21 10:55:43 GMT 49.766064 -2.472072 36,000 214 504 0
2021-09-21 10:55:40 GMT 49.769760 -2.468238 36,000 214 504 0
2021-09-21 10:55:38 GMT 49.775345 -2.462383 36,000 214 504 0
2021-09-21 10:55:35 GMT 49.780975 -2.456601 36,000 214 504 0
2021-09-21 10:55:33 GMT 49.784824 -2.452549 36,000 214 504 0
2021-09-21 10:55:31 GMT 49.787945 -2.449357 36,000 214 504 0
2021-09-21 10:55:28 GMT 49.794693 -2.442380 36,000 214 504 0
2021-09-21 10:55:25 GMT 49.798553 -2.438314 36,000 214 504 0
2021-09-21 10:55:22 GMT 49.809402 -2.427111 36,000 214 504 0
2021-09-21 10:55:20 GMT 49.809402 -2.427111 36,000 214 504 0
2021-09-21 10:55:17 GMT 49.815598 -2.420704 36,000 214 504 0
2021-09-21 10:55:14 GMT 49.825466 -2.410460 36,000 214 504 0
2021-09-21 10:55:11 GMT 49.825466 -2.410460 36,000 214 504 0
2021-09-21 10:55:09 GMT 49.831284 -2.404488 36,000 214 505 0
2021-09-21 10:55:07 GMT 49.834778 -2.400884 36,000 214 504 0
2021-09-21 10:55:05 GMT 49.838654 -2.396899 36,000 214 504 0
2021-09-21 10:55:03 GMT 49.842545 -2.392851 36,000 214 504 0
2021-09-21 10:55:00 GMT 49.848324 -2.386854 36,000 214 505 0
2021-09-21 10:54:57 GMT 49.853954 -2.381064 36,000 214 505 0
2021-09-21 10:54:54 GMT 49.860332 -2.374457 36,000 214 505 0
2021-09-21 10:54:51 GMT 49.865173 -2.369410 36,000 214 505 0
2021-09-21 10:54:49 GMT 49.868866 -2.365602 36,000 214 505 0
2021-09-21 10:54:47 GMT 49.872574 -2.361844 36,000 214 505 0
2021-09-21 10:54:45 GMT 49.876255 -2.357978 36,000 214 505 0
2021-09-21 10:54:42 GMT 49.883606 -2.350424 36,000 214 504 0
2021-09-21 10:54:39 GMT 49.887680 -2.346159 36,000 214 503 512
2021-09-21 10:54:37 GMT 49.893677 -2.339943 36,000 214 504 0
2021-09-21 10:54:35 GMT 49.895805 -2.337787 36,000 214 504 0
2021-09-21 10:54:33 GMT 49.901230 -2.332137 36,000 214 504 0
2021-09-21 10:54:31 GMT 49.902973 -2.330364 36,000 214 505 0
2021-09-21 10:54:29 GMT 49.907818 -2.325316 36,000 214 505 0
2021-09-21 10:54:26 GMT 49.912491 -2.320500 36,000 214 504 -64
2021-09-21 10:54:24 GMT 49.918488 -2.314284 36,000 214 504 -128
2021-09-21 10:54:21 GMT 49.923935 -2.308719 36,025 214 504 192
2021-09-21 10:54:18 GMT 49.934212 -2.298073 36,025 214 504 128
2021-09-21 10:54:16 GMT 49.939636 -2.292456 36,000 214 504 320
2021-09-21 10:54:13 GMT 49.939636 -2.292456 35,975 214 504 448
2021-09-21 10:54:10 GMT 49.945057 -2.286864 35,950 214 503 448
2021-09-21 10:54:08 GMT 49.951435 -2.280331 35,925 214 503 448
2021-09-21 10:54:03 GMT 49.961472 -2.269905 35,900 214 503 448
2021-09-21 10:54:01 GMT 49.966145 -2.265114 35,875 214 503 448
2021-09-21 10:53:59 GMT 49.969986 -2.261088 35,875 214 503 448
2021-09-21 10:53:57 GMT 49.969986 -2.261088 35,850 214 503 448
2021-09-21 10:53:55 GMT 49.972897 -2.258136 35,850 214 503 512
2021-09-21 10:53:53 GMT 49.977364 -2.253533 35,800 214 503 448
2021-09-21 10:53:50 GMT 49.986073 -2.244551 35,825 214 503 448
2021-09-21 10:53:46 GMT 49.990494 -2.239949 35,650 214 503 512
2021-09-21 10:53:43 GMT 49.997242 -2.232897 35,750 214 503 512
2021-09-21 10:53:40 GMT 50.002876 -2.227107 35,725 214 502 448
2021-09-21 10:53:38 GMT 50.007294 -2.222563 35,725 214 502 448
2021-09-21 10:53:36 GMT 50.010178 -2.219527 35,675 214 502 448
2021-09-21 10:53:34 GMT 50.015213 -2.214339 35,675 214 501 448
2021-09-21 10:53:32 GMT 50.017914 -2.211592 35,650 214 501 512
2021-09-21 10:53:30 GMT 50.021961 -2.207435 35,650 214 501 512
2021-09-21 10:53:27 GMT 50.029831 -2.199270 35,575 214 499 704
2021-09-21 10:53:23 GMT 50.037327 -2.191550 35,100 214 498 1088
2021-09-21 10:53:20 GMT 50.040985 -2.187797 35,475 214 498 1216
2021-09-21 10:53:17 GMT 50.047897 -2.180714 35,450 214 498 1280
2021-09-21 10:53:14 GMT 50.057297 -2.171062 35,350 214 498 1344
2021-09-21 10:53:10 GMT 50.060741 -2.167499 35,225 214 498 1408
2021-09-21 10:53:08 GMT 50.063416 -2.164740 35,200 214 498 960
2021-09-21 10:53:06 GMT 50.067490 -2.160595 35,225 214 498 1408
2021-09-21 10:53:04 GMT 50.072479 -2.155489 35,175 214 498 1280
2021-09-21 10:53:02 GMT 50.075546 -2.152381 35,125 214 498 960
2021-09-21 10:53:00 GMT 50.079575 -2.148189 35,025 214 497 128
2021-09-21 10:52:57 GMT 50.084381 -2.143274 35,025 214 498 704
2021-09-21 10:52:55 GMT 50.089558 -2.137954 35,025 214 497 192
2021-09-21 10:52:52 GMT 50.100681 -2.126523 35,000 214 497 256
2021-09-21 10:52:49 GMT 50.100681 -2.126523 35,000 214 495 0
2021-09-21 10:52:46 GMT 50.105476 -2.121623 35,000 214 495 0
2021-09-21 10:52:44 GMT 50.110271 -2.116724 35,000 214 495 0
2021-09-21 10:52:41 GMT 50.117489 -2.109301 35,000 214 495 0
2021-09-21 10:52:38 GMT 50.121689 -2.104966 35,000 214 495 0
2021-09-21 10:52:36 GMT 50.130478 -2.095939 35,000 214 495 0
2021-09-21 10:52:34 GMT 50.130478 -2.095939 35,000 214 495 0
2021-09-21 10:52:32 GMT 50.133545 -2.092823 35,000 214 495 0
2021-09-21 10:52:30 GMT 50.137180 -2.089110 35,000 214 495 0
2021-09-21 10:52:28 GMT 50.141182 -2.084953 35,000 214 495 0
2021-09-21 10:52:25 GMT 50.152588 -2.073224 35,000 214 495 0
2021-09-21 10:52:22 GMT 50.152588 -2.073224 35,000 214 495 0
2021-09-21 10:52:19 GMT 50.158127 -2.067526 35,000 214 495 0
2021-09-21 10:52:17 GMT 50.161201 -2.064390 35,000 214 495 0
2021-09-21 10:52:15 GMT 50.167110 -2.058303 35,000 214 495 0
2021-09-21 10:52:12 GMT 50.176842 -2.048282 35,000 214 495 0
2021-09-21 10:52:09 GMT 50.176842 -2.048282 35,000 214 495 0
2021-09-21 10:52:06 GMT 50.183498 -2.041453 35,000 214 495 0
2021-09-21 10:52:02 GMT 50.191132 -2.033555 35,000 214 495 0
2021-09-21 10:52:00 GMT 50.194763 -2.029873 35,000 214 495 0
2021-09-21 10:51:58 GMT 50.198181 -2.026327 35,000 214 495 0
2021-09-21 10:51:55 GMT 50.206169 -2.018070 35,000 214 495 0
2021-09-21 10:51:52 GMT 50.208450 -2.015694 35,000 214 495 0
2021-09-21 10:51:49 GMT 50.214569 -2.009414 35,000 214 495 0
2021-09-21 10:51:47 GMT 50.220474 -2.003270 35,000 214 495 0
2021-09-21 10:51:44 GMT 50.226379 -1.997199 35,000 214 494 0
2021-09-21 10:51:41 GMT 50.231495 -1.991866 35,000 214 495 0
2021-09-21 10:51:38 GMT 50.235126 -1.988154 35,000 214 495 0
2021-09-21 10:51:36 GMT 50.244434 -1.978504 35,000 214 494 0
2021-09-21 10:51:34 GMT 50.244434 -1.978504 35,000 214 494 0
2021-09-21 10:51:31 GMT 50.248440 -1.974347 35,000 214 494 0
2021-09-21 10:51:29 GMT 50.253979 -1.968631 35,000 214 494 0
2021-09-21 10:51:27 GMT 50.258331 -1.964095 35,000 214 494 0
2021-09-21 10:51:25 GMT 50.261169 -1.961132 35,000 214 494 0
2021-09-21 10:51:22 GMT 50.272785 -1.949034 35,000 214 495 0
2021-09-21 10:51:19 GMT 50.272785 -1.949034 35,000 213 494 0
2021-09-21 10:51:16 GMT 50.276779 -1.944869 35,000 214 495 0
2021-09-21 10:51:14 GMT 50.281723 -1.939755 35,000 202 491 0
2021-09-21 10:51:11 GMT 50.287403 -1.933816 35,000 215 494 0
2021-09-21 10:51:08 GMT 50.292896 -1.928026 35,000 214 495 0
2021-09-21 10:51:06 GMT 50.300537 -1.920222 35,000 212 495 0
2021-09-21 10:51:04 GMT 50.300537 -1.920222 35,000 205 491 0
2021-09-21 10:51:01 GMT 50.306534 -1.914295 35,000 211 493 0
2021-09-21 10:50:59 GMT 50.311020 -1.910031 35,000 210 493 0
2021-09-21 10:50:55 GMT 50.318871 -1.902862 35,000 210 493 0
2021-09-21 10:50:53 GMT 50.327271 -1.895648 35,000 208 492 0
2021-09-21 10:50:50 GMT 50.327271 -1.895648 35,000 208 492 0
2021-09-21 10:50:48 GMT 50.338799 -1.886308 35,000 207 492 0
2021-09-21 10:50:45 GMT 50.338799 -1.886308 35,000 206 492 0
2021-09-21 10:50:42 GMT 50.344524 -1.881928 35,000 204 492 0
2021-09-21 10:50:39 GMT 50.351738 -1.876732 35,000 204 492 0
2021-09-21 10:50:35 GMT 50.359634 -1.871362 35,000 202 491 0
2021-09-21 10:50:32 GMT 50.366821 -1.866859 35,000 202 491 0
2021-09-21 10:50:30 GMT 50.369755 -1.865003 35,000 202 491 0
2021-09-21 10:50:28 GMT 50.381531 -1.857580 35,000 202 491 0
2021-09-21 10:50:25 GMT 50.381531 -1.857580 35,000 202 491 0
2021-09-21 10:50:23 GMT 50.390984 -1.851642 35,000 202 491 0
2021-09-21 10:50:20 GMT 50.390984 -1.851642 35,000 202 491 0
2021-09-21 10:50:17 GMT 50.397308 -1.847727 35,000 202 491 0
2021-09-21 10:50:15 GMT 50.401291 -1.845197 35,000 202 491 0
2021-09-21 10:50:13 GMT 50.407646 -1.841249 35,000 202 491 0
2021-09-21 10:50:10 GMT 50.413284 -1.837680 35,000 202 491 0
2021-09-21 10:50:07 GMT 50.420242 -1.833344 35,000 202 491 0
2021-09-21 10:50:04 GMT 50.424267 -1.830783 35,000 202 491 0
2021-09-21 10:50:01 GMT 50.430130 -1.827055 35,000 202 491 0
2021-09-21 10:49:59 GMT 50.434570 -1.824309 35,000 202 491 0
2021-09-21 10:49:57 GMT 50.438736 -1.821634 35,000 202 491 0
2021-09-21 10:49:55 GMT 50.443176 -1.818888 35,000 202 491 0
2021-09-21 10:49:53 GMT 50.446751 -1.816604 35,000 202 491 0
2021-09-21 10:49:51 GMT 50.452850 -1.812744 35,000 202 491 0
2021-09-21 10:49:48 GMT 50.458530 -1.809181 35,000 202 491 0
2021-09-21 10:49:45 GMT 50.465286 -1.804938 35,000 202 491 0
2021-09-21 10:49:43 GMT 50.469284 -1.802426 35,000 202 491 0
2021-09-21 10:49:40 GMT 50.473240 -1.799902 35,000 202 491 0
2021-09-21 10:49:37 GMT 50.482319 -1.794186 35,000 202 491 0
2021-09-21 10:49:34 GMT 50.488834 -1.790029 35,000 202 491 0
2021-09-21 10:49:31 GMT 50.493256 -1.787230 35,000 202 491 0
2021-09-21 10:49:29 GMT 50.497448 -1.784610 35,000 202 491 0
2021-09-21 10:49:26 GMT 50.510899 -1.776074 35,000 202 491 0
2021-09-21 10:49:23 GMT 50.510899 -1.776074 35,000 202 491 0
2021-09-21 10:49:20 GMT 50.517883 -1.771694 35,000 202 491 0
2021-09-21 10:49:18 GMT 50.522072 -1.769022 35,000 202 491 0
2021-09-21 10:49:15 GMT 50.528412 -1.765040 35,000 202 491 0
2021-09-21 10:49:13 GMT 50.533432 -1.761821 35,000 202 491 0
2021-09-21 10:49:10 GMT 50.543766 -1.755289 35,000 203 492 0
2021-09-21 10:49:07 GMT 50.549026 -1.751948 35,000 203 492 0
2021-09-21 10:49:05 GMT 50.549026 -1.751948 35,000 203 492 0
2021-09-21 10:49:03 GMT 50.552994 -1.749428 35,000 203 492 0
2021-09-21 10:49:00 GMT 50.559540 -1.745236 35,000 203 492 0
2021-09-21 10:48:58 GMT 50.563934 -1.742417 35,000 203 492 0
2021-09-21 10:48:55 GMT 50.569836 -1.738661 35,000 203 492 0
2021-09-21 10:48:53 GMT 50.575516 -1.735023 35,000 203 492 0
2021-09-21 10:48:50 GMT 50.579498 -1.732443 35,000 203 492 0
2021-09-21 10:48:48 GMT 50.584763 -1.729046 35,000 203 492 0
2021-09-21 10:48:46 GMT 50.587944 -1.727006 35,000 203 492 0
2021-09-21 10:48:44 GMT 50.591064 -1.725002 35,000 203 491 0
2021-09-21 10:48:42 GMT 50.596558 -1.721513 35,000 203 491 0
2021-09-21 10:48:40 GMT 50.602844 -1.717409 35,000 203 491 0
2021-09-21 10:48:37 GMT 50.607697 -1.714301 35,000 203 492 0
2021-09-21 10:48:35 GMT 50.611687 -1.711714 35,000 203 492 0
2021-09-21 10:48:33 GMT 50.614803 -1.709636 35,000 203 492 0
2021-09-21 10:48:31 GMT 50.621136 -1.705553 35,000 203 492 0
2021-09-21 10:48:28 GMT 50.632030 -1.698427 35,000 203 492 0
2021-09-21 10:48:26 GMT 50.632030 -1.698427 35,000 203 492 0
2021-09-21 10:48:23 GMT 50.637909 -1.694569 35,000 203 492 0
2021-09-21 10:48:20 GMT 50.643585 -1.690883 35,000 203 492 0
2021-09-21 10:48:18 GMT 50.648209 -1.687847 35,000 203 492 0
2021-09-21 10:48:15 GMT 50.653885 -1.684161 35,000 203 492 0
2021-09-21 10:48:13 GMT 50.659149 -1.680764 35,000 203 492 0
2021-09-21 10:48:10 GMT 50.663315 -1.678017 35,000 203 492 0
2021-09-21 10:48:08 GMT 50.669643 -1.673930 35,000 203 492 0
2021-09-21 10:48:06 GMT 50.671921 -1.672446 35,000 203 492 0
2021-09-21 10:48:04 GMT 50.677837 -1.668625 35,000 203 492 0
2021-09-21 10:48:02 GMT 50.681374 -1.666260 35,000 203 492 0
2021-09-21 10:48:00 GMT 50.685608 -1.663538 35,000 203 492 0
2021-09-21 10:47:58 GMT 50.688538 -1.661682 35,000 203 492 0
2021-09-21 10:47:56 GMT 50.692966 -1.658859 35,000 203 492 0
2021-09-21 10:47:54 GMT 50.698013 -1.655595 35,000 203 493 0
2021-09-21 10:47:52 GMT 50.703094 -1.652403 35,000 202 492 0
2021-09-21 10:47:49 GMT 50.708981 -1.648636 35,000 202 492 0
2021-09-21 10:47:46 GMT 50.715775 -1.644460 35,000 202 492 0
2021-09-21 10:47:43 GMT 50.721039 -1.641194 35,000 202 492 0
2021-09-21 10:47:41 GMT 50.724438 -1.639099 35,000 202 492 0
2021-09-21 10:47:39 GMT 50.729507 -1.635998 35,000 202 492 0
2021-09-21 10:47:36 GMT 50.736511 -1.631767 35,000 202 492 0
2021-09-21 10:47:34 GMT 50.740543 -1.629257 35,000 202 492 0
2021-09-21 10:47:32 GMT 50.745010 -1.626511 35,000 202 492 0
2021-09-21 10:47:30 GMT 50.749249 -1.623917 35,000 202 492 0
2021-09-21 10:47:27 GMT 50.755814 -1.619949 35,000 202 492 64
2021-09-21 10:47:24 GMT 50.760681 -1.616920 35,000 202 492 0
2021-09-21 10:47:21 GMT 50.775551 -1.607895 35,000 202 493 0
2021-09-21 10:47:18 GMT 50.775551 -1.607895 35,000 202 493 0
2021-09-21 10:47:15 GMT 50.779785 -1.605301 35,000 202 493 0
2021-09-21 10:47:13 GMT 50.785511 -1.601791 35,000 202 493 0
2021-09-21 10:47:10 GMT 50.791656 -1.597977 35,000 202 493 0
2021-09-21 10:47:07 GMT 50.798447 -1.593834 35,000 202 493 0
2021-09-21 10:47:05 GMT 50.802704 -1.591236 35,000 202 493 0
2021-09-21 10:47:03 GMT 50.806320 -1.589009 35,000 202 493 0
2021-09-21 10:47:00 GMT 50.811813 -1.585693 35,000 202 493 0
2021-09-21 10:46:58 GMT 50.818005 -1.581879 35,000 202 493 0
2021-09-21 10:46:55 GMT 50.823078 -1.578751 35,000 202 493 0
2021-09-21 10:46:52 GMT 50.834793 -1.571639 35,000 202 493 0
2021-09-21 10:46:49 GMT 50.834793 -1.571639 35,000 202 493 0
2021-09-21 10:46:47 GMT 50.838821 -1.569115 35,000 202 493 0
2021-09-21 10:46:45 GMT 50.849213 -1.562731 35,000 202 493 0
2021-09-21 10:46:43 GMT 50.849213 -1.562731 35,000 202 494 0
2021-09-21 10:46:40 GMT 50.855202 -1.559143 35,000 202 494 0
2021-09-21 10:46:38 GMT 50.859203 -1.556625 35,000 202 494 0
2021-09-21 10:46:35 GMT 50.863678 -1.553897 35,000 202 494 0
2021-09-21 10:46:33 GMT 50.873886 -1.547736 35,000 202 493 0
2021-09-21 10:46:31 GMT 50.873886 -1.547736 35,000 202 493 0
2021-09-21 10:46:27 GMT 50.886250 -1.540222 35,000 202 493 0
2021-09-21 10:46:24 GMT 50.888809 -1.538680 35,000 201 493 0
2021-09-21 10:46:22 GMT 50.893478 -1.535859 35,000 201 493 0
2021-09-21 10:46:19 GMT 50.901150 -1.531219 35,000 201 493 0
2021-09-21 10:46:16 GMT 50.905617 -1.528549 35,000 201 493 0
2021-09-21 10:46:14 GMT 50.909866 -1.525912 35,000 201 493 0
2021-09-21 10:46:11 GMT 50.918610 -1.520641 35,000 201 493 0
2021-09-21 10:46:08 GMT 50.930099 -1.513738 35,000 201 493 0
2021-09-21 10:46:05 GMT 50.930099 -1.513738 35,000 201 493 0
2021-09-21 10:46:03 GMT 50.934155 -1.511307 35,000 201 493 0
2021-09-21 10:46:01 GMT 50.938843 -1.508467 35,000 201 494 0
2021-09-21 10:45:58 GMT 50.942905 -1.506042 35,000 201 494 0
2021-09-21 10:45:56 GMT 50.949692 -1.501935 35,000 201 494 -64
2021-09-21 10:45:53 GMT 50.955048 -1.498669 35,000 201 494 -64
2021-09-21 10:45:51 GMT 50.960129 -1.495590 35,000 201 494 -64
2021-09-21 10:45:48 GMT 50.964203 -1.493176 35,000 201 494 -128
2021-09-21 10:45:46 GMT 50.969299 -1.490097 35,000 201 494 -128
2021-09-21 10:45:44 GMT 50.974190 -1.487122 35,000 201 493 128
2021-09-21 10:45:42 GMT 50.978485 -1.484565 35,000 201 493 64
2021-09-21 10:45:39 GMT 50.990158 -1.477513 35,000 201 493 512
2021-09-21 10:45:37 GMT 50.990158 -1.477513 34,950 201 493 832
2021-09-21 10:45:34 GMT 50.994644 -1.474840 34,950 201 493 896
2021-09-21 10:45:32 GMT 50.999977 -1.471634 34,750 201 492 1216
2021-09-21 10:45:28 GMT 51.007645 -1.466972 34,875 201 493 896
2021-09-21 10:45:26 GMT 51.014038 -1.463165 34,825 201 494 896
2021-09-21 10:45:23 GMT 51.018723 -1.460291 34,800 201 494 896
2021-09-21 10:45:21 GMT 51.025116 -1.456451 34,750 201 494 896
2021-09-21 10:45:18 GMT 51.029343 -1.453833 34,725 201 494 896
2021-09-21 10:45:16 GMT 51.034058 -1.451012 34,650 201 493 896
2021-09-21 10:45:13 GMT 51.038712 -1.448212 34,650 201 493 896
2021-09-21 10:45:11 GMT 51.044064 -1.445007 34,600 201 493 896
2021-09-21 10:45:08 GMT 51.055748 -1.437912 34,525 201 493 1024
2021-09-21 10:45:05 GMT 51.055748 -1.437912 34,525 201 492 1152
2021-09-21 10:45:03 GMT 51.062119 -1.434013 34,450 201 492 1344
2021-09-21 10:45:01 GMT 51.069992 -1.429214 34,400 201 492 1408
2021-09-21 10:44:59 GMT 51.069992 -1.429214 34,150 201 493 1408
2021-09-21 10:44:57 GMT 51.074230 -1.426697 34,325 201 492 1408
2021-09-21 10:44:54 GMT 51.085098 -1.420131 34,200 201 492 1408
2021-09-21 10:44:52 GMT 51.085098 -1.420131 34,200 201 493 1408
2021-09-21 10:44:50 GMT 51.096771 -1.413079 34,125 201 492 1344
2021-09-21 10:44:47 GMT 51.096771 -1.413079 34,100 201 492 1408
2021-09-21 10:44:44 GMT 51.101879 -1.409988 34,050 201 492 1408
2021-09-21 10:44:42 GMT 51.107189 -1.406784 33,950 201 492 1408
2021-09-21 10:44:40 GMT 51.109283 -1.405487 33,925 201 492 1408
2021-09-21 10:44:38 GMT 51.115055 -1.402054 33,675 201 492 1536
2021-09-21 10:44:35 GMT 51.122040 -1.397781 33,775 201 492 1472
2021-09-21 10:44:32 GMT 51.127579 -1.394447 33,725 201 492 1472
2021-09-21 10:44:30 GMT 51.130558 -1.392670 33,675 201 492 1472
2021-09-21 10:44:28 GMT 51.135864 -1.389465 33,575 201 492 1536
2021-09-21 10:44:26 GMT 51.139069 -1.387544 33,575 201 492 1536
2021-09-21 10:44:24 GMT 51.145203 -1.383832 33,525 201 492 1536
2021-09-21 10:44:22 GMT 51.147354 -1.382570 33,475 201 492 1472
2021-09-21 10:44:20 GMT 51.160492 -1.374553 33,425 201 492 1536
2021-09-21 10:44:17 GMT 51.160492 -1.374553 33,125 201 492 1536
2021-09-21 10:44:14 GMT 51.165390 -1.371658 33,275 201 492 1536
2021-09-21 10:44:12 GMT 51.169189 -1.369282 33,050 201 492 1536
2021-09-21 10:44:09 GMT 51.175571 -1.365433 33,150 201 492 1536
2021-09-21 10:44:07 GMT 51.180882 -1.362228 32,975 201 492 1536
2021-09-21 10:44:04 GMT 51.187225 -1.358370 33,025 201 492 1472
2021-09-21 10:44:02 GMT 51.195728 -1.353226 32,950 201 491 1472
2021-09-21 10:44:00 GMT 51.195728 -1.353226 32,875 201 491 1536
2021-09-21 10:43:58 GMT 51.200180 -1.350576 32,850 201 491 1536
2021-09-21 10:43:55 GMT 51.205273 -1.347427 32,800 201 491 1536
2021-09-21 10:43:53 GMT 51.210342 -1.344341 32,750 201 491 1536
2021-09-21 10:43:51 GMT 51.214165 -1.342010 32,700 201 491 1536
2021-09-21 10:43:49 GMT 51.220551 -1.338179 32,575 201 490 1536
2021-09-21 10:43:46 GMT 51.224129 -1.335983 32,600 201 490 1536
2021-09-21 10:43:43 GMT 51.233276 -1.330459 32,450 201 490 1536
2021-09-21 10:43:40 GMT 51.240047 -1.326370 32,350 201 490 1536
2021-09-21 10:43:37 GMT 51.244080 -1.324001 32,175 201 490 1536
2021-09-21 10:43:34 GMT 51.254898 -1.317520 32,175 201 490 1536
2021-09-21 10:43:32 GMT 51.254898 -1.317520 32,200 201 490 1536
2021-09-21 10:43:30 GMT 51.260376 -1.314202 32,075 201 490 1536
2021-09-21 10:43:27 GMT 51.263763 -1.312124 32,075 201 490 1600
2021-09-21 10:43:25 GMT 51.269073 -1.309006 31,900 201 490 1600
2021-09-21 10:43:23 GMT 51.274170 -1.305923 31,975 201 490 1664
2021-09-21 10:43:21 GMT 51.278408 -1.303406 31,900 201 490 1664
2021-09-21 10:43:19 GMT 51.283714 -1.300201 31,800 201 490 1600
2021-09-21 10:43:16 GMT 51.291348 -1.295700 31,725 201 489 1600
2021-09-21 10:43:13 GMT 51.294937 -1.293566 31,700 201 489 1600
2021-09-21 10:43:11 GMT 51.299377 -1.290894 31,625 201 489 1600
2021-09-21 10:43:07 GMT 51.307037 -1.286392 31,425 201 489 1792
2021-09-21 10:43:05 GMT 51.313385 -1.282654 31,400 201 489 1856
2021-09-21 10:43:02 GMT 51.318069 -1.279984 31,375 201 489 1728
2021-09-21 10:43:00 GMT 51.322083 -1.277606 31,325 201 489 1600
2021-09-21 10:42:58 GMT 51.328674 -1.273746 31,225 201 489 1216
2021-09-21 10:42:55 GMT 51.333340 -1.271057 31,225 200 488 1088
2021-09-21 10:42:52 GMT 51.340118 -1.267065 31,125 201 487 1280
2021-09-21 10:42:50 GMT 51.343918 -1.264912 31,125 201 487 1280
2021-09-21 10:42:48 GMT 51.350052 -1.261275 31,025 201 486 1280
2021-09-21 10:42:45 GMT 51.354492 -1.258751 30,850 201 485 1280
2021-09-21 10:42:43 GMT 51.357639 -1.256866 30,925 201 485 1280
2021-09-21 10:42:40 GMT 51.363968 -1.253184 30,925 201 485 1280
2021-09-21 10:42:37 GMT 51.371521 -1.248730 30,850 201 484 1280
2021-09-21 10:42:35 GMT 51.374676 -1.246872 30,800 201 484 1280
2021-09-21 10:42:33 GMT 51.378262 -1.244812 30,775 200 483 1280
2021-09-21 10:42:31 GMT 51.389145 -1.238634 30,650 200 482 1408
2021-09-21 10:42:28 GMT 51.394650 -1.235657 30,625 199 481 1536
2021-09-21 10:42:26 GMT 51.394650 -1.235657 30,500 197 482 1536
2021-09-21 10:42:23 GMT 51.399536 -1.233215 30,475 194 481 1536
2021-09-21 10:42:21 GMT 51.404888 -1.230850 30,450 193 481 1536
2021-09-21 10:42:19 GMT 51.410294 -1.228984 30,375 190 479 1344
2021-09-21 10:42:16 GMT 51.420578 -1.226501 30,325 188 478 1344
2021-09-21 10:42:14 GMT 51.420578 -1.226501 30,300 184 476 1472
2021-09-21 10:42:12 GMT 51.423843 -1.226015 30,250 184 475 1536
2021-09-21 10:42:10 GMT 51.428677 -1.225357 30,225 184 475 1536
2021-09-21 10:42:08 GMT 51.433502 -1.224976 30,150 183 475 1600
2021-09-21 10:42:06 GMT 51.436569 -1.224679 30,100 183 475 1664
2021-09-21 10:42:04 GMT 51.442062 -1.224233 30,025 184 474 1664
2021-09-21 10:42:02 GMT 51.446415 -1.223907 29,975 184 474 1664
2021-09-21 10:42:00 GMT 51.450806 -1.223491 29,925 183 474 1536
2021-09-21 10:41:58 GMT 51.454979 -1.223221 29,825 183 474 1536
2021-09-21 10:41:56 GMT 51.460007 -1.222916 29,825 182 473 1472
2021-09-21 10:41:54 GMT 51.464382 -1.222763 29,775 181 473 1536
2021-09-21 10:41:52 GMT 51.468529 -1.222687 29,725 181 472 1664
2021-09-21 10:41:50 GMT 51.472855 -1.222687 29,600 178 471 1728
2021-09-21 10:41:48 GMT 51.483765 -1.223046 29,400 178 471 1728
2021-09-21 10:41:45 GMT 51.483765 -1.223046 29,550 178 471 1728
2021-09-21 10:41:43 GMT 51.489197 -1.223450 29,400 176 470 1728
2021-09-21 10:41:40 GMT 51.495014 -1.223907 29,300 173 467 1536
2021-09-21 10:41:37 GMT 51.501068 -1.224679 29,300 175 469 1664
2021-09-21 10:41:34 GMT 51.507538 -1.225586 29,200 174 468 1600
2021-09-21 10:41:32 GMT 51.511642 -1.226238 29,150 173 468 1536
2021-09-21 10:41:30 GMT 51.516998 -1.227277 29,025 170 464 1664
2021-09-21 10:41:27 GMT 51.522354 -1.228390 29,025 171 465 1600
2021-09-21 10:41:25 GMT 51.531696 -1.230698 28,950 170 464 1792
2021-09-21 10:41:23 GMT 51.531696 -1.230698 28,875 170 464 1792
2021-09-21 10:41:20 GMT 51.538467 -1.232547 28,775 170 463 1536
2021-09-21 10:41:17 GMT 51.543732 -1.234032 28,425 170 462 1472
2021-09-21 10:41:15 GMT 51.547760 -1.235145 28,550 170 461 1536
2021-09-21 10:41:12 GMT 51.555130 -1.237150 28,575 170 462 1536
2021-09-21 10:41:09 GMT 51.562912 -1.239228 28,475 170 461 1536
2021-09-21 10:41:06 GMT 51.567352 -1.240490 28,500 170 461 1536
2021-09-21 10:41:03 GMT 51.571747 -1.241678 28,350 170 460 1536
2021-09-21 10:41:01 GMT 51.577606 -1.243311 28,350 170 459 1536
2021-09-21 10:40:59 GMT 51.581589 -1.244350 28,275 170 458 1536
2021-09-21 10:40:56 GMT 51.588913 -1.246354 28,250 170 458 1536
2021-09-21 10:40:53 GMT 51.593079 -1.247542 28,150 170 457 1536
2021-09-21 10:40:51 GMT 51.598251 -1.248953 28,100 170 457 1536
2021-09-21 10:40:48 GMT 51.604706 -1.250734 28,025 170 456 1536
2021-09-21 10:40:46 GMT 51.607811 -1.251602 27,950 170 453 1472
2021-09-21 10:40:43 GMT 51.616333 -1.253926 27,875 170 454 1536
2021-09-21 10:40:40 GMT 51.625626 -1.256524 27,775 170 453 1472
2021-09-21 10:40:38 GMT 51.625626 -1.256524 27,750 170 453 1408
2021-09-21 10:40:36 GMT 51.629974 -1.257712 27,675 170 452 1472
2021-09-21 10:40:33 GMT 51.636162 -1.259384 27,625 170 450 1472
2021-09-21 10:40:30 GMT 51.645985 -1.262131 27,550 170 450 1472
2021-09-21 10:40:28 GMT 51.645985 -1.262131 27,500 170 449 1472
2021-09-21 10:40:25 GMT 51.652966 -1.264038 27,425 170 448 1536
2021-09-21 10:40:22 GMT 51.658264 -1.265506 27,375 170 448 1536
2021-09-21 10:40:20 GMT 51.662109 -1.266545 27,325 170 447 1536
2021-09-21 10:40:18 GMT 51.665405 -1.267510 27,200 170 447 1536
2021-09-21 10:40:15 GMT 51.672890 -1.269531 27,125 170 445 1472
2021-09-21 10:40:12 GMT 51.683224 -1.272430 27,125 170 444 1472
2021-09-21 10:40:10 GMT 51.687286 -1.273598 26,850 170 443 1536
2021-09-21 10:40:08 GMT 51.687286 -1.273598 26,975 170 442 1536
2021-09-21 10:40:05 GMT 51.692490 -1.275024 26,950 170 441 1536
2021-09-21 10:40:03 GMT 51.697128 -1.276344 26,850 170 441 1536
2021-09-21 10:40:00 GMT 51.701939 -1.277695 26,800 170 439 1536
2021-09-21 10:39:58 GMT 51.714523 -1.281169 26,700 170 439 1600
2021-09-21 10:39:55 GMT 51.714523 -1.281169 26,625 170 435 1536
2021-09-21 10:39:52 GMT 51.719303 -1.282501 26,575 170 436 1600
2021-09-21 10:39:49 GMT 51.723083 -1.283619 26,550 170 436 1536
2021-09-21 10:39:47 GMT 51.727867 -1.284943 26,425 170 435 1536
2021-09-21 10:39:45 GMT 51.738529 -1.287918 26,225 170 434 1664
2021-09-21 10:39:42 GMT 51.738529 -1.287918 26,325 170 433 1728
2021-09-21 10:39:39 GMT 51.746017 -1.290003 26,225 170 432 1920
2021-09-21 10:39:36 GMT 51.750183 -1.291190 26,150 170 432 1920
2021-09-21 10:39:33 GMT 51.756081 -1.292801 26,075 170 431 1792
2021-09-21 10:39:31 GMT 51.759991 -1.293945 25,975 170 430 1856
2021-09-21 10:39:28 GMT 51.767254 -1.295929 25,825 170 430 2048
2021-09-21 10:39:25 GMT 51.771721 -1.297226 25,675 170 429 2240
2021-09-21 10:39:22 GMT 51.778381 -1.299059 25,650 170 429 2304
2021-09-21 10:39:20 GMT 51.781498 -1.299896 25,600 170 429 2368
2021-09-21 10:39:17 GMT 51.787766 -1.301657 25,475 170 429 2432
2021-09-21 10:39:15 GMT 51.792065 -1.302795 25,225 170 429 2496
2021-09-21 10:39:12 GMT 51.797745 -1.304404 25,250 170 429 2496
2021-09-21 10:39:09 GMT 51.803612 -1.306000 25,125 170 429 2496
2021-09-21 10:39:06 GMT 51.809242 -1.307602 25,000 170 429 2560
2021-09-21 10:39:04 GMT 51.812176 -1.308365 24,875 170 429 2624
2021-09-21 10:39:01 GMT 51.820183 -1.310577 24,725 170 430 2688
2021-09-21 10:38:58 GMT 51.825489 -1.312103 24,650 170 430 2624
2021-09-21 10:38:55 GMT 51.831169 -1.313629 24,575 170 430 2496
2021-09-21 10:38:52 GMT 51.836243 -1.315019 24,375 170 430 2432
2021-09-21 10:38:49 GMT 51.842525 -1.316757 24,300 170 429 2432
2021-09-21 10:38:46 GMT 51.848160 -1.318359 24,175 170 429 2432
2021-09-21 10:38:44 GMT 51.850342 -1.318953 24,125 170 429 2368
2021-09-21 10:38:42 GMT 51.859726 -1.321551 23,900 170 429 2240
2021-09-21 10:38:40 GMT 51.859726 -1.321551 23,875 170 429 2240
2021-09-21 10:38:38 GMT 51.862839 -1.322442 23,900 170 429 2240
2021-09-21 10:38:36 GMT 51.866913 -1.323556 23,800 170 428 2240
2021-09-21 10:38:34 GMT 51.875904 -1.326065 23,675 170 427 2176
2021-09-21 10:38:32 GMT 51.875904 -1.326065 23,625 170 427 2112
2021-09-21 10:38:29 GMT 51.881699 -1.327638 23,475 170 426 2048
2021-09-21 10:38:26 GMT 51.888702 -1.329568 23,325 170 425 1984
2021-09-21 10:38:23 GMT 51.893547 -1.330915 23,275 170 424 1984
2021-09-21 10:38:20 GMT 51.898178 -1.332245 23,200 170 423 2048
2021-09-21 10:38:18 GMT 51.902206 -1.333389 23,175 170 423 1920
2021-09-21 10:38:15 GMT 51.907242 -1.334763 23,125 170 423 1920
2021-09-21 10:38:13 GMT 51.912636 -1.336251 23,000 170 421 1792
2021-09-21 10:38:11 GMT 51.916637 -1.337350 22,925 170 419 1600
2021-09-21 10:38:08 GMT 51.922348 -1.338959 22,825 170 418 1728
2021-09-21 10:38:05 GMT 51.925995 -1.340018 22,775 170 418 1728
2021-09-21 10:38:03 GMT 51.931862 -1.341666 22,650 170 416 1792
2021-09-21 10:38:00 GMT 51.936607 -1.343000 22,650 170 414 1856
2021-09-21 10:37:58 GMT 51.939240 -1.343689 22,450 170 414 1856
2021-09-21 10:37:56 GMT 51.944321 -1.345139 22,525 170 413 1920
2021-09-21 10:37:53 GMT 51.950134 -1.346817 22,425 170 411 1920
2021-09-21 10:37:50 GMT 51.957279 -1.348807 22,300 170 410 1856
2021-09-21 10:37:47 GMT 51.960434 -1.349640 22,200 170 409 1856
2021-09-21 10:37:44 GMT 51.967285 -1.351632 22,075 170 406 1792
2021-09-21 10:37:41 GMT 51.970638 -1.352495 22,075 170 406 1792
2021-09-21 10:37:39 GMT 51.975246 -1.353830 22,000 170 404 1792
2021-09-21 10:37:37 GMT 51.978745 -1.354828 21,975 170 403 1920
2021-09-21 10:37:35 GMT 51.983162 -1.356027 21,850 170 401 2304
2021-09-21 10:37:33 GMT 51.986847 -1.357040 21,800 170 400 2560
2021-09-21 10:37:31 GMT 51.990692 -1.358185 21,675 170 400 2496
2021-09-21 10:37:28 GMT 52.001595 -1.361206 21,525 170 399 2624
2021-09-21 10:37:25 GMT 52.001595 -1.361206 21,400 170 399 2688
2021-09-21 10:37:23 GMT 52.005089 -1.362226 21,225 170 399 2688
2021-09-21 10:37:20 GMT 52.009598 -1.363449 21,225 170 399 2624
2021-09-21 10:37:18 GMT 52.015236 -1.365051 21,075 170 398 2496
2021-09-21 10:37:15 GMT 52.019798 -1.366307 21,000 170 397 2432
2021-09-21 10:37:13 GMT 52.024128 -1.367562 20,800 170 397 2432
2021-09-21 10:37:10 GMT 52.027946 -1.368583 20,850 170 397 2432
2021-09-21 10:37:08 GMT 52.032303 -1.369858 20,750 170 395 2688
2021-09-21 10:37:06 GMT 52.036240 -1.370926 20,550 170 394 2752
2021-09-21 10:37:04 GMT 52.045990 -1.373672 20,500 170 395 2944
2021-09-21 10:37:01 GMT 52.050842 -1.375046 20,225 170 395 3072
2021-09-21 10:36:58 GMT 52.050842 -1.375046 20,250 170 395 3008
2021-09-21 10:36:56 GMT 52.053360 -1.375732 20,075 170 393 2752
2021-09-21 10:36:53 GMT 52.058578 -1.377182 20,025 170 395 2752
2021-09-21 10:36:51 GMT 52.063065 -1.378479 19,850 170 394 2752
2021-09-21 10:36:49 GMT 52.065765 -1.379166 19,800 170 394 2752
2021-09-21 10:36:47 GMT 52.070820 -1.380589 19,725 170 393 2752
2021-09-21 10:36:44 GMT 52.074406 -1.381609 19,650 170 393 2752
2021-09-21 10:36:42 GMT 52.079041 -1.382904 17,325 170 375 2688
2021-09-21 10:36:39 GMT 52.083714 -1.384199 19,275 170 391 2496
2021-09-21 10:36:37 GMT 52.088882 -1.385690 19,275 170 391 2432
2021-09-21 10:36:34 GMT 52.092606 -1.386710 19,150 170 390 2432
2021-09-21 10:36:32 GMT 52.097946 -1.388168 19,000 170 388 2368
2021-09-21 10:36:29 GMT 52.101871 -1.389300 18,775 170 387 2432
2021-09-21 10:36:27 GMT 52.105591 -1.390305 18,900 170 385 2496
2021-09-21 10:36:24 GMT 52.110855 -1.391811 18,775 170 386 2496
2021-09-21 10:36:22 GMT 52.115604 -1.393145 18,525 170 382 2560
2021-09-21 10:36:19 GMT 52.124214 -1.395578 18,450 170 383 2496
2021-09-21 10:36:17 GMT 52.124214 -1.395578 18,475 170 382 2560
2021-09-21 10:36:14 GMT 52.132919 -1.398010 18,250 170 382 2496
2021-09-21 10:36:12 GMT 52.132919 -1.398010 18,250 170 382 2496
2021-09-21 10:36:09 GMT 52.137772 -1.399384 18,075 170 378 2688
2021-09-21 10:36:06 GMT 52.141434 -1.400452 17,925 170 380 2624
2021-09-21 10:36:04 GMT 52.146095 -1.401777 17,850 170 378 2688
2021-09-21 10:36:02 GMT 52.151123 -1.403190 17,775 170 378 2688
2021-09-21 10:35:59 GMT 52.154526 -1.404114 17,625 170 377 2624
2021-09-21 10:35:57 GMT 52.159363 -1.405465 17,350 170 376 2624
2021-09-21 10:35:54 GMT 52.162945 -1.406485 17,550 170 375 2688
2021-09-21 10:35:52 GMT 52.167023 -1.407700 17,175 170 373 2880
2021-09-21 10:35:49 GMT 52.171829 -1.408997 17,250 170 373 2880
2021-09-21 10:35:47 GMT 52.175236 -1.410017 16,950 170 373 2880
2021-09-21 10:35:44 GMT 52.180298 -1.411438 17,025 170 372 2688
2021-09-21 10:35:42 GMT 52.185242 -1.412811 16,900 170 372 2688
2021-09-21 10:35:39 GMT 52.188629 -1.413803 16,800 170 370 2688
2021-09-21 10:35:37 GMT 52.191994 -1.414804 16,550 170 369 2752
2021-09-21 10:35:34 GMT 52.196186 -1.415981 16,500 170 368 2816
2021-09-21 10:35:32 GMT 52.201218 -1.417465 16,425 169 367 2752
2021-09-21 10:35:29 GMT 52.208755 -1.419591 16,325 170 364 2432
2021-09-21 10:35:27 GMT 52.208755 -1.419591 16,050 170 364 2432
2021-09-21 10:35:24 GMT 52.213760 -1.421051 16,125 170 365 2432
2021-09-21 10:35:22 GMT 52.216900 -1.421945 16,100 170 365 2432
2021-09-21 10:35:20 GMT 52.221043 -1.423122 15,875 169 362 2752
2021-09-21 10:35:17 GMT 52.226166 -1.424534 15,800 170 360 3200
2021-09-21 10:35:14 GMT 52.230423 -1.425781 15,650 170 360 3200
2021-09-21 10:35:12 GMT 52.234497 -1.426967 15,475 170 360 3072
2021-09-21 10:35:09 GMT 52.238434 -1.428070 15,325 170 359 2944
2021-09-21 10:35:06 GMT 52.244156 -1.429672 14,875 170 357 3520
2021-09-21 10:35:03 GMT 52.247440 -1.430655 15,125 170 357 3136
2021-09-21 10:35:01 GMT 52.250698 -1.431519 14,800 170 357 3520
2021-09-21 10:34:58 GMT 52.255234 -1.432877 14,675 170 357 3520
2021-09-21 10:34:56 GMT 52.260590 -1.434402 14,675 170 357 3520
2021-09-21 10:34:54 GMT 52.263824 -1.435285 14,550 170 357 3392
2021-09-21 10:34:51 GMT 52.268898 -1.436776 14,350 169 356 3072
2021-09-21 10:34:48 GMT 52.271133 -1.437404 14,250 169 354 3136
2021-09-21 10:34:46 GMT 52.275509 -1.438660 13,625 169 354 3136
2021-09-21 10:34:43 GMT 52.279404 -1.439819 14,050 169 354 3392
2021-09-21 10:34:41 GMT 52.284073 -1.441116 13,775 169 354 3392
2021-09-21 10:34:38 GMT 52.289894 -1.442819 13,400 169 354 2944
2021-09-21 10:34:35 GMT 52.292313 -1.443558 13,400 169 354 2944
2021-09-21 10:34:33 GMT 52.296021 -1.444626 13,075 169 352 2560
2021-09-21 10:34:31 GMT 52.299362 -1.445541 13,375 169 352 2560
2021-09-21 10:34:28 GMT 52.305313 -1.447296 13,075 169 349 2624
2021-09-21 10:34:25 GMT 52.313076 -1.449568 13,075 169 348 2688
2021-09-21 10:34:23 GMT 52.313076 -1.449568 13,025 169 348 2880
2021-09-21 10:34:21 GMT 52.316391 -1.450500 12,925 169 347 3072
2021-09-21 10:34:18 GMT 52.320969 -1.451874 12,775 170 347 3008
2021-09-21 10:34:15 GMT 52.328247 -1.453934 12,375 169 344 3072
2021-09-21 10:34:13 GMT 52.328247 -1.453934 12,550 170 345 2944
2021-09-21 10:34:11 GMT 52.333885 -1.455532 12,400 168 344 3136
2021-09-21 10:34:08 GMT 52.335297 -1.455994 12,300 167 343 3200
2021-09-21 10:34:06 GMT 52.339508 -1.457367 12,150 167 343 3264
2021-09-21 10:34:04 GMT 52.343353 -1.458817 11,975 166 343 3328
2021-09-21 10:34:01 GMT 52.348877 -1.461182 11,875 164 342 3520
2021-09-21 10:33:58 GMT 52.351181 -1.462250 11,700 161 343 3392
2021-09-21 10:33:55 GMT 52.356464 -1.465027 11,550 161 343 3392
2021-09-21 10:33:53 GMT 52.358688 -1.466293 11,475 158 342 2880
2021-09-21 10:33:51 GMT 52.363312 -1.469040 11,325 158 342 2752
2021-09-21 10:33:47 GMT 52.367844 -1.472092 11,200 155 340 2368
2021-09-21 10:33:45 GMT 52.370708 -1.474208 11,000 152 337 2176
2021-09-21 10:33:42 GMT 52.374664 -1.477269 11,025 154 339 2240
2021-09-21 10:33:39 GMT 52.378948 -1.480879 10,150 149 332 1600
2021-09-21 10:33:36 GMT 52.386017 -1.487503 10,775 148 330 1408
2021-09-21 10:33:33 GMT 52.387482 -1.488953 10,725 148 328 1088
2021-09-21 10:33:31 GMT 52.390320 -1.491776 9,850 148 323 768
2021-09-21 10:33:28 GMT 52.393524 -1.494980 10,650 148 320 768
2021-09-21 10:33:26 GMT 52.396313 -1.497750 10,625 148 318 896
2021-09-21 10:33:23 GMT 52.400070 -1.501465 10,575 148 313 1344
2021-09-21 10:33:21 GMT 52.403137 -1.504517 10,475 148 306 3072
2021-09-21 10:33:18 GMT 52.406227 -1.507560 10,425 148 307 2304
2021-09-21 10:33:16 GMT 52.409866 -1.511230 10,250 148 306 3072
2021-09-21 10:33:13 GMT 52.412384 -1.513748 10,175 148 306 3072
2021-09-21 10:33:11 GMT 52.415405 -1.516724 10,075 148 306 3008
2021-09-21 10:33:08 GMT 52.417957 -1.519252 9,975 148 306 2880
2021-09-21 10:33:06 GMT 52.421730 -1.522940 9,775 148 305 2688
2021-09-21 10:33:03 GMT 52.424835 -1.526031 9,675 148 304 2624
2021-09-21 10:33:00 GMT 52.430374 -1.531525 9,575 148 304 2688
2021-09-21 10:32:58 GMT 52.430374 -1.531525 9,425 148 302 2816
2021-09-21 10:32:55 GMT 52.433258 -1.534424 9,325 148 301 2880
2021-09-21 10:32:53 GMT 52.437279 -1.538400 9,150 149 301 3008
2021-09-21 10:32:50 GMT 52.440628 -1.541672 9,025 147 300 2880
2021-09-21 10:32:47 GMT 52.443516 -1.544521 8,875 147 300 2880
2021-09-21 10:32:44 GMT 52.447083 -1.548004 8,725 147 300 0
2021-09-21 10:32:41 GMT 52.451385 -1.552505 8,575 142 296 2752
2021-09-21 10:32:38 GMT 52.454365 -1.555743 8,500 141 295 2816
2021-09-21 10:32:35 GMT 52.457203 -1.559038 8,350 143 297 2752
2021-09-21 10:32:33 GMT 52.459530 -1.561863 8,200 142 296 2816
2021-09-21 10:32:30 GMT 52.462883 -1.566101 8,025 138 294 2688
2021-09-21 10:32:27 GMT 52.465714 -1.569977 8,000 137 293 2688
2021-09-21 10:32:24 GMT 52.472305 -1.579819 7,775 136 292 2560
2021-09-21 10:32:21 GMT 52.475281 -1.584625 7,700 135 291 2368
2021-09-21 10:32:18 GMT 52.475281 -1.584625 7,600 135 289 2368
2021-09-21 10:32:15 GMT 52.478149 -1.589251 7,475 135 288 2368
2021-09-21 10:32:11 GMT 52.480957 -1.593857 7,325 135 285 2432
2021-09-21 10:32:08 GMT 52.484344 -1.599374 7,200 135 284 2432
2021-09-21 10:32:06 GMT 52.486771 -1.603317 7,000 135 283 2496
2021-09-21 10:32:03 GMT 52.489372 -1.607535 6,950 135 280 2624
2021-09-21 10:32:00 GMT 52.491699 -1.611302 6,750 135 280 2624
2021-09-21 10:31:57 GMT 52.495193 -1.616974 6,750 135 280 2560
2021-09-21 10:31:54 GMT 52.498077 -1.621582 6,600 135 277 2368
2021-09-21 10:31:51 GMT 52.499798 -1.624329 6,525 135 277 2368
2021-09-21 10:31:48 GMT 52.503250 -1.629944 6,400 135 275 1728
2021-09-21 10:31:46 GMT 52.504734 -1.632254 6,350 135 273 1408
2021-09-21 10:31:43 GMT 52.506958 -1.635895 6,225 135 269 1088
2021-09-21 10:31:40 GMT 52.510391 -1.641464 6,200 135 263 896
2021-09-21 10:31:37 GMT 52.513020 -1.645673 6,175 135 256 896
2021-09-21 10:31:34 GMT 52.514923 -1.648712 6,175 135 256 896
2021-09-21 10:31:32 GMT 52.516846 -1.651840 6,025 135 251 1216
2021-09-21 10:31:29 GMT 52.518768 -1.654968 6,075 134 249 1280
2021-09-21 10:31:27 GMT 52.521149 -1.659012 5,950 130 243 1984
2021-09-21 10:31:24 GMT 52.522934 -1.662388 5,850 110 237 3200
2021-09-21 10:31:22 GMT 52.524658 -1.665998 5,800 126 241 2752
2021-09-21 10:31:19 GMT 52.526054 -1.669059 5,700 124 240 2816
2021-09-21 10:31:17 GMT 52.528008 -1.674081 5,525 119 239 3008
2021-09-21 10:31:14 GMT 52.529125 -1.677220 5,375 117 238 3072
2021-09-21 10:31:12 GMT 52.530624 -1.682053 5,225 113 238 3136
2021-09-21 10:31:09 GMT 52.531723 -1.686172 5,100 106 237 3328
2021-09-21 10:31:06 GMT 52.532898 -1.691659 4,975 106 237 3328
2021-09-21 10:31:03 GMT 52.533646 -1.695786 4,800 104 237 3328
2021-09-21 10:30:59 GMT 52.534946 -1.704372 4,525 102 238 2944
2021-09-21 10:30:56 GMT 52.535549 -1.708609 4,450 102 238 2880
2021-09-21 10:30:53 GMT 52.536201 -1.713318 4,300 101 237 2944
2021-09-21 10:30:50 GMT 52.536896 -1.719513 4,075 98 236 3328
2021-09-21 10:30:47 GMT 52.537365 -1.724461 3,925 94 238 3072
2021-09-21 10:30:44 GMT 52.537643 -1.729719 3,775 85 236 2112
2021-09-21 10:30:41 GMT 52.537445 -1.735382 3,750 70 226 1728
2021-09-21 10:30:37 GMT 52.536530 -1.742589 3,625 70 226 1664
2021-09-21 10:30:34 GMT 52.534573 -1.751064 3,550 65 222 1792
2021-09-21 10:30:31 GMT 52.534573 -1.751064 3,450 63 215 2880
2021-09-21 10:30:28 GMT 52.533131 -1.756008 3,300 63 214 3200
2021-09-21 10:30:25 GMT 52.531548 -1.761108 3,225 63 214 3520
2021-09-21 10:30:22 GMT 52.530708 -1.763933 2,850 64 216 3776
2021-09-21 10:30:19 GMT 52.529312 -1.768485 2,575 57 221 3328
2021-09-21 10:30:16 GMT 52.527374 -1.774673 2,600 59 222 3392
2021-09-21 10:30:13 GMT 52.525589 -1.779556 2,475 53 222 3136
2021-09-21 10:30:09 GMT 52.523804 -1.783447 2,225 45 222 3008
2021-09-21 10:30:06 GMT 52.521679 -1.787083 2,125 36 222 2560
2021-09-21 10:30:03 GMT 52.518002 -1.791478 2,000 30 218 1728
2021-09-21 10:30:00 GMT 52.516930 -1.792498 1,975 27 217 1600
2021-09-21 10:29:59 GMT 52.513962 -1.794815 1,900 23 214 1408
2021-09-21 10:29:57 GMT 52.513962 -1.794815 1,900 18 210 1344
2021-09-21 10:29:56 GMT 52.512226 -1.795794 1,850 16 209 1408
2021-09-21 10:29:52 GMT 52.509979 -1.796646 1,775 11 206 1408
2021-09-21 10:29:50 GMT 52.507095 -1.797256 1,725 2 201 1216
2021-09-21 10:29:45 GMT 52.502777 -1.797128 1,650 352 193 1088
2021-09-21 10:29:42 GMT 52.500076 -1.796422 1,575 346 190 1344
2021-09-21 10:29:38 GMT 52.496353 -1.794460 1,475 335 183 960
2021-09-21 10:29:35 GMT 52.494370 -1.792984 1,425 329 177 1024
2021-09-21 10:29:32 GMT 52.492264 -1.791000 1,400 328 176 1088
2021-09-21 10:29:29 GMT 52.490616 -1.789246 1,375 327 173 1024
2021-09-21 10:29:26 GMT 52.488831 -1.787262 1,325 327 169 1024
2021-09-21 10:29:23 GMT 52.486588 -1.784821 1,250 327 166 1280
2021-09-21 10:29:19 GMT 52.484062 -1.782061 1,175 327 161 1344
2021-09-21 10:29:16 GMT 52.482468 -1.780243 975 326 156 2112
2021-09-21 10:29:13 GMT 52.480499 -1.778030 925 326 157 2048
2021-09-21 10:29:07 GMT 52.476849 -1.773978 750 326 156 2176
2021-09-21 10:29:04 GMT 52.474960 -1.771774 675 326 157 2176
2021-09-21 10:29:00 GMT 52.472488 -1.769028 500 325 155 2112
2021-09-21 10:28:56 GMT 52.470612 -1.766739 400 325 154 2112

Making use of Plane Finder data

You are free to use the raw flight data, aircraft information and images provided in this report for your own purposes provided the data is correctly attributed to Plane Finder. We ask that you please credit Plane Finder and link to planefinder.net in close proximity to the content.

Optionally one of the following logos (no smaller then 150x24px) can be used and must link to planefinder.net

Embedding the Plane Finder map

You are welcome to embed the Plane Finder playback map on your website to offer visitors a more interactive experience. We suggest using the following HTML code:

<iframe src="//planefinder.net/data/report/LS1259-G-JZHB-7700-squawk-2021-09-21/map" width="800" height="600" seamless="seamless"></iframe>

Where our data comes from

Plane Finder has a global network of data feeds and antenna radars that receive data broadcast directly from aircraft. The primary technologies used are ADS-B and MLAT. We also show feeds from the FAA and a FLARM glider feed.

Click here to find out more about the Plane Finder network.

How we collect our data